Provisional Data: Pine Creek near Telescope, PA


Please select a monitoring station.
Please select start date.
Please select start date.

<
Toggle Unit: C/F Toggle Unit: C/F
Sample Time Temperature (C) Temperature (F) Specific Conductivity (mS/cm) pH   Turbidity (NTU+) DO (mg/L)
1/12/2021 12:00:00 AM 2.49 36.482 0.077 6.53 1.96 12.84
1/12/2021 12:15:00 AM 2.49 36.482 0.077 6.53 1.92 12.84
1/12/2021 12:30:00 AM 2.48 36.464 0.077 6.53 1.95 12.84
1/12/2021 12:45:00 AM 2.48 36.464 0.077 6.53 1.89 12.85
1/12/2021 1:00:00 AM 2.47 36.446 0.077 6.53 1.91 12.85
1/12/2021 1:15:00 AM 2.46 36.428 0.077 6.53 2 12.85
1/12/2021 1:30:00 AM 2.45 36.41 0.077 6.53 1.98 12.85
1/12/2021 1:45:00 AM 2.44 36.392 0.077 6.53 1.89 12.86
1/12/2021 2:00:00 AM 2.44 36.392 0.077 6.53 2.01 12.86
1/12/2021 2:15:00 AM 2.43 36.374 0.077 6.53 2.12 12.87
1/12/2021 2:30:00 AM 2.43 36.374 0.077 6.53 2.01 12.86
1/12/2021 2:45:00 AM 2.42 36.356 0.077 6.54 1.97 12.87
1/12/2021 3:00:00 AM 2.41 36.338 0.077 6.53 2.02 12.87
1/12/2021 3:15:00 AM 2.4 36.32 0.077 6.53 1.96 12.88
1/12/2021 3:30:00 AM 2.4 36.32 0.077 6.54 1.87 12.88
1/12/2021 3:45:00 AM 2.38 36.284 0.077 6.53 1.91 12.88
1/12/2021 4:00:00 AM 2.37 36.266 0.077 6.53 1.91 12.88
1/12/2021 4:15:00 AM 2.36 36.248 0.077 6.53 1.9 12.88
1/12/2021 4:30:00 AM 2.35 36.23 0.077 6.53 2.12 12.88
1/12/2021 4:45:00 AM 2.34 36.212 0.077 6.54 2.11 12.88
1/12/2021 5:00:00 AM 2.33 36.194 0.077 6.53 2.09 12.89
1/12/2021 5:15:00 AM 2.33 36.194 0.077 6.53 1.9 12.89
1/12/2021 5:30:00 AM 2.32 36.176 0.077 6.53 1.84 12.89
1/12/2021 5:45:00 AM 2.31 36.158 0.077 6.52 1.84 12.9
1/12/2021 6:00:00 AM 2.29 36.122 0.077 6.53 1.79 12.9
1/12/2021 6:15:00 AM 2.28 36.104 0.077 6.53 1.78 12.91
1/12/2021 6:30:00 AM 2.26 36.068 0.077 6.53 1.82 12.92
1/12/2021 6:45:00 AM 2.25 36.05 0.077 6.53 1.79 12.92
1/12/2021 7:00:00 AM 2.25 36.05 0.077 6.54 1.8 12.92
1/12/2021 7:15:00 AM 2.25 36.05 0.077 6.53 1.84 12.92
1/12/2021 7:30:00 AM 2.24 36.032 0.077 6.53 1.84 12.93
1/12/2021 7:45:00 AM 2.23 36.014 0.077 6.52 1.72 12.94
1/12/2021 8:00:00 AM 2.23 36.014 0.077 6.54 1.82 12.95
1/12/2021 8:15:00 AM 2.22 35.996 0.077 6.54 1.87 12.96
1/12/2021 8:30:00 AM 2.22 35.996 0.077 6.54 1.82 13
1/12/2021 8:45:00 AM 2.22 35.996 0.077 6.56 1.85 13.03
1/12/2021 9:00:00 AM 2.23 36.014 0.077 6.58 1.91 13.07
1/12/2021 9:15:00 AM 2.23 36.014 0.077 6.58 2.1 13.1
1/12/2021 9:30:00 AM 2.25 36.05 0.077 6.59 2.16 13.12
1/12/2021 9:45:00 AM 2.27 36.086 0.077 6.61 2.07 13.14
1/12/2021 10:00:00 AM 2.29 36.122 0.077 6.62 1.99 13.16
1/12/2021 10:15:00 AM 2.31 36.158 0.077 6.62 1.9 13.16
1/12/2021 10:30:00 AM 2.34 36.212 0.077 6.63 1.76 13.17
1/12/2021 10:45:00 AM 2.38 36.284 0.077 6.64 1.74 13.17
1/12/2021 11:00:00 AM 2.42 36.356 0.077 6.66 1.7 13.17
1/12/2021 11:15:00 AM 2.47 36.446 0.077 6.66 1.69 13.16
1/12/2021 11:30:00 AM 2.54 36.572 0.077 6.67 1.72 13.15
1/12/2021 11:45:00 AM 2.59 36.662 0.077 6.67 1.65 13.13
1/12/2021 12:00:00 PM 2.65 36.77 0.077 6.68 1.68 13.11
1/12/2021 12:15:00 PM 2.71 36.878 0.076 6.68 1.66 13.1
1/12/2021 12:30:00 PM 2.78 37.004 0.076 6.68 1.72 13.07
1/12/2021 12:45:00 PM 2.85 37.13 0.076 6.69 1.68 13.04
1/12/2021 1:00:00 PM 2.91 37.238 0.076 6.69 1.67 13.02
1/12/2021 1:15:00 PM 2.95 37.31 0.076 6.68 1.65 12.99
1/12/2021 1:30:00 PM 3 37.4 0.076 6.68 1.64 12.97
1/12/2021 1:45:00 PM 3.06 37.508 0.076 6.7 1.65 12.95
1/12/2021 2:00:00 PM 3.12 37.616 0.076 6.7 1.67 12.92
1/12/2021 2:15:00 PM 3.15 37.67 0.076 6.7 1.68 12.91
1/12/2021 2:30:00 PM 3.18 37.724 0.076 6.69 1.65 12.89
1/12/2021 2:45:00 PM 3.21 37.778 0.076 6.7 1.67 12.88
1/12/2021 3:00:00 PM 3.2 37.76 0.076 6.69 1.66 12.85
1/12/2021 3:15:00 PM 3.19 37.742 0.076 6.67 1.71 12.82
1/12/2021 3:30:00 PM 3.17 37.706 0.076 6.66 1.67 12.79
1/12/2021 3:45:00 PM 3.15 37.67 0.076 6.65 1.65 12.78
1/12/2021 4:00:00 PM 3.14 37.652 0.076 6.64 1.69 12.75
1/12/2021 4:15:00 PM 3.11 37.598 0.076 6.63 1.68 12.73
1/12/2021 4:30:00 PM 3.09 37.562 0.076 6.61 1.68 12.71
1/12/2021 4:45:00 PM 3.08 37.544 0.076 6.61 1.76 12.69
1/12/2021 5:00:00 PM 3.06 37.508 0.076 6.6 1.69 12.67
1/12/2021 5:15:00 PM 3.03 37.454 0.077 6.59 1.68 12.66
1/12/2021 5:30:00 PM 3.01 37.418 0.077 6.57 1.74 12.66
1/12/2021 5:45:00 PM 2.98 37.364 0.077 6.57 1.65 12.65
1/12/2021 6:00:00 PM 2.95 37.31 0.077 6.58 1.76 12.66
1/12/2021 6:15:00 PM 2.92 37.256 0.077 6.56 1.7 12.66
1/12/2021 6:30:00 PM 2.9 37.22 0.077 6.56 1.76 12.67
1/12/2021 6:45:00 PM 2.87 37.166 0.077 6.55 1.79 12.67
1/12/2021 7:00:00 PM 2.85 37.13 0.077 6.55 1.75 12.69
1/12/2021 7:15:00 PM 2.83 37.094 0.077 6.56 1.71 12.69
1/12/2021 7:30:00 PM 2.81 37.058 0.077 6.55 1.74 12.7
1/12/2021 7:45:00 PM 2.78 37.004 0.077 6.55 1.73 12.7
1/12/2021 8:00:00 PM 2.77 36.986 0.077 6.55 1.8 12.71
1/12/2021 8:15:00 PM 2.75 36.95 0.077 6.54 1.72 12.72
1/12/2021 8:30:00 PM 2.73 36.914 0.077 6.54 1.82 12.73
1/12/2021 8:45:00 PM 2.71 36.878 0.077 6.54 1.82 12.74
1/12/2021 9:00:00 PM 2.69 36.842 0.077 6.55 1.79 12.74
1/12/2021 9:15:00 PM 2.67 36.806 0.077 6.55 1.87 12.75
1/12/2021 9:30:00 PM 2.65 36.77 0.077 6.55 1.9 12.76
1/12/2021 9:45:00 PM 2.64 36.752 0.077 6.55 1.95 12.76
1/12/2021 10:00:00 PM 2.62 36.716 0.077 6.54 2.01 12.77
1/12/2021 10:15:00 PM 2.6 36.68 0.077 6.54 2.06 12.78
1/12/2021 10:30:00 PM 2.59 36.662 0.077 6.55 2.11 12.78
1/12/2021 10:45:00 PM 2.56 36.608 0.078 6.54 2.01 12.79
1/12/2021 11:00:00 PM 2.55 36.59 0.078 6.54 1.91 12.8
1/12/2021 11:15:00 PM 2.53 36.554 0.078 6.54 1.87 12.8
1/12/2021 11:30:00 PM 2.52 36.536 0.078 6.54 1.89 12.81
1/12/2021 11:45:00 PM 2.5 36.5 0.078 6.55 1.92 12.81
1/13/2021 12:00:00 AM 2.49 36.482 0.078 6.55 1.98 12.81
1/13/2021 12:15:00 AM 2.48 36.464 0.078 6.54 1.91 12.81
1/13/2021 12:30:00 AM 2.47 36.446 0.078 6.54 1.92 12.82
1/13/2021 12:45:00 AM 2.45 36.41 0.078 6.54 1.87 12.82
1/13/2021 1:00:00 AM 2.44 36.392 0.078 6.54 1.89 12.83
1/13/2021 1:15:00 AM 2.43 36.374 0.078 6.55 1.91 12.83
1/13/2021 1:30:00 AM 2.4 36.32 0.078 6.54 1.95 12.84
1/13/2021 1:45:00 AM 2.39 36.302 0.078 6.54 1.93 12.84
1/13/2021 2:00:00 AM 2.37 36.266 0.078 6.54 1.93 12.85
1/13/2021 2:15:00 AM 2.36 36.248 0.078 6.54 1.96 12.85
1/13/2021 2:30:00 AM 2.34 36.212 0.078 6.55 2 12.86
1/13/2021 2:45:00 AM 2.33 36.194 0.078 6.54 2.01 12.87
1/13/2021 3:00:00 AM 2.32 36.176 0.078 6.54 2.04 12.87
1/13/2021 3:15:00 AM 2.3 36.14 0.078 6.55 2.02 12.87
1/13/2021 3:30:00 AM 2.3 36.14 0.078 6.54 1.94 12.87
1/13/2021 3:45:00 AM 2.29 36.122 0.078 6.55 1.89 12.87
1/13/2021 4:00:00 AM 2.27 36.086 0.078 6.55 1.93 12.88
1/13/2021 4:15:00 AM 2.26 36.068 0.078 6.55 1.92 12.89
1/13/2021 4:30:00 AM 2.25 36.05 0.078 6.54 1.86 12.89
1/13/2021 4:45:00 AM 2.23 36.014 0.078 6.55 1.86 12.9
1/13/2021 5:00:00 AM 2.22 35.996 0.078 6.54 1.96 12.9
1/13/2021 5:15:00 AM 2.21 35.978 0.078 6.54 1.99 12.9
1/13/2021 5:30:00 AM 2.19 35.942 0.078 6.55 1.95 12.91
1/13/2021 5:45:00 AM 2.17 35.906 0.078 6.54 1.95 12.91
1/13/2021 6:00:00 AM 2.16 35.888 0.078 6.54 1.98 12.92
1/13/2021 6:15:00 AM 2.16 35.888 0.078 6.54 1.87 12.92
1/13/2021 6:30:00 AM 2.15 35.87 0.078 6.54 1.88 12.92
1/13/2021 6:45:00 AM 2.14 35.852 0.078 6.54 1.9 12.92
1/13/2021 7:00:00 AM 2.13 35.834 0.078 6.54 2.03 12.92
1/13/2021 7:15:00 AM 2.13 35.834 0.078 6.53 1.98 12.92
1/13/2021 7:30:00 AM 2.13 35.834 0.078 6.55 1.98 12.92
1/13/2021 7:45:00 AM 2.13 35.834 0.078 6.54 2.06 12.93
1/13/2021 8:00:00 AM 2.13 35.834 0.078 6.54 1.92 12.93
1/13/2021 8:15:00 AM 2.13 35.834 0.078 6.55 2.11 12.94
1/13/2021 8:30:00 AM 2.13 35.834 0.078 6.55 1.92 12.95
1/13/2021 8:45:00 AM 2.13 35.834 0.078 6.56 1.9 12.96
1/13/2021 9:00:00 AM 2.14 35.852 0.078 6.57 1.84 12.99
1/13/2021 9:15:00 AM 2.15 35.87 0.078 6.57 1.9 13.01
1/13/2021 9:30:00 AM 2.16 35.888 0.078 6.58 1.83 13.04
1/13/2021 9:45:00 AM 2.18 35.924 0.078 6.6 1.75 13.06
1/13/2021 10:00:00 AM 2.2 35.96 0.077 6.61 1.72 13.08
1/13/2021 10:15:00 AM 2.22 35.996 0.077 6.62 1.66 13.09
1/13/2021 10:30:00 AM 2.25 36.05 0.077 6.63 1.63 13.11
1/13/2021 10:45:00 AM 2.28 36.104 0.077 6.64 1.65 13.11
1/13/2021 11:00:00 AM 2.32 36.176 0.077 6.65 1.66 13.12
1/13/2021 11:15:00 AM 2.37 36.266 0.077 6.66 1.65 13.12
1/13/2021 11:30:00 AM 2.42 36.356 0.077 6.67 1.66 13.12
1/13/2021 11:45:00 AM 2.46 36.428 0.077 6.68 1.65 13.1
1/13/2021 12:00:00 PM 2.5 36.5 0.077 6.68 1.62 13.09
1/13/2021 12:15:00 PM 2.53 36.554 0.077 6.67 1.65 13.08
1/13/2021 12:30:00 PM 2.58 36.644 0.077 6.68 1.61 13.07
1/13/2021 12:45:00 PM 2.63 36.734 0.077 6.68 1.6 13.05
1/13/2021 1:00:00 PM 2.68 36.824 0.077 6.7 1.63 13.03
1/13/2021 1:15:00 PM 2.74 36.932 0.077 6.71 1.66 13.02
1/13/2021 1:30:00 PM 2.82 37.076 0.077 6.71 1.61 12.99
1/13/2021 1:45:00 PM 2.88 37.184 0.076 6.71 1.62 12.97
1/13/2021 2:00:00 PM 2.93 37.274 0.076 6.71 1.59 12.94
1/13/2021 2:15:00 PM 3 37.4 0.076 6.72 1.6 12.93
1/13/2021 2:30:00 PM 3.04 37.472 0.076 6.71 1.63 12.9
1/13/2021 2:45:00 PM 3.09 37.562 0.076 6.71 1.64 12.89
1/13/2021 3:00:00 PM 3.14 37.652 0.076 6.72 1.63 12.86
1/13/2021 3:15:00 PM 3.19 37.742 0.076 6.72 1.63 12.83
1/13/2021 3:30:00 PM 3.24 37.832 0.076 6.72 1.64 12.81
1/13/2021 3:45:00 PM 3.27 37.886 0.076 6.72 1.66 12.78
1/13/2021 4:00:00 PM 3.28 37.904 0.076 6.71 1.64 12.75
1/13/2021 4:15:00 PM 3.28 37.904 0.076 6.69 1.65 12.71
1/13/2021 4:30:00 PM 3.26 37.868 0.076 6.68 1.68 12.69
1/13/2021 4:45:00 PM 3.24 37.832 0.076 6.67 1.66 12.65
1/13/2021 5:00:00 PM 3.23 37.814 0.076 6.64 1.66 12.61
1/13/2021 5:15:00 PM 3.21 37.778 0.076 6.62 1.67 12.57
1/13/2021 5:30:00 PM 3.2 37.76 0.076 6.61 1.66 12.54
1/13/2021 5:45:00 PM 3.18 37.724 0.077 6.6 1.72 12.52
1/13/2021 6:00:00 PM 3.17 37.706 0.077 6.59 1.71 12.5
1/13/2021 6:15:00 PM 3.16 37.688 0.077 6.58 1.72 12.5
1/13/2021 6:30:00 PM 3.14 37.652 0.077 6.58 1.72 12.49
1/13/2021 6:45:00 PM 3.12 37.616 0.077 6.58 1.72 12.49
1/13/2021 7:00:00 PM 3.1 37.58 0.077 6.57 1.78 12.49
1/13/2021 7:15:00 PM 3.08 37.544 0.077 6.57 1.72 12.5
1/13/2021 7:30:00 PM 3.06 37.508 0.077 6.56 1.76 12.51
1/13/2021 7:45:00 PM 3.04 37.472 0.077 6.56 1.78 12.52
1/13/2021 8:00:00 PM 3.02 37.436 0.077 6.56 1.78 12.52
1/13/2021 8:15:00 PM 3 37.4 0.077 6.56 1.81 12.53
1/13/2021 8:30:00 PM 2.98 37.364 0.077 6.56 1.76 12.53
1/13/2021 8:45:00 PM 2.97 37.346 0.077 6.55 1.75 12.54
1/13/2021 9:00:00 PM 2.95 37.31 0.077 6.55 1.78 12.55
1/13/2021 9:15:00 PM 2.93 37.274 0.077 6.55 1.73 12.56
1/13/2021 9:30:00 PM 2.91 37.238 0.078 6.55 1.72 12.56
1/13/2021 9:45:00 PM 2.89 37.202 0.078 6.55 1.72 12.56
1/13/2021 10:00:00 PM 2.87 37.166 0.078 6.54 1.71 12.57
1/13/2021 10:15:00 PM 2.85 37.13 0.078 6.55 1.75 12.58
1/13/2021 10:30:00 PM 2.82 37.076 0.078 6.55 1.75 12.58
1/13/2021 10:45:00 PM 2.8 37.04 0.078 6.54 1.73 12.59
1/13/2021 11:00:00 PM 2.78 37.004 0.078 6.54 1.73 12.6
1/13/2021 11:15:00 PM 2.76 36.968 0.078 6.54 1.72 12.6
1/13/2021 11:30:00 PM 2.74 36.932 0.078 6.54 1.74 12.61
1/13/2021 11:45:00 PM 2.73 36.914 0.078 6.55 1.71 12.61
1/14/2021 12:00:00 AM 2.72 36.896 0.078 6.54 1.75 12.62
1/14/2021 12:15:00 AM 2.7 36.86 0.078 6.55 1.71 12.62
1/14/2021 12:30:00 AM 2.68 36.824 0.078 6.54 1.71 12.63
1/14/2021 12:45:00 AM 2.66 36.788 0.078 6.54 1.69 12.64
1/14/2021 1:00:00 AM 2.65 36.77 0.078 6.54 1.7 12.64
1/14/2021 1:15:00 AM 2.64 36.752 0.078 6.55 1.75 12.64
1/14/2021 1:30:00 AM 2.63 36.734 0.078 6.55 1.71 12.64
1/14/2021 1:45:00 AM 2.62 36.716 0.078 6.55 1.75 12.65
1/14/2021 2:00:00 AM 2.62 36.716 0.078 6.54 1.7 12.65
1/14/2021 2:15:00 AM 2.61 36.698 0.078 6.54 1.74 12.66
1/14/2021 2:30:00 AM 2.61 36.698 0.078 6.55 1.72 12.66
1/14/2021 2:45:00 AM 2.6 36.68 0.078 6.54 1.71 12.66
1/14/2021 3:00:00 AM 2.6 36.68 0.078 6.55 1.72 12.66
1/14/2021 3:15:00 AM 2.59 36.662 0.078 6.54 1.68 12.66
1/14/2021 3:30:00 AM 2.59 36.662 0.078 6.54 1.82 12.66
1/14/2021 3:45:00 AM 2.58 36.644 0.078 6.54 1.74 12.66
1/14/2021 4:00:00 AM 2.58 36.644 0.078 6.55 1.7 12.66
1/14/2021 4:15:00 AM 2.57 36.626 0.078 6.55 1.74 12.66
1/14/2021 4:30:00 AM 2.57 36.626 0.078 6.55 1.73 12.66
1/14/2021 4:45:00 AM 2.57 36.626 0.078 6.55 1.77 12.66
1/14/2021 5:00:00 AM 2.58 36.644 0.078 6.54 1.82 12.66
1/14/2021 5:15:00 AM 2.58 36.644 0.078 6.54 1.74 12.66
1/14/2021 5:30:00 AM 2.58 36.644 0.078 6.54 1.81 12.66
1/14/2021 5:45:00 AM 2.59 36.662 0.078 6.55 1.75 12.65
1/14/2021 6:00:00 AM 2.59 36.662 0.078 6.55 1.76 12.66
1/14/2021 6:15:00 AM 2.59 36.662 0.078 6.54 1.86 12.65
1/14/2021 6:30:00 AM 2.58 36.644 0.078 6.55 1.79 12.66
1/14/2021 6:45:00 AM 2.58 36.644 0.078 6.54 1.8 12.66
1/14/2021 7:00:00 AM 2.58 36.644 0.078 6.55 1.71 12.66
1/14/2021 7:15:00 AM 2.58 36.644 0.078 6.54 1.73 12.66
1/14/2021 7:30:00 AM 2.59 36.662 0.078 6.54 1.7 12.66
1/14/2021 7:45:00 AM 2.59 36.662 0.078 6.56 1.76 12.66
1/14/2021 8:00:00 AM 2.6 36.68 0.078 6.55 1.72 12.68
1/14/2021 8:15:00 AM 2.61 36.698 0.078 6.55 1.76 12.71
1/14/2021 8:30:00 AM 2.63 36.734 0.078 6.57 1.71 12.73
1/14/2021 8:45:00 AM 2.64 36.752 0.078 6.57 1.67 12.76
1/14/2021 9:00:00 AM 2.67 36.806 0.077 6.59 1.68 12.78
1/14/2021 9:15:00 AM 2.69 36.842 0.077 6.6 1.66 12.81
1/14/2021 9:30:00 AM 2.73 36.914 0.077 6.62 1.66 12.83
1/14/2021 9:45:00 AM 2.78 37.004 0.077 6.63 1.69 12.86
1/14/2021 10:00:00 AM 2.82 37.076 0.077 6.65 1.7 12.87
1/14/2021 10:15:00 AM 2.88 37.184 0.077 6.67 1.7 12.88
1/14/2021 10:30:00 AM 2.94 37.292 0.077 6.67 1.65 12.88
1/14/2021 10:45:00 AM 3.03 37.454 0.077 6.69 1.6 12.88
1/14/2021 11:00:00 AM 3.13 37.634 0.077 6.72 1.65 12.87
1/14/2021 11:15:00 AM 3.25 37.85 0.077 6.73 1.63 12.85
1/14/2021 11:30:00 AM 3.35 38.03 0.077 6.75 1.64 12.83
1/14/2021 11:45:00 AM 3.42 38.156 0.076 6.75 1.65 12.79
1/14/2021 12:00:00 PM 3.48 38.264 0.076 6.75 1.63 12.77
1/14/2021 12:15:00 PM 3.55 38.39 0.076 6.75 1.59 12.74
1/14/2021 12:30:00 PM 3.6 38.48 0.076 6.74 1.65 12.71
1/14/2021 12:45:00 PM 3.63 38.534 0.076 6.74 1.66 12.69
1/14/2021 1:00:00 PM 3.68 38.624 0.076 6.75 1.61 12.67
1/14/2021 1:15:00 PM 3.71 38.678 0.076 6.73 1.61 12.64
1/14/2021 1:30:00 PM 3.75 38.75 0.076 6.74 1.61 12.61
1/14/2021 1:45:00 PM 3.78 38.804 0.076 6.74 1.64 12.59
1/14/2021 2:00:00 PM 3.83 38.894 0.076 6.74 1.64 12.58
1/14/2021 2:15:00 PM 3.85 38.93 0.076 6.74 1.61 12.55
1/14/2021 2:30:00 PM 3.89 39.002 0.076 6.73 1.63 12.53
1/14/2021 2:45:00 PM 3.93 39.074 0.076 6.73 1.59 12.52
1/14/2021 3:00:00 PM 3.95 39.11 0.076 6.73 1.6 12.49
1/14/2021 3:15:00 PM 3.97 39.146 0.076 6.72 1.63 12.46
1/14/2021 3:30:00 PM 3.98 39.164 0.076 6.71 1.7 12.43
1/14/2021 3:45:00 PM 3.99 39.182 0.076 6.7 1.6 12.41
1/14/2021 4:00:00 PM 4 39.2 0.076 6.69 1.62 12.39
1/14/2021 4:15:00 PM 3.99 39.182 0.076 6.69 1.6 12.36
1/14/2021 4:30:00 PM 3.99 39.182 0.076 6.68 1.64 12.34
1/14/2021 4:45:00 PM 3.99 39.182 0.076 6.66 1.69 12.31
1/14/2021 5:00:00 PM 3.97 39.146 0.076 6.64 1.64 12.28
1/14/2021 5:15:00 PM 3.96 39.128 0.076 6.63 1.67 12.26
1/14/2021 5:30:00 PM 3.94 39.092 0.076 6.61 1.67 12.24
1/14/2021 5:45:00 PM 3.93 39.074 0.077 6.6 1.67 12.23
1/14/2021 6:00:00 PM 3.91 39.038 0.077 6.6 1.7 12.23
1/14/2021 6:15:00 PM 3.9 39.02 0.077 6.59 1.69 12.22
1/14/2021 6:30:00 PM 3.88 38.984 0.077 6.58 1.66 12.22
1/14/2021 6:45:00 PM 3.85 38.93 0.077 6.59 1.74 12.22
1/14/2021 7:00:00 PM 3.81 38.858 0.077 6.58 1.73 12.23
1/14/2021 7:15:00 PM 3.76 38.768 0.077 6.57 1.78 12.24
1/14/2021 7:30:00 PM 3.71 38.678 0.077 6.56 1.69 12.26
1/14/2021 7:45:00 PM 3.65 38.57 0.077 6.57 1.71 12.27
1/14/2021 8:00:00 PM 3.6 38.48 0.077 6.56 1.71 12.29
1/14/2021 8:15:00 PM 3.56 38.408 0.077 6.56 1.74 12.31
1/14/2021 8:30:00 PM 3.52 38.336 0.077 6.56 1.73 12.32
1/14/2021 8:45:00 PM 3.47 38.246 0.077 6.56 1.73 12.34
1/14/2021 9:00:00 PM 3.43 38.174 0.077 6.56 1.72 12.36
1/14/2021 9:15:00 PM 3.39 38.102 0.078 6.55 1.72 12.37
1/14/2021 9:30:00 PM 3.34 38.012 0.078 6.55 1.73 12.39
1/14/2021 9:45:00 PM 3.29 37.922 0.078 6.55 1.7 12.4
1/14/2021 10:00:00 PM 3.24 37.832 0.078 6.55 1.71 12.42
1/14/2021 10:15:00 PM 3.2 37.76 0.078 6.56 1.73 12.44
1/14/2021 10:30:00 PM 3.15 37.67 0.078 6.55 1.73 12.46
1/14/2021 10:45:00 PM 3.11 37.598 0.078 6.55 1.73 12.47
1/14/2021 11:00:00 PM 3.08 37.544 0.078 6.54 1.77 12.49
1/14/2021 11:15:00 PM 3.05 37.49 0.078 6.54 1.72 12.51
1/14/2021 11:30:00 PM 3.03 37.454 0.078 6.55 1.7 12.52
1/14/2021 11:45:00 PM 3.02 37.436 0.078 6.55 1.7 12.52
1/15/2021 12:00:00 AM 3 37.4 0.078 6.55 1.74 12.52
1/15/2021 12:15:00 AM 2.99 37.382 0.078 6.55 1.7 12.53
1/15/2021 12:30:00 AM 2.96 37.328 0.078 6.55 1.74 12.54
1/15/2021 12:45:00 AM 2.94 37.292 0.078 6.56 1.74 12.55
1/15/2021 1:00:00 AM 2.92 37.256 0.078 6.56 1.69 12.55
1/15/2021 1:15:00 AM 2.9 37.22 0.078 6.55 1.74 12.57
1/15/2021 1:30:00 AM 2.87 37.166 0.078 6.55 1.74 12.58
1/15/2021 1:45:00 AM 2.86 37.148 0.078 6.56 1.76 12.59
1/15/2021 2:00:00 AM 2.84 37.112 0.078 6.56 1.69 12.6
1/15/2021 2:15:00 AM 2.83 37.094 0.078 6.57 1.72 12.6
1/15/2021 2:30:00 AM 2.81 37.058 0.078 6.56 1.65 12.6
1/15/2021 2:45:00 AM 2.79 37.022 0.078 6.56 1.78 12.61
1/15/2021 3:00:00 AM 2.78 37.004 0.078 6.55 1.73 12.62
1/15/2021 3:15:00 AM 2.77 36.986 0.078 6.57 1.7 12.62
1/15/2021 3:30:00 AM 2.76 36.968 0.078 6.56 1.7 12.62
1/15/2021 3:45:00 AM 2.76 36.968 0.078 6.57 1.65 12.62
1/15/2021 4:00:00 AM 2.77 36.986 0.078 6.57 1.67 12.62
1/15/2021 4:15:00 AM 2.77 36.986 0.078 6.56 1.71 12.62
1/15/2021 4:30:00 AM 2.77 36.986 0.078 6.57 1.71 12.62
1/15/2021 4:45:00 AM 2.77 36.986 0.078 6.57 1.81 12.62
1/15/2021 5:00:00 AM 2.77 36.986 0.078 6.57 1.76 12.62
1/15/2021 5:15:00 AM 2.78 37.004 0.078 6.56 1.79 12.62
1/15/2021 5:30:00 AM 2.79 37.022 0.078 6.57 1.8 12.62
1/15/2021 5:45:00 AM 2.8 37.04 0.078 6.58 1.73 12.61
1/15/2021 6:00:00 AM 2.81 37.058 0.078 6.58 1.72 12.6
1/15/2021 6:15:00 AM 2.83 37.094 0.078 6.58 1.73 12.6
1/15/2021 6:30:00 AM 2.84 37.112 0.078 6.58 1.7 12.6
1/15/2021 6:45:00 AM 2.86 37.148 0.078 6.58 1.97 12.59
1/15/2021 7:00:00 AM 2.88 37.184 0.078 6.58 1.85 12.58
1/15/2021 7:15:00 AM 2.89 37.202 0.078 6.58 2.05 12.58
1/15/2021 7:30:00 AM 2.91 37.238 0.078 6.58 2.33 12.57
1/15/2021 7:45:00 AM 2.92 37.256 0.078 6.59 2.04 12.57
1/15/2021 8:00:00 AM 2.94 37.292 0.078 6.59 1.79 12.57
1/15/2021 8:15:00 AM 2.95 37.31 0.078 6.58 1.77 12.58
1/15/2021 8:30:00 AM 2.96 37.328 0.078 6.6 1.66 12.6
1/15/2021 8:45:00 AM 2.98 37.364 0.078 6.6 1.73 12.61
1/15/2021 9:00:00 AM 3 37.4 0.078 6.62 1.7 12.64
1/15/2021 9:15:00 AM 3.02 37.436 0.078 6.63 1.7 12.68
1/15/2021 9:30:00 AM 3.05 37.49 0.078 6.64 1.7 12.73
1/15/2021 9:45:00 AM 3.09 37.562 0.078 6.67 1.77 12.75
1/15/2021 10:00:00 AM 3.12 37.616 0.078 6.68 1.66 12.76
1/15/2021 10:15:00 AM 3.16 37.688 0.077 6.7 1.67 12.77
1/15/2021 10:30:00 AM 3.21 37.778 0.077 6.71 1.67 12.79
1/15/2021 10:45:00 AM 3.23 37.814 0.077 6.72 1.65 12.78
1/15/2021 11:00:00 AM 3.26 37.868 0.077 6.71 1.67 12.77
1/15/2021 11:15:00 AM 3.28 37.904 0.077 6.72 1.69 12.77
1/15/2021 11:30:00 AM 3.3 37.94 0.077 6.72 1.7 12.76
1/15/2021 11:45:00 AM 3.33 37.994 0.077 6.73 1.73 12.74
1/15/2021 12:00:00 PM 3.34 38.012 0.077 6.72 1.65 12.73
1/15/2021 12:15:00 PM 3.37 38.066 0.077 6.72 1.65 12.73
1/15/2021 12:30:00 PM 3.4 38.12 0.077 6.74 1.6 12.74
1/15/2021 12:45:00 PM 3.43 38.174 0.077 6.75 1.61 12.74
1/15/2021 1:00:00 PM 3.45 38.21 0.077 6.74 1.65 12.72
1/15/2021 1:15:00 PM 3.47 38.246 0.077 6.75 1.63 12.71
1/15/2021 1:30:00 PM 3.51 38.318 0.077 6.75 1.61 12.71
1/15/2021 1:45:00 PM 3.55 38.39 0.077 6.76 1.57 12.7
1/15/2021 2:00:00 PM 3.63 38.534 0.077 6.79 1.62 12.7
1/15/2021 2:15:00 PM 3.64 38.552 0.077 6.77 1.59 12.67
1/15/2021 2:30:00 PM 3.67 38.606 0.077 6.76 1.59 12.65
1/15/2021 2:45:00 PM 3.7 38.66 0.077 6.77 1.61 12.63
1/15/2021 3:00:00 PM 3.7 38.66 0.077 6.76 1.62 12.61
1/15/2021 3:15:00 PM 3.68 38.624 0.077 6.75 1.65 12.59
1/15/2021 3:30:00 PM 3.67 38.606 0.077 6.73 1.62 12.56
1/15/2021 3:45:00 PM 3.67 38.606 0.077 6.72 1.61 12.54
1/15/2021 4:00:00 PM 3.66 38.588 0.077 6.71 1.62 12.5
1/15/2021 4:15:00 PM 3.65 38.57 0.077 6.7 1.62 12.47
1/15/2021 4:30:00 PM 3.65 38.57 0.077 6.68 1.64 12.44
1/15/2021 4:45:00 PM 3.64 38.552 0.077 6.67 1.68 12.4
1/15/2021 5:00:00 PM 3.63 38.534 0.077 6.65 1.65 12.36
1/15/2021 5:15:00 PM 3.63 38.534 0.077 6.64 1.63 12.33
1/15/2021 5:30:00 PM 3.63 38.534 0.077 6.63 1.67 12.31
1/15/2021 5:45:00 PM 3.62 38.516 0.077 6.63 1.78 12.3
1/15/2021 6:00:00 PM 3.62 38.516 0.077 6.62 1.69 12.29
1/15/2021 6:15:00 PM 3.61 38.498 0.077 6.62 1.75 12.28
1/15/2021 6:30:00 PM 3.6 38.48 0.077 6.61 1.79 12.28
1/15/2021 6:45:00 PM 3.58 38.444 0.077 6.59 1.82 12.28
1/15/2021 7:00:00 PM 3.57 38.426 0.077 6.61 1.82 12.28
1/15/2021 7:15:00 PM 3.55 38.39 0.077 6.59 1.86 12.28
1/15/2021 7:30:00 PM 3.54 38.372 0.077 6.58 1.97 12.28
1/15/2021 7:45:00 PM 3.53 38.354 0.077 6.58 1.9 12.28
1/15/2021 8:00:00 PM 3.52 38.336 0.077 6.57 1.88 12.29
1/15/2021 8:15:00 PM 3.51 38.318 0.077 6.58 1.92 12.29
1/15/2021 8:30:00 PM 3.5 38.3 0.077 6.57 1.87 12.29
1/15/2021 8:45:00 PM 3.49 38.282 0.077 6.57 1.98 12.29
1/15/2021 9:00:00 PM 3.49 38.282 0.078 6.57 1.96 12.3
1/15/2021 9:15:00 PM 3.48 38.264 0.079 6.57 1.99 12.3
1/15/2021 9:30:00 PM 3.47 38.246 0.08 6.57 2.02 12.3
1/15/2021 9:45:00 PM 3.44 38.192 0.08 6.56 1.97 12.3
1/15/2021 10:00:00 PM 3.35 38.03 0.08 6.54 2.1 12.31
1/15/2021 10:15:00 PM 3.29 37.922 0.08 6.54 2.06 12.33
1/15/2021 10:30:00 PM 3.27 37.886 0.08 6.55 2.11 12.34
1/15/2021 10:45:00 PM 3.25 37.85 0.08 6.55 2.16 12.36
1/15/2021 11:00:00 PM 3.25 37.85 0.08 6.56 2.11 12.36
1/15/2021 11:15:00 PM 3.24 37.832 0.08 6.56 2.06 12.36
1/15/2021 11:30:00 PM 3.23 37.814 0.08 6.56 2.1 12.37
1/15/2021 11:45:00 PM 3.22 37.796 0.08 6.55 2.12 12.37
1/16/2021 12:00:00 AM 3.21 37.778 0.081 6.56 2.23 12.38
1/16/2021 12:15:00 AM 3.2 37.76 0.081 6.56 2.07 12.39
1/16/2021 12:30:00 AM 3.19 37.742 0.081 6.55 2.09 12.39
1/16/2021 12:45:00 AM 3.19 37.742 0.082 6.56 2.12 12.39
1/16/2021 1:00:00 AM 3.18 37.724 0.083 6.56 2.02 12.4
1/16/2021 1:15:00 AM 3.17 37.706 0.083 6.56 2.03 12.4
1/16/2021 1:30:00 AM 3.16 37.688 0.084 6.56 1.99 12.39
1/16/2021 1:45:00 AM 3.15 37.67 0.084 6.56 2.06 12.4
1/16/2021 2:00:00 AM 3.15 37.67 0.084 6.56 1.98 12.4
1/16/2021 2:15:00 AM 3.15 37.67 0.084 6.56 1.92 12.4
1/16/2021 2:30:00 AM 3.14 37.652 0.084 6.56 1.92 12.4
1/16/2021 2:45:00 AM 3.14 37.652 0.084 6.57 1.9 12.4
1/16/2021 3:00:00 AM 3.14 37.652 0.085 6.56 1.98 12.4
1/16/2021 3:15:00 AM 3.14 37.652 0.085 6.56 1.99 12.4
1/16/2021 3:30:00 AM 3.13 37.634 0.085 6.56 1.92 12.4
1/16/2021 3:45:00 AM 3.12 37.616 0.085 6.57 1.89 12.4
1/16/2021 4:00:00 AM 3.12 37.616 0.086 6.56 1.94 12.39
1/16/2021 4:15:00 AM 3.1 37.58 0.086 6.56 1.86 12.4
1/16/2021 4:30:00 AM 3.09 37.562 0.086 6.56 1.86 12.4
1/16/2021 4:45:00 AM 3.09 37.562 0.086 6.56 1.88 12.4
1/16/2021 5:00:00 AM 3.09 37.562 0.086 6.58 1.84 12.4
1/16/2021 5:15:00 AM 3.08 37.544 0.086 6.57 1.91 12.4
1/16/2021 5:30:00 AM 3.04 37.472 0.086 6.56 1.85 12.4
1/16/2021 5:45:00 AM 3.01 37.418 0.087 6.57 1.96 12.42
1/16/2021 6:00:00 AM 2.96 37.328 0.087 6.56 1.85 12.43
1/16/2021 6:15:00 AM 2.92 37.256 0.087 6.56 1.84 12.43
1/16/2021 6:30:00 AM 2.89 37.202 0.087 6.56 1.81 12.45
1/16/2021 6:45:00 AM 2.85 37.13 0.087 6.56 1.88 12.46
1/16/2021 7:00:00 AM 2.81 37.058 0.087 6.56 1.84 12.47
1/16/2021 7:15:00 AM 2.77 36.986 0.087 6.56 1.84 12.48
1/16/2021 7:30:00 AM 2.72 36.896 0.088 6.56 1.79 12.5
1/16/2021 7:45:00 AM 2.68 36.824 0.088 6.56 1.79 12.53
1/16/2021 8:00:00 AM 2.65 36.77 0.088 6.57 1.96 12.58
1/16/2021 8:15:00 AM 2.64 36.752 0.088 6.59 1.87 12.63
1/16/2021 8:30:00 AM 2.63 36.734 0.088 6.61 1.8 12.7
1/16/2021 8:45:00 AM 2.63 36.734 0.088 6.63 1.81 12.75
1/16/2021 9:00:00 AM 2.65 36.77 0.088 6.66 1.75 12.8
1/16/2021 9:15:00 AM 2.67 36.806 0.087 6.67 1.77 12.82
1/16/2021 9:30:00 AM 2.7 36.86 0.087 6.69 1.79 12.85
1/16/2021 9:45:00 AM 2.74 36.932 0.087 6.72 1.76 12.88
1/16/2021 10:00:00 AM 2.78 37.004 0.087 6.72 1.76 12.89
1/16/2021 10:15:00 AM 2.82 37.076 0.087 6.73 1.74 12.88
1/16/2021 10:30:00 AM 2.84 37.112 0.087 6.73 1.86 12.88
1/16/2021 10:45:00 AM 2.87 37.166 0.087 6.74 1.77 12.88
1/16/2021 11:00:00 AM 2.92 37.256 0.087 6.76 1.78 12.88
1/16/2021 11:15:00 AM 2.96 37.328 0.087 6.77 1.74 12.87
1/16/2021 11:30:00 AM 3.04 37.472 0.086 6.78 1.7 12.85
1/16/2021 11:45:00 AM 3.09 37.562 0.086 6.78 1.68 12.83
1/16/2021 12:00:00 PM 3.18 37.724 0.086 6.79 1.69 12.81
1/16/2021 12:15:00 PM 3.25 37.85 0.086 6.8 1.73 12.78
1/16/2021 12:30:00 PM 3.31 37.958 0.086 6.8 1.67 12.76
1/16/2021 12:45:00 PM 3.38 38.084 0.086 6.8 1.65 12.74
1/16/2021 1:00:00 PM 3.42 38.156 0.086 6.81 1.65 12.72
1/16/2021 1:15:00 PM 3.45 38.21 0.086 6.8 1.66 12.69
1/16/2021 1:30:00 PM 3.5 38.3 0.086 6.8 1.64 12.68
1/16/2021 1:45:00 PM 3.53 38.354 0.086 6.8 1.63 12.66
1/16/2021 2:00:00 PM 3.55 38.39 0.086 6.8 1.67 12.65
1/16/2021 2:15:00 PM 3.57 38.426 0.085 6.8 1.63 12.63
1/16/2021 2:30:00 PM 3.58 38.444 0.085 6.8 1.69 12.61
1/16/2021 2:45:00 PM 3.57 38.426 0.085 6.79 1.62 12.59
1/16/2021 3:00:00 PM 3.57 38.426 0.085 6.79 1.65 12.58
1/16/2021 3:15:00 PM 3.58 38.444 0.085 6.78 1.68 12.58
1/16/2021 3:30:00 PM 3.58 38.444 0.085 6.79 1.66 12.58
1/16/2021 3:45:00 PM 3.58 38.444 0.085 6.78 1.67 12.57
1/16/2021 4:00:00 PM 3.57 38.426 0.085 6.77 1.67 12.56
1/16/2021 4:15:00 PM 3.55 38.39 0.085 6.77 1.65 12.55
1/16/2021 4:30:00 PM 3.52 38.336 0.085 6.74 1.68 12.53
1/16/2021 4:45:00 PM 3.48 38.264 0.085 6.73 1.63 12.49
1/16/2021 5:00:00 PM 3.44 38.192 0.085 6.71 1.65 12.45
1/16/2021 5:15:00 PM 3.4 38.12 0.085 6.68 1.7 12.41
1/16/2021 5:30:00 PM 3.35 38.03 0.086 6.66 1.64 12.37
1/16/2021 5:45:00 PM 3.31 37.958 0.086 6.65 1.67 12.35
1/16/2021 6:00:00 PM 3.22 37.796 0.086 6.62 1.67 12.34
1/16/2021 6:15:00 PM 3.17 37.706 0.086 6.6 1.7 12.34
1/16/2021 6:30:00 PM 3.13 37.634 0.086 6.61 1.7 12.35
1/16/2021 6:45:00 PM 3.1 37.58 0.086 6.61 1.78 12.35
1/16/2021 7:00:00 PM 3.07 37.526 0.086 6.6 1.74 12.37
1/16/2021 7:15:00 PM 3.06 37.508 0.086 6.6 1.7 12.37
1/16/2021 7:30:00 PM 3.04 37.472 0.086 6.59 1.75 12.38
1/16/2021 7:45:00 PM 3.01 37.418 0.086 6.6 1.74 12.39
1/16/2021 8:00:00 PM 2.97 37.346 0.086 6.6 1.74 12.39
1/16/2021 8:15:00 PM 2.94 37.292 0.086 6.59 1.73 12.41
1/16/2021 8:30:00 PM 2.91 37.238 0.086 6.59 1.73 12.41
1/16/2021 8:45:00 PM 2.89 37.202 0.086 6.59 1.71 12.42
1/16/2021 9:00:00 PM 2.87 37.166 0.086 6.59 1.79 12.43
1/16/2021 9:15:00 PM 2.86 37.148 0.086 6.6 1.7 12.43
1/16/2021 9:30:00 PM 2.84 37.112 0.087 6.6 1.77 12.44
1/16/2021 9:45:00 PM 2.83 37.094 0.087 6.59 1.75 12.45
1/16/2021 10:00:00 PM 2.81 37.058 0.087 6.59 1.72 12.46
1/16/2021 10:15:00 PM 2.76 36.968 0.087 6.59 1.77 12.46
1/16/2021 10:30:00 PM 2.71 36.878 0.087 6.59 1.74 12.47
1/16/2021 10:45:00 PM 2.7 36.86 0.087 6.59 1.75 12.48
1/16/2021 11:00:00 PM 2.69 36.842 0.087 6.6 1.83 12.49
1/16/2021 11:15:00 PM 2.67 36.806 0.087 6.6 1.71 12.5
1/16/2021 11:30:00 PM 2.66 36.788 0.087 6.59 1.79 12.5
1/16/2021 11:45:00 PM 2.63 36.734 0.087 6.59 1.74 12.51
1/17/2021 12:00:00 AM 2.6 36.68 0.087 6.58 1.76 12.52
1/17/2021 12:15:00 AM 2.58 36.644 0.087 6.59 1.74 12.53
1/17/2021 12:30:00 AM 2.55 36.59 0.087 6.59 1.73 12.54
1/17/2021 12:45:00 AM 2.52 36.536 0.086 6.59 1.74 12.55
1/17/2021 1:00:00 AM 2.5 36.5 0.087 6.59 1.72 12.56
1/17/2021 1:15:00 AM 2.47 36.446 0.086 6.59 1.78 12.57
1/17/2021 1:30:00 AM 2.44 36.392 0.086 6.59 1.81 12.59
1/17/2021 1:45:00 AM 2.42 36.356 0.086 6.59 1.76 12.6
1/17/2021 2:00:00 AM 2.4 36.32 0.086 6.59 1.84 12.61
1/17/2021 2:15:00 AM 2.37 36.266 0.086 6.59 1.87 12.62
1/17/2021 2:30:00 AM 2.35 36.23 0.086 6.58 1.83 12.63
1/17/2021 2:45:00 AM 2.33 36.194 0.086 6.59 1.81 12.64
1/17/2021 3:00:00 AM 2.32 36.176 0.086 6.58 1.76 12.64
1/17/2021 3:15:00 AM 2.32 36.176 0.086 6.58 1.79 12.65
1/17/2021 3:30:00 AM 2.31 36.158 0.086 6.58 1.75 12.65
1/17/2021 3:45:00 AM 2.29 36.122 0.086 6.59 1.85 12.66
1/17/2021 4:00:00 AM 2.28 36.104 0.086 6.58 1.75 12.66
1/17/2021 4:15:00 AM 2.26 36.068 0.086 6.59 1.78 12.68
1/17/2021 4:30:00 AM 2.24 36.032 0.086 6.58 1.76 12.68
1/17/2021 4:45:00 AM 2.23 36.014 0.086 6.59 1.79 12.68
1/17/2021 5:00:00 AM 2.22 35.996 0.086 6.59 1.68 12.69
1/17/2021 5:15:00 AM 2.21 35.978 0.086 6.58 1.66 12.69
1/17/2021 5:30:00 AM 2.21 35.978 0.086 6.59 1.72 12.7
1/17/2021 5:45:00 AM 2.19 35.942 0.086 6.58 1.74 12.71
1/17/2021 6:00:00 AM 2.19 35.942 0.086 6.6 1.73 12.71
1/17/2021 6:15:00 AM 2.19 35.942 0.086 6.58 1.76 12.71
1/17/2021 6:30:00 AM 2.18 35.924 0.086 6.58 1.86 12.71
1/17/2021 6:45:00 AM 2.18 35.924 0.086 6.58 1.84 12.71
1/17/2021 7:00:00 AM 2.18 35.924 0.086 6.59 1.83 12.71
1/17/2021 7:15:00 AM 2.18 35.924 0.086 6.6 1.8 12.72
1/17/2021 7:30:00 AM 2.18 35.924 0.086 6.58 1.86 12.72
1/17/2021 7:45:00 AM 2.18 35.924 0.086 6.59 1.93 12.73
1/17/2021 8:00:00 AM 2.19 35.942 0.086 6.6 1.85 12.74
1/17/2021 8:15:00 AM 2.2 35.96 0.086 6.6 1.92 12.77
1/17/2021 8:30:00 AM 2.22 35.996 0.086 6.62 1.79 12.82
1/17/2021 8:45:00 AM 2.23 36.014 0.086 6.64 1.72 12.85
1/17/2021 9:00:00 AM 2.24 36.032 0.086 6.65 1.77 12.87
1/17/2021 9:15:00 AM 2.27 36.086 0.086 6.65 1.69 12.92
1/17/2021 9:30:00 AM 2.3 36.14 0.086 6.68 1.7 12.97
1/17/2021 9:45:00 AM 2.33 36.194 0.085 6.69 1.66 12.99
1/17/2021 10:00:00 AM 2.34 36.212 0.085 6.69 1.71 12.99
1/17/2021 10:15:00 AM 2.37 36.266 0.085 6.7 1.69 13.01
1/17/2021 10:30:00 AM 2.4 36.32 0.085 6.72 1.66 13.03
1/17/2021 10:45:00 AM 2.41 36.338 0.085 6.72 1.7 13.01
1/17/2021 11:00:00 AM 2.45 36.41 0.085 6.72 1.68 13.03
1/17/2021 11:15:00 AM 2.48 36.464 0.085 6.74 1.68 13.02
1/17/2021 11:30:00 AM 2.51 36.518 0.085 6.74 1.68 13.02
1/17/2021 11:45:00 AM 2.55 36.59 0.085 6.76 1.66 13.02
1/17/2021 12:00:00 PM 2.57 36.626 0.085 6.75 1.65 13.01
1/17/2021 12:15:00 PM 2.6 36.68 0.085 6.76 1.61 12.99
1/17/2021 12:30:00 PM 2.64 36.752 0.084 6.76 1.6 12.99
1/17/2021 12:45:00 PM 2.68 36.824 0.084 6.77 1.61 12.99
1/17/2021 1:00:00 PM 2.71 36.878 0.084 6.77 1.58 12.98
1/17/2021 1:15:00 PM 2.73 36.914 0.084 6.77 1.56 12.95
1/17/2021 1:30:00 PM 2.77 36.986 0.084 6.77 1.59 12.95
1/17/2021 1:45:00 PM 2.8 37.04 0.084 6.78 1.56 12.95
1/17/2021 2:00:00 PM 2.84 37.112 0.084 6.78 1.58 12.94
1/17/2021 2:15:00 PM 2.87 37.166 0.084 6.78 1.59 12.92
1/17/2021 2:30:00 PM 2.89 37.202 0.084 6.77 1.57 12.89
1/17/2021 2:45:00 PM 2.92 37.256 0.084 6.77 1.59 12.89
1/17/2021 3:00:00 PM 2.93 37.274 0.084 6.77 1.58 12.86
1/17/2021 3:15:00 PM 2.93 37.274 0.084 6.76 1.63 12.83
1/17/2021 3:30:00 PM 2.94 37.292 0.084 6.75 1.59 12.8
1/17/2021 3:45:00 PM 2.93 37.274 0.084 6.74 1.69 12.76
1/17/2021 4:00:00 PM 2.92 37.256 0.084 6.71 1.58 12.73
1/17/2021 4:15:00 PM 2.9 37.22 0.084 6.71 1.63 12.71
1/17/2021 4:30:00 PM 2.91 37.238 0.084 6.7 1.61 12.68
1/17/2021 4:45:00 PM 2.91 37.238 0.084 6.68 1.6 12.64
1/17/2021 5:00:00 PM 2.9 37.22 0.084 6.67 1.59 12.61
1/17/2021 5:15:00 PM 2.91 37.238 0.084 6.66 1.61 12.57
1/17/2021 5:30:00 PM 2.9 37.22 0.084 6.65 1.6 12.55
1/17/2021 5:45:00 PM 2.89 37.202 0.084 6.63 1.6 12.53
1/17/2021 6:00:00 PM 2.89 37.202 0.084 6.63 1.63 12.52
1/17/2021 6:15:00 PM 2.89 37.202 0.084 6.62 1.64 12.5
1/17/2021 6:30:00 PM 2.88 37.184 0.084 6.62 1.7 12.51
1/17/2021 6:45:00 PM 2.88 37.184 0.085 6.61 1.66 12.5
1/17/2021 7:00:00 PM 2.88 37.184 0.085 6.61 1.65 12.5
1/17/2021 7:15:00 PM 2.87 37.166 0.085 6.61 1.68 12.5
1/17/2021 7:30:00 PM 2.87 37.166 0.085 6.62 1.67 12.51
1/17/2021 7:45:00 PM 2.86 37.148 0.085 6.61 1.7 12.51
1/17/2021 8:00:00 PM 2.85 37.13 0.085 6.6 1.71 12.51
1/17/2021 8:15:00 PM 2.84 37.112 0.085 6.61 1.68 12.51
1/17/2021 8:30:00 PM 2.8 37.04 0.085 6.6 1.63 12.51
1/17/2021 8:45:00 PM 2.77 36.986 0.085 6.59 1.69 12.52
1/17/2021 9:00:00 PM 2.74 36.932 0.085 6.6 1.69 12.53
1/17/2021 9:15:00 PM 2.72 36.896 0.085 6.6 1.66 12.54
1/17/2021 9:30:00 PM 2.67 36.806 0.085 6.59 1.7 12.54
1/17/2021 9:45:00 PM 2.62 36.716 0.085 6.58 1.72 12.55
1/17/2021 10:00:00 PM 2.59 36.662 0.085 6.59 1.65 12.57
1/17/2021 10:15:00 PM 2.58 36.644 0.085 6.59 1.67 12.58
1/17/2021 10:30:00 PM 2.57 36.626 0.085 6.59 1.73 12.59
1/17/2021 10:45:00 PM 2.55 36.59 0.085 6.6 1.66 12.6
1/17/2021 11:00:00 PM 2.54 36.572 0.085 6.6 1.7 12.6
1/17/2021 11:15:00 PM 2.52 36.536 0.085 6.59 2.06 12.61
1/17/2021 11:30:00 PM 2.5 36.5 0.085 6.59 2.21 12.61
1/17/2021 11:45:00 PM 2.49 36.482 0.085 6.59 1.83 12.62
1/18/2021 12:00:00 AM 2.48 36.464 0.085 6.59 1.77 12.62
1/18/2021 12:15:00 AM 2.47 36.446 0.085 6.59 1.81 12.63
1/18/2021 12:30:00 AM 2.45 36.41 0.084 6.59 1.78 12.64
1/18/2021 12:45:00 AM 2.44 36.392 0.084 6.59 1.86 12.64
1/18/2021 1:00:00 AM 2.43 36.374 0.084 6.59 1.77 12.65
1/18/2021 1:15:00 AM 2.43 36.374 0.084 6.59 1.77 12.65
1/18/2021 1:30:00 AM 2.42 36.356 0.084 6.59 1.71 12.65
1/18/2021 1:45:00 AM 2.41 36.338 0.084 6.58 1.74 12.65
1/18/2021 2:00:00 AM 2.4 36.32 0.084 6.58 1.79 12.65
1/18/2021 2:15:00 AM 2.39 36.302 0.084 6.59 1.85 12.66
1/18/2021 2:30:00 AM 2.39 36.302 0.085 6.59 1.85 12.66
1/18/2021 2:45:00 AM 2.38 36.284 0.085 6.59 1.91 12.67
1/18/2021 3:00:00 AM 2.37 36.266 0.084 6.59 2 12.67
1/18/2021 3:15:00 AM 2.34 36.212 0.084 6.58 1.74 12.67
1/18/2021 3:30:00 AM 2.35 36.23 0.084 6.58 1.86 12.67
1/18/2021 3:45:00 AM 2.34 36.212 0.084 6.59 1.74 12.67
1/18/2021 4:00:00 AM 2.31 36.158 0.084 6.58 1.72 12.68
1/18/2021 4:15:00 AM 2.29 36.122 0.084 6.58 1.69 12.69
1/18/2021 4:30:00 AM 2.29 36.122 0.084 6.59 1.65 12.7
1/18/2021 4:45:00 AM 2.3 36.14 0.084 6.59 1.65 12.69
1/18/2021 5:00:00 AM 2.29 36.122 0.084 6.58 1.66 12.7
1/18/2021 5:15:00 AM 2.29 36.122 0.084 6.59 1.67 12.7
1/18/2021 5:30:00 AM 2.29 36.122 0.084 6.58 1.69 12.69
1/18/2021 5:45:00 AM 2.29 36.122 0.084 6.59 1.76 12.69
1/18/2021 6:00:00 AM 2.29 36.122 0.084 6.59 1.77 12.7
1/18/2021 6:15:00 AM 2.28 36.104 0.084 6.59 1.73 12.7
1/18/2021 6:30:00 AM 2.28 36.104 0.084 6.6 1.65 12.7
1/18/2021 6:45:00 AM 2.27 36.086 0.084 6.58 1.69 12.71
1/18/2021 7:00:00 AM 2.26 36.068 0.084 6.58 1.7 12.71
1/18/2021 7:15:00 AM 2.25 36.05 0.084 6.58 1.68 12.71
1/18/2021 7:30:00 AM 2.23 36.014 0.085 6.58 1.67 12.72
1/18/2021 7:45:00 AM 2.22 35.996 0.085 6.58 1.69 12.74
1/18/2021 8:00:00 AM 2.21 35.978 0.085 6.59 1.67 12.78
1/18/2021 8:15:00 AM 2.2 35.96 0.085 6.6 1.78 12.83
1/18/2021 8:30:00 AM 2.2 35.96 0.085 6.63 1.74 12.89
1/18/2021 8:45:00 AM 2.21 35.978 0.084 6.65 1.68 12.95
1/18/2021 9:00:00 AM 2.24 36.032 0.084 6.66 1.64 13.01
1/18/2021 9:15:00 AM 2.27 36.086 0.084 6.69 1.64 13.04
1/18/2021 9:30:00 AM 2.29 36.122 0.084 6.7 1.63 13.07
1/18/2021 9:45:00 AM 2.34 36.212 0.084 6.72 1.59 13.1
1/18/2021 10:00:00 AM 2.39 36.302 0.084 6.75 1.65 13.13
1/18/2021 10:15:00 AM 2.45 36.41 0.084 6.77 1.67 13.14
1/18/2021 10:30:00 AM 2.49 36.482 0.084 6.78 1.78 13.13
1/18/2021 10:45:00 AM 2.55 36.59 0.084 6.79 1.8 13.13
1/18/2021 11:00:00 AM 2.64 36.752 0.084 6.81 1.76 13.13
1/18/2021 11:15:00 AM 2.69 36.842 0.084 6.81 1.93 13.12
1/18/2021 11:30:00 AM 2.72 36.896 0.084 6.81 1.73 13.09
1/18/2021 11:45:00 AM 2.78 37.004 0.084 6.81 1.69 13.08
1/18/2021 12:00:00 PM 2.84 37.112 0.083 6.83 1.65 13.07
1/18/2021 12:15:00 PM 2.91 37.238 0.083 6.83 1.59 13.06
1/18/2021 12:30:00 PM 2.98 37.364 0.083 6.85 1.6 13.04
1/18/2021 12:45:00 PM 3.01 37.418 0.083 6.84 1.59 13.01
1/18/2021 1:00:00 PM 3.03 37.454 0.083 6.83 1.58 12.96
1/18/2021 1:15:00 PM 3.05 37.49 0.083 6.82 1.59 12.95
1/18/2021 1:30:00 PM 3.08 37.544 0.083 6.83 1.56 12.96
1/18/2021 1:45:00 PM 3.09 37.562 0.083 6.83 1.59 12.94
1/18/2021 2:00:00 PM 3.1 37.58 0.083 6.82 1.56 12.93
1/18/2021 2:15:00 PM 3.12 37.616 0.083 6.82 1.55 12.92
1/18/2021 2:30:00 PM 3.15 37.67 0.083 6.83 1.59 12.93
1/18/2021 2:45:00 PM 3.17 37.706 0.083 6.83 1.6 12.93
1/18/2021 3:00:00 PM 3.18 37.724 0.083 6.83 1.58 12.92
1/18/2021 3:15:00 PM 3.16 37.688 0.083 6.82 1.55 12.88
1/18/2021 3:30:00 PM 3.15 37.67 0.083 6.79 1.56 12.85
1/18/2021 3:45:00 PM 3.14 37.652 0.083 6.78 1.58 12.83
1/18/2021 4:00:00 PM 3.11 37.598 0.083 6.77 1.57 12.78
1/18/2021 4:15:00 PM 3.07 37.526 0.084 6.74 1.56 12.74
1/18/2021 4:30:00 PM 3.04 37.472 0.084 6.71 1.6 12.71
1/18/2021 4:45:00 PM 3.02 37.436 0.084 6.7 1.55 12.68
1/18/2021 5:00:00 PM 2.99 37.382 0.084 6.68 1.64 12.64
1/18/2021 5:15:00 PM 2.97 37.346 0.084 6.66 1.61 12.61
1/18/2021 5:30:00 PM 2.94 37.292 0.084 6.66 1.57 12.6
1/18/2021 5:45:00 PM 2.92 37.256 0.084 6.65 1.62 12.58
1/18/2021 6:00:00 PM 2.9 37.22 0.084 6.63 1.61 12.59
1/18/2021 6:15:00 PM 2.87 37.166 0.084 6.63 1.61 12.59
1/18/2021 6:30:00 PM 2.85 37.13 0.084 6.63 1.63 12.59
1/18/2021 6:45:00 PM 2.82 37.076 0.085 6.62 1.66 12.59
1/18/2021 7:00:00 PM 2.8 37.04 0.085 6.62 1.63 12.6
1/18/2021 7:15:00 PM 2.77 36.986 0.085 6.62 1.65 12.61
1/18/2021 7:30:00 PM 2.75 36.95 0.085 6.62 1.71 12.61
1/18/2021 7:45:00 PM 2.73 36.914 0.085 6.62 1.66 12.62
1/18/2021 8:00:00 PM 2.7 36.86 0.085 6.61 1.65 12.64
1/18/2021 8:15:00 PM 2.68 36.824 0.085 6.61 1.71 12.65
1/18/2021 8:30:00 PM 2.66 36.788 0.085 6.61 1.7 12.66
1/18/2021 8:45:00 PM 2.63 36.734 0.085 6.61 1.62 12.67
1/18/2021 9:00:00 PM 2.61 36.698 0.085 6.61 1.71 12.68
1/18/2021 9:15:00 PM 2.59 36.662 0.085 6.6 1.72 12.68
1/18/2021 9:30:00 PM 2.55 36.59 0.085 6.61 1.72 12.69
1/18/2021 9:45:00 PM 2.52 36.536 0.085 6.6 1.69 12.7
1/18/2021 10:00:00 PM 2.5 36.5 0.085 6.6 1.65 12.72
1/18/2021 10:15:00 PM 2.48 36.464 0.085 6.6 1.7 12.73
1/18/2021 10:30:00 PM 2.47 36.446 0.085 6.6 1.7 12.73
1/18/2021 10:45:00 PM 2.44 36.392 0.086 6.59 1.72 12.75
1/18/2021 11:00:00 PM 2.43 36.374 0.086 6.59 1.7 12.75
1/18/2021 11:15:00 PM 2.42 36.356 0.086 6.6 1.72 12.76
1/18/2021 11:30:00 PM 2.4 36.32 0.086 6.61 1.67 12.77
1/18/2021 11:45:00 PM 2.39 36.302 0.086 6.6 1.66 12.77
1/19/2021 12:00:00 AM 2.37 36.266 0.086 6.61 1.66 12.78
1/19/2021 12:15:00 AM 2.36 36.248 0.086 6.6 1.64 12.78
1/19/2021 12:30:00 AM 2.34 36.212 0.086 6.6 1.64 12.79
1/19/2021 12:45:00 AM 2.32 36.176 0.086 6.6 1.7 12.79
1/19/2021 1:00:00 AM 2.31 36.158 0.086 6.6 1.75 12.8
1/19/2021 1:15:00 AM 2.29 36.122 0.086 6.61 1.77 12.81
1/19/2021 1:30:00 AM 2.28 36.104 0.086 6.6 2.07 12.82
1/19/2021 1:45:00 AM 2.26 36.068 0.086 6.6 1.81 12.82
1/19/2021 2:00:00 AM 2.24 36.032 0.086 6.6 1.77 12.83
1/19/2021 2:15:00 AM 2.22 35.996 0.086 6.6 1.78 12.84
1/19/2021 2:30:00 AM 2.18 35.924 0.086 6.6 2.02 12.85
1/19/2021 2:45:00 AM 2.16 35.888 0.086 6.6 1.99 12.86
1/19/2021 3:00:00 AM 2.14 35.852 0.086 6.6 1.77 12.87
1/19/2021 3:15:00 AM 2.12 35.816 0.086 6.6 1.67 12.88
1/19/2021 3:30:00 AM 2.1 35.78 0.086 6.61 2 12.89
1/19/2021 3:45:00 AM 2.09 35.762 0.086 6.6 1.83 12.89
1/19/2021 4:00:00 AM 2.07 35.726 0.086 6.6 1.77 12.9
1/19/2021 4:15:00 AM 2.05 35.69 0.086 6.6 1.84 12.91
1/19/2021 4:30:00 AM 2.03 35.654 0.086 6.6 1.76 12.92
1/19/2021 4:45:00 AM 2.02 35.636 0.086 6.6 1.77 12.92
1/19/2021 5:00:00 AM 1.99 35.582 0.086 6.6 1.71 12.94
1/19/2021 5:15:00 AM 1.95 35.51 0.086 6.58 1.75 12.94
1/19/2021 5:30:00 AM 1.9 35.42 0.086 6.59 1.71 12.96
1/19/2021 5:45:00 AM 1.85 35.33 0.086 6.58 1.64 12.98
1/19/2021 6:00:00 AM 1.8 35.24 0.086 6.58 1.64 12.99
1/19/2021 6:15:00 AM 1.75 35.15 0.086 6.57 1.65 13.01
1/19/2021 6:30:00 AM 1.71 35.078 0.086 6.57 1.67 13.02
1/19/2021 6:45:00 AM 1.69 35.042 0.086 6.58 1.91 13.03
1/19/2021 7:00:00 AM 1.68 35.024 0.086 6.58 2.07 13.04
1/19/2021 7:15:00 AM 1.68 35.024 0.086 6.59 2.14 13.05
1/19/2021 7:30:00 AM 1.67 35.006 0.086 6.58 1.88 13.05
1/19/2021 7:45:00 AM 1.67 35.006 0.086 6.58 1.89 13.08
1/19/2021 8:00:00 AM 1.67 35.006 0.086 6.6 2.25 13.1
1/19/2021 8:15:00 AM 1.65 34.97 0.086 6.6 1.77 13.14
1/19/2021 8:30:00 AM 1.64 34.952 0.086 6.62 1.75 13.19
1/19/2021 8:45:00 AM 1.65 34.97 0.086 6.64 1.62 13.25
1/19/2021 9:00:00 AM 1.68 35.024 0.086 6.66 1.69 13.31
1/19/2021 9:15:00 AM 1.7 35.06 0.086 6.68 1.7 13.37
1/19/2021 9:30:00 AM 1.73 35.114 0.086 6.71 1.64 13.4
1/19/2021 9:45:00 AM 1.77 35.186 0.086 6.73 1.65 13.43
1/19/2021 10:00:00 AM 1.82 35.276 0.085 6.75 1.61 13.47
1/19/2021 10:15:00 AM 1.87 35.366 0.085 6.77 1.72 13.49
1/19/2021 10:30:00 AM 1.92 35.456 0.085 6.78 1.77 13.49
1/19/2021 10:45:00 AM 1.99 35.582 0.085 6.8 1.64 13.48
1/19/2021 11:00:00 AM 2.06 35.708 0.085 6.81 1.72 13.48
1/19/2021 11:15:00 AM 2.13 35.834 0.085 6.83 1.79 13.47
1/19/2021 11:30:00 AM 2.2 35.96 0.085 6.83 1.75 13.46
1/19/2021 11:45:00 AM 2.26 36.068 0.085 6.84 1.88 13.43
1/19/2021 12:00:00 PM 2.31 36.158 0.085 6.84 1.75 13.4
1/19/2021 12:15:00 PM 2.34 36.212 0.084 6.84 1.69 13.38
1/19/2021 12:30:00 PM 2.37 36.266 0.084 6.84 1.7 13.36
1/19/2021 12:45:00 PM 2.44 36.392 0.084 6.85 1.64 13.35
1/19/2021 1:00:00 PM 2.47 36.446 0.084 6.86 1.67 13.33
1/19/2021 1:15:00 PM 2.52 36.536 0.084 6.86 1.61 13.31
1/19/2021 1:30:00 PM 2.57 36.626 0.084 6.86 1.63 13.29
1/19/2021 1:45:00 PM 2.6 36.68 0.084 6.86 1.79 13.28
1/19/2021 2:00:00 PM 2.62 36.716 0.084 6.86 1.69 13.26
1/19/2021 2:15:00 PM 2.63 36.734 0.084 6.86 1.62 13.26
1/19/2021 2:30:00 PM 2.64 36.752 0.084 6.86 1.56 13.24
1/19/2021 2:45:00 PM 2.65 36.77 0.084 6.86 1.57 13.23
1/19/2021 3:00:00 PM 2.67 36.806 0.084 6.84 1.54 13.2
1/19/2021 3:15:00 PM 2.69 36.842 0.084 6.85 1.61 13.21
1/19/2021 3:30:00 PM 2.68 36.824 0.084 6.84 1.6 13.17
1/19/2021 3:45:00 PM 2.67 36.806 0.084 6.82 1.64 13.12
1/19/2021 4:00:00 PM 2.64 36.752 0.084 6.8 1.63 13.09
1/19/2021 4:15:00 PM 2.63 36.734 0.084 6.79 1.66 13.07
1/19/2021 4:30:00 PM 2.62 36.716 0.084 6.77 1.56 13.06
1/19/2021 4:45:00 PM 2.59 36.662 0.084 6.76 1.63 13.02
1/19/2021 5:00:00 PM 2.56 36.608 0.084 6.73 1.61 12.97
1/19/2021 5:15:00 PM 2.52 36.536 0.085 6.7 1.62 12.94
1/19/2021 5:30:00 PM 2.48 36.464 0.085 6.69 1.64 12.9
1/19/2021 5:45:00 PM 2.44 36.392 0.085 6.67 1.59 12.87
1/19/2021 6:00:00 PM 2.38 36.284 0.085 6.65 1.64 12.87
1/19/2021 6:15:00 PM 2.33 36.194 0.085 6.63 1.62 12.87
1/19/2021 6:30:00 PM 2.28 36.104 0.085 6.62 1.64 12.87
1/19/2021 6:45:00 PM 2.23 36.014 0.085 6.62 1.64 12.88
1/19/2021 7:00:00 PM 2.18 35.924 0.085 6.62 1.7 12.89
1/19/2021 7:15:00 PM 2.15 35.87 0.086 6.61 2.96 12.9
1/19/2021 7:30:00 PM 2.12 35.816 0.086 6.62 2.13 12.91
1/19/2021 7:45:00 PM 2.1 35.78 0.086 6.61 1.86 12.91
1/19/2021 8:00:00 PM 2.07 35.726 0.086 6.62 1.85 12.92
1/19/2021 8:15:00 PM 2.05 35.69 0.086 6.61 1.81 12.93
1/19/2021 8:30:00 PM 2.03 35.654 0.086 6.61 2.19 12.93
1/19/2021 8:45:00 PM 2.01 35.618 0.086 6.61 1.89 12.94
1/19/2021 9:00:00 PM 2 35.6 0.086 6.61 1.86 12.95
1/19/2021 9:15:00 PM 1.98 35.564 0.086 6.61 1.76 12.95
1/19/2021 9:30:00 PM 1.96 35.528 0.086 6.61 1.68 12.95
1/19/2021 9:45:00 PM 1.95 35.51 0.086 6.61 1.68 12.95
1/19/2021 10:00:00 PM 1.94 35.492 0.086 6.61 1.68 12.95
1/19/2021 10:15:00 PM 1.92 35.456 0.086 6.61 1.74 12.96
1/19/2021 10:30:00 PM 1.91 35.438 0.086 6.6 1.69 12.96
1/19/2021 10:45:00 PM 1.9 35.42 0.086 6.61 1.65 12.98
1/19/2021 11:00:00 PM 1.89 35.402 0.086 6.61 1.71 12.97
1/19/2021 11:15:00 PM 1.88 35.384 0.086 6.61 1.66 12.98
1/19/2021 11:30:00 PM 1.87 35.366 0.086 6.62 1.67 12.97
1/19/2021 11:45:00 PM 1.87 35.366 0.086 6.62 1.64 12.98
1/20/2021 12:00:00 AM 1.85 35.33 0.086 6.62 1.63 12.98
1/20/2021 12:15:00 AM 1.84 35.312 0.086 6.62 1.69 12.98
1/20/2021 12:30:00 AM 1.83 35.294 0.087 6.61 1.71 12.98
1/20/2021 12:45:00 AM 1.82 35.276 0.087 6.62 1.77 12.98
1/20/2021 1:00:00 AM 1.8 35.24 0.087 6.61 1.99 12.97
1/20/2021 1:15:00 AM 1.79 35.222 0.087 6.62 1.93 12.98
1/20/2021 1:30:00 AM 1.78 35.204 0.087 6.61 3.04 12.98
1/20/2021 1:45:00 AM 1.76 35.168 0.086 6.61 2.3 12.98
1/20/2021 2:00:00 AM 1.74 35.132 0.086 6.61 1.91 12.98
1/20/2021 2:15:00 AM 1.73 35.114 0.086 6.6 1.74 12.99
1/20/2021 2:30:00 AM 1.71 35.078 0.086 6.61 1.93 12.99
1/20/2021 2:45:00 AM 1.69 35.042 0.086 6.61 1.97 12.99
1/20/2021 3:00:00 AM 1.67 35.006 0.086 6.61 1.86 13
1/20/2021 3:15:00 AM 1.65 34.97 0.086 6.6 1.83 13.01
1/20/2021 3:30:00 AM 1.63 34.934 0.086 6.61 1.77 13.01
1/20/2021 3:45:00 AM 1.61 34.898 0.086 6.6 1.93 13.02
1/20/2021 4:00:00 AM 1.6 34.88 0.086 6.6 1.89 13.02
1/20/2021 4:15:00 AM 1.57 34.826 0.086 6.6 1.82 13.03
1/20/2021 4:30:00 AM 1.55 34.79 0.086 6.6 1.79 13.03
1/20/2021 4:45:00 AM 1.55 34.79 0.086 6.61 1.79 13.04
1/20/2021 5:00:00 AM 1.54 34.772 0.086 6.61 1.73 13.05
1/20/2021 5:15:00 AM 1.51 34.718 0.086 6.6 1.67 13.05
1/20/2021 5:30:00 AM 1.5 34.7 0.086 6.6 1.68 13.06
1/20/2021 5:45:00 AM 1.5 34.7 0.086 6.6 1.7 13.07
1/20/2021 6:00:00 AM 1.47 34.646 0.086 6.59 1.67 13.07
1/20/2021 6:15:00 AM 1.43 34.574 0.086 6.6 1.66 13.08
1/20/2021 6:30:00 AM 1.41 34.538 0.086 6.6 1.69 13.09
1/20/2021 6:45:00 AM 1.39 34.502 0.086 6.6 1.69 13.11
1/20/2021 7:00:00 AM 1.35 34.43 0.086 6.59 1.97 13.13
1/20/2021 7:15:00 AM 1.31 34.358 0.086 6.58 1.88 13.14
1/20/2021 7:30:00 AM 1.27 34.286 0.086 6.59 1.71 13.16
1/20/2021 7:45:00 AM 1.24 34.232 0.086 6.6 1.76 13.2
1/20/2021 8:00:00 AM 1.21 34.178 0.086 6.61 1.73 13.26
1/20/2021 8:15:00 AM 1.17 34.106 0.086 6.63 1.74 13.34
1/20/2021 8:30:00 AM 1.17 34.106 0.086 6.64 1.78 13.43
1/20/2021 8:45:00 AM 1.15 34.07 0.085 6.67 1.68 13.52
1/20/2021 9:00:00 AM 1.14 34.052 0.085 6.69 1.71 13.59
1/20/2021 9:15:00 AM 1.14 34.052 0.085 6.71 1.64 13.65
1/20/2021 9:30:00 AM 1.15 34.07 0.085 6.74 1.63 13.7
1/20/2021 9:45:00 AM 1.17 34.106 0.085 6.76 1.58 13.72
1/20/2021 10:00:00 AM 1.2 34.16 0.085 6.78 1.6 13.74
1/20/2021 10:15:00 AM 1.25 34.25 0.085 6.78 1.59 13.77
1/20/2021 10:30:00 AM 1.3 34.34 0.085 6.81 1.59 13.76
1/20/2021 10:45:00 AM 1.33 34.394 0.085 6.8 1.57 13.75
1/20/2021 11:00:00 AM 1.37 34.466 0.084 6.82 1.59 13.73
1/20/2021 11:15:00 AM 1.35 34.43 0.084 6.8 1.6 13.73
1/20/2021 11:30:00 AM 1.36 34.448 0.084 6.81 1.64 13.72
1/20/2021 11:45:00 AM 1.46 34.628 0.084 6.85 1.63 13.71
1/20/2021 12:00:00 PM 1.58 34.844 0.084 6.86 1.64 13.67
1/20/2021 12:15:00 PM 1.68 35.024 0.084 6.86 1.62 13.63
1/20/2021 12:30:00 PM 1.78 35.204 0.084 6.88 1.6 13.6
1/20/2021 12:45:00 PM 1.81 35.258 0.084 6.87 1.63 13.6
1/20/2021 1:00:00 PM 1.85 35.33 0.084 6.87 1.61 13.6
1/20/2021 1:15:00 PM 1.89 35.402 0.084 6.87 1.65 13.59
1/20/2021 1:30:00 PM 1.93 35.474 0.084 6.87 1.63 13.57
1/20/2021 1:45:00 PM 1.94 35.492 0.084 6.87 1.63 13.55
1/20/2021 2:00:00 PM 1.96 35.528 0.084 6.88 1.58 13.55
1/20/2021 2:15:00 PM 1.94 35.492 0.084 6.86 1.57 13.55
1/20/2021 2:30:00 PM 1.96 35.528 0.084 6.87 1.7 13.55
1/20/2021 2:45:00 PM 1.94 35.492 0.084 6.87 1.59 13.53
1/20/2021 3:00:00 PM 1.94 35.492 0.084 6.87 1.58 13.51
1/20/2021 3:15:00 PM 1.94 35.492 0.084 6.86 1.61 13.52
1/20/2021 3:30:00 PM 1.9 35.42 0.084 6.85 1.63 13.49
1/20/2021 3:45:00 PM 1.85 35.33 0.084 6.83 1.61 13.48
1/20/2021 4:00:00 PM 1.8 35.24 0.084 6.82 1.6 13.48
1/20/2021 4:15:00 PM 1.76 35.168 0.084 6.81 1.59 13.48
1/20/2021 4:30:00 PM 1.72 35.096 0.084 6.79 1.62 13.47
1/20/2021 4:45:00 PM 1.67 35.006 0.084 6.78 1.59 13.43
1/20/2021 5:00:00 PM 1.61 34.898 0.084 6.76 1.6 13.38
1/20/2021 5:15:00 PM 1.56 34.808 0.085 6.73 1.63 13.33
1/20/2021 5:30:00 PM 1.5 34.7 0.085 6.7 1.64 13.3
1/20/2021 5:45:00 PM 1.45 34.61 0.085 6.69 1.66 13.27
1/20/2021 6:00:00 PM 1.4 34.52 0.085 6.66 1.69 13.25
1/20/2021 6:15:00 PM 1.35 34.43 0.085 6.65 1.7 13.24
1/20/2021 6:30:00 PM 1.3 34.34 0.085 6.64 1.64 13.25
1/20/2021 6:45:00 PM 1.27 34.286 0.086 6.64 1.64 13.24
1/20/2021 7:00:00 PM 1.22 34.196 0.086 6.63 1.59 13.25
1/20/2021 7:15:00 PM 1.16 34.088 0.086 6.63 1.63 13.26
1/20/2021 7:30:00 PM 1.11 33.998 0.086 6.62 1.67 13.28
1/20/2021 7:45:00 PM 1.07 33.926 0.086 6.62 1.74 13.29
1/20/2021 8:00:00 PM 1.03 33.854 0.086 6.61 1.65 13.31
1/20/2021 8:15:00 PM 0.99 33.782 0.086 6.62 1.64 13.32
1/20/2021 8:30:00 PM 0.95 33.71 0.086 6.61 1.67 13.33
1/20/2021 8:45:00 PM 0.92 33.656 0.086 6.61 1.69 13.35
1/20/2021 9:00:00 PM 0.88 33.584 0.086 6.61 1.67 13.37
1/20/2021 9:15:00 PM 0.83 33.494 0.086 6.61 1.74 13.38
1/20/2021 9:30:00 PM 0.78 33.404 0.086 6.61 1.75 13.4
1/20/2021 9:45:00 PM 0.75 33.35 0.086 6.6 1.71 13.42
1/20/2021 10:00:00 PM 0.71 33.278 0.086 6.6 1.82 13.43
1/20/2021 10:15:00 PM 0.67 33.206 0.087 6.61 1.86 13.44
1/20/2021 10:30:00 PM 0.62 33.116 0.087 6.6 1.78 13.46
1/20/2021 10:45:00 PM 0.57 33.026 0.087 6.6 1.75 13.47
1/20/2021 11:00:00 PM 0.52 32.936 0.087 6.6 1.73 13.49
1/20/2021 11:15:00 PM 0.49 32.882 0.087 6.6 1.75 13.5
1/20/2021 11:30:00 PM 0.46 32.828 0.087 6.6 1.81 13.52
1/20/2021 11:45:00 PM 0.43 32.774 0.087 6.61 1.74 13.53
1/21/2021 12:00:00 AM 0.41 32.738 0.087 6.6 1.8 13.52
1/21/2021 12:15:00 AM 0.38 32.684 0.087 6.6 1.82 13.53
1/21/2021 12:30:00 AM 0.35 32.63 0.087 6.61 1.85 13.54
1/21/2021 12:45:00 AM 0.3 32.54 0.087 6.6 2.71 13.55
1/21/2021 1:00:00 AM 0.24 32.432 0.087 6.59 2.86 13.57
1/21/2021 1:15:00 AM 0.18 32.324 0.087 6.59 2.34 13.59
1/21/2021 1:30:00 AM 0.12 32.216 0.087 6.58 1.97 13.6
1/21/2021 1:45:00 AM 0.07 32.126 0.087 6.58 1.8 13.62
1/21/2021 2:00:00 AM 0.02 32.036 0.087 6.59 1.78 13.64
1/21/2021 2:15:00 AM -0.04 31.928 0.087 6.58 1.71 13.66
1/21/2021 2:30:00 AM -0.09 31.838 0.087 6.58 1.75 13.67
1/21/2021 2:45:00 AM -0.14 31.748 0.087 6.58 1.72 13.69
1/21/2021 3:00:00 AM -0.17 31.694 0.087 6.58 1.73 13.71
1/21/2021 3:15:00 AM -0.16 31.712 0.087 6.6 1.78 13.72
1/21/2021 3:30:00 AM -0.15 31.73 0.087 6.61 1.99 13.74
1/21/2021 3:45:00 AM -0.14 31.748 0.087 6.6 2.2 13.75
1/21/2021 4:00:00 AM -0.14 31.748 0.087 6.6 2.62 13.74
1/21/2021 4:15:00 AM -0.14 31.748 0.087 6.6 2.42 13.73
1/21/2021 4:30:00 AM -0.13 31.766 0.087 6.6 2.39 13.74
1/21/2021 4:45:00 AM -0.13 31.766 0.087 6.6 2.31 13.73
1/21/2021 5:00:00 AM -0.13 31.766 0.087 6.59 2.58 13.73
1/21/2021 5:15:00 AM -0.13 31.766 0.087 6.59 2.73 13.71
1/21/2021 5:30:00 AM -0.13 31.766 0.087 6.59 2.63 13.71
1/21/2021 5:45:00 AM -0.13 31.766 0.087 6.59 2.67 13.7
1/21/2021 6:00:00 AM -0.13 31.766 0.087 6.58 2.62 13.7
1/21/2021 6:15:00 AM -0.13 31.766 0.087 6.59 2.71 13.68
1/21/2021 6:30:00 AM -0.13 31.766 0.087 6.59 2.67 13.68
1/21/2021 6:45:00 AM -0.13 31.766 0.087 6.59 2.87 13.68
1/21/2021 7:00:00 AM -0.13 31.766 0.087 6.6 2.88 13.67
1/21/2021 7:15:00 AM -0.13 31.766 0.087 6.61 2.85 13.66
1/21/2021 7:30:00 AM -0.13 31.766 0.087 6.59 3.03 13.65
1/21/2021 7:45:00 AM -0.13 31.766 0.087 6.6 3.04 13.65
1/21/2021 8:00:00 AM -0.13 31.766 0.087 6.61 2.83 13.66
1/21/2021 8:15:00 AM -0.13 31.766 0.086 6.61 3.01 13.68
1/21/2021 8:30:00 AM -0.13 31.766 0.086 6.62 2.93 13.72
1/21/2021 8:45:00 AM -0.13 31.766 0.086 6.63 3.24 13.75
1/21/2021 9:00:00 AM -0.07 31.874 0.086 6.66 2.88 13.8
1/21/2021 9:15:00 AM 0.07 32.126 0.087 6.71 1.72 13.84
1/21/2021 9:30:00 AM 0.16 32.288 0.087 6.74 1.77 13.88
1/21/2021 9:45:00 AM 0.24 32.432 0.087 6.75 1.82 13.9
1/21/2021 10:00:00 AM 0.33 32.594 0.087 6.78 1.7 13.91
1/21/2021 10:15:00 AM 0.45 32.81 0.086 6.8 1.69 13.91
1/21/2021 10:30:00 AM 0.56 33.008 0.086 6.82 1.65 13.9
1/21/2021 10:45:00 AM 0.67 33.206 0.086 6.84 1.67 13.87
1/21/2021 11:00:00 AM 0.78 33.404 0.086 6.85 1.66 13.84
1/21/2021 11:15:00 AM 0.9 33.62 0.086 6.86 1.64 13.81
1/21/2021 11:30:00 AM 1.01 33.818 0.086 6.88 1.62 13.78
1/21/2021 11:45:00 AM 1.11 33.998 0.086 6.88 1.62 13.74
1/21/2021 12:00:00 PM 1.18 34.124 0.086 6.88 1.65 13.7
1/21/2021 12:15:00 PM 1.28 34.304 0.086 6.88 1.61 13.64
1/21/2021 12:30:00 PM 1.38 34.484 0.086 6.9 1.67 13.59
1/21/2021 12:45:00 PM 1.5 34.7 0.085 6.89 1.66 13.54
1/21/2021 1:00:00 PM 1.6 34.88 0.085 6.9 1.66 13.48
1/21/2021 1:15:00 PM 1.67 35.006 0.085 6.9 1.7 13.43
1/21/2021 1:30:00 PM 1.75 35.15 0.085 6.89 1.67 13.4
1/21/2021 1:45:00 PM 1.83 35.294 0.085 6.89 1.63 13.35
1/21/2021 2:00:00 PM 1.91 35.438 0.085 6.88 1.62 13.28
1/21/2021 2:15:00 PM 1.99 35.582 0.085 6.88 1.63 13.22
1/21/2021 2:30:00 PM 2.09 35.762 0.085 6.88 1.63 13.17
1/21/2021 2:45:00 PM 2.16 35.888 0.085 6.88 1.65 13.13
1/21/2021 3:00:00 PM 2.23 36.014 0.085 6.87 1.69 13.09
1/21/2021 3:15:00 PM 2.28 36.104 0.085 6.87 1.66 13.06
1/21/2021 3:30:00 PM 2.31 36.158 0.085 6.86 1.67 13.03
1/21/2021 3:45:00 PM 2.34 36.212 0.085 6.85 1.68 13
1/21/2021 4:00:00 PM 2.37 36.266 0.085 6.84 1.72 12.97
1/21/2021 4:15:00 PM 2.38 36.284 0.085 6.84 1.69 12.94
1/21/2021 4:30:00 PM 2.37 36.266 0.085 6.82 1.71 12.92
1/21/2021 4:45:00 PM 2.33 36.194 0.085 6.8 1.69 12.89
1/21/2021 5:00:00 PM 2.27 36.086 0.085 6.78 1.72 12.87
1/21/2021 5:15:00 PM 2.2 35.96 0.085 6.75 1.73 12.84
1/21/2021 5:30:00 PM 2.15 35.87 0.085 6.72 1.71 12.81
1/21/2021 5:45:00 PM 2.12 35.816 0.086 6.7 1.7 12.79
1/21/2021 6:00:00 PM 2.11 35.798 0.086 6.69 1.72 12.76
1/21/2021 6:15:00 PM 2.11 35.798 0.086 6.69 1.7 12.75
1/21/2021 6:30:00 PM 2.11 35.798 0.085 6.69 1.72 12.73
1/21/2021 6:45:00 PM 2.11 35.798 0.085 6.67 1.69 12.73
1/21/2021 7:00:00 PM 2.12 35.816 0.085 6.67 1.67 12.73
1/21/2021 7:15:00 PM 2.11 35.798 0.085 6.67 1.67 12.72
1/21/2021 7:30:00 PM 2.11 35.798 0.085 6.66 1.7 12.72
1/21/2021 7:45:00 PM 2.09 35.762 0.085 6.66 1.7 12.72
1/21/2021 8:00:00 PM 2.08 35.744 0.085 6.66 1.7 12.73
1/21/2021 8:15:00 PM 2.07 35.726 0.086 6.66 1.71 12.73
1/21/2021 8:30:00 PM 2.06 35.708 0.086 6.66 1.68 12.73
1/21/2021 8:45:00 PM 2.05 35.69 0.086 6.66 1.74 12.73
1/21/2021 9:00:00 PM 2.04 35.672 0.086 6.65 1.7 12.74
1/21/2021 9:15:00 PM 2.03 35.654 0.086 6.66 1.7 12.74
1/21/2021 9:30:00 PM 2.02 35.636 0.086 6.66 1.7 12.74
1/21/2021 9:45:00 PM 2.02 35.636 0.086 6.66 1.73 12.74
1/21/2021 10:00:00 PM 2.02 35.636 0.086 6.66 1.81 12.74
1/21/2021 10:15:00 PM 2.03 35.654 0.086 6.66 1.79 12.74
1/21/2021 10:30:00 PM 2.03 35.654 0.086 6.66 1.84 12.74
1/21/2021 10:45:00 PM 2.02 35.636 0.086 6.65 1.83 12.74
1/21/2021 11:00:00 PM 2.02 35.636 0.086 6.65 1.76 12.75
1/21/2021 11:15:00 PM 1.98 35.564 0.086 6.65 1.71 12.75
1/21/2021 11:30:00 PM 1.96 35.528 0.086 6.64 1.71 12.76
1/21/2021 11:45:00 PM 1.95 35.51 0.086 6.65 1.73 12.76
1/22/2021 12:00:00 AM 1.92 35.456 0.086 6.65 1.71 12.77
1/22/2021 12:15:00 AM 1.89 35.402 0.086 6.64 1.72 12.79
1/22/2021 12:30:00 AM 1.89 35.402 0.086 6.64 1.72 12.78
1/22/2021 12:45:00 AM 1.88 35.384 0.086 6.65 1.69 12.79
1/22/2021 1:00:00 AM 1.85 35.33 0.085 6.64 1.73 12.8
1/22/2021 1:15:00 AM 1.84 35.312 0.085 6.65 1.81 12.8
1/22/2021 1:30:00 AM 1.83 35.294 0.086 6.64 1.77 12.8
1/22/2021 1:45:00 AM 1.84 35.312 0.085 6.64 1.73 12.82
1/22/2021 2:00:00 AM 1.84 35.312 0.086 6.64 1.67 12.82
1/22/2021 2:15:00 AM 1.84 35.312 0.085 6.64 2.1 12.83
1/22/2021 2:30:00 AM 1.83 35.294 0.085 6.64 1.83 12.82
1/22/2021 2:45:00 AM 1.82 35.276 0.086 6.65 1.86 12.83
1/22/2021 3:00:00 AM 1.81 35.258 0.085 6.64 1.79 12.84
1/22/2021 3:15:00 AM 1.81 35.258 0.085 6.64 1.79 12.83
1/22/2021 3:30:00 AM 1.79 35.222 0.085 6.64 1.69 12.84
1/22/2021 3:45:00 AM 1.79 35.222 0.085 6.64 1.69 12.85
1/22/2021 4:00:00 AM 1.78 35.204 0.085 6.64 1.72 12.85
1/22/2021 4:15:00 AM 1.78 35.204 0.086 6.64 1.67 12.85
1/22/2021 4:30:00 AM 1.76 35.168 0.085 6.63 1.71 12.86
1/22/2021 4:45:00 AM 1.76 35.168 0.085 6.64 1.74 12.86
1/22/2021 5:00:00 AM 1.75 35.15 0.086 6.64 1.83 12.86
1/22/2021 5:15:00 AM 1.75 35.15 0.086 6.65 1.84 12.87
1/22/2021 5:30:00 AM 1.74 35.132 0.085 6.64 1.79 12.87
1/22/2021 5:45:00 AM 1.74 35.132 0.085 6.64 1.68 12.87
1/22/2021 6:00:00 AM 1.72 35.096 0.085 6.63 1.72 12.87
1/22/2021 6:15:00 AM 1.71 35.078 0.085 6.64 1.79 12.89
1/22/2021 6:30:00 AM 1.7 35.06 0.085 6.64 1.74 12.89
1/22/2021 6:45:00 AM 1.68 35.024 0.085 6.64 1.78 12.9
1/22/2021 7:00:00 AM 1.66 34.988 0.085 6.63 1.84 12.89
1/22/2021 7:15:00 AM 1.66 34.988 0.085 6.64 1.82 12.91
1/22/2021 7:30:00 AM 1.66 34.988 0.086 6.64 1.81 12.92
1/22/2021 7:45:00 AM 1.67 35.006 0.085 6.64 1.78 12.92
1/22/2021 8:00:00 AM 1.68 35.024 0.085 6.65 1.96 12.97
1/22/2021 8:15:00 AM 1.68 35.024 0.085 6.67 1.83 13.01
1/22/2021 8:30:00 AM 1.7 35.06 0.085 6.68 2.27 13.07
1/22/2021 8:45:00 AM 1.71 35.078 0.085 6.71 1.85 13.15
1/22/2021 9:00:00 AM 1.73 35.114 0.085 6.73 1.86 13.24
1/22/2021 9:15:00 AM 1.76 35.168 0.085 6.76 2.32 13.29
1/22/2021 9:30:00 AM 1.79 35.222 0.085 6.78 1.93 13.31
1/22/2021 9:45:00 AM 1.82 35.276 0.085 6.8 1.65 13.35
1/22/2021 10:00:00 AM 1.88 35.384 0.085 6.82 1.6 13.38
1/22/2021 10:15:00 AM 1.93 35.474 0.084 6.85 1.58 13.41
1/22/2021 10:30:00 AM 1.99 35.582 0.084 6.86 1.61 13.42
1/22/2021 10:45:00 AM 2.08 35.744 0.084 6.89 1.57 13.42
1/22/2021 11:00:00 AM 2.16 35.888 0.084 6.91 1.57 13.42
1/22/2021 11:15:00 AM 2.22 35.996 0.084 6.92 1.61 13.39
1/22/2021 11:30:00 AM 2.29 36.122 0.084 6.93 1.57 13.37
1/22/2021 11:45:00 AM 2.3 36.14 0.084 6.93 1.59 13.35
1/22/2021 12:00:00 PM 2.31 36.158 0.084 6.92 1.58 13.34
1/22/2021 12:15:00 PM 2.32 36.176 0.084 6.92 1.58 13.33
1/22/2021 12:30:00 PM 2.37 36.266 0.084 6.93 1.61 13.33
1/22/2021 12:45:00 PM 2.43 36.374 0.083 6.94 1.58 13.33
1/22/2021 1:00:00 PM 2.46 36.428 0.083 6.95 1.65 13.32
1/22/2021 1:15:00 PM 2.45 36.41 0.083 6.93 1.65 13.27
1/22/2021 1:30:00 PM 2.42 36.356 0.083 6.91 1.63 13.25
1/22/2021 1:45:00 PM 2.43 36.374 0.083 6.92 1.59 13.26
1/22/2021 2:00:00 PM 2.44 36.392 0.083 6.92 1.57 13.28
1/22/2021 2:15:00 PM 2.43 36.374 0.083 6.91 1.56 13.28
1/22/2021 2:30:00 PM 2.42 36.356 0.083 6.92 1.62 13.27
1/22/2021 2:45:00 PM 2.42 36.356 0.083 6.93 1.59 13.27
1/22/2021 3:00:00 PM 2.42 36.356 0.083 6.92 1.6 13.26
1/22/2021 3:15:00 PM 2.4 36.32 0.083 6.91 1.61 13.25
1/22/2021 3:30:00 PM 2.37 36.266 0.083 6.89 1.63 13.23
1/22/2021 3:45:00 PM 2.34 36.212 0.083 6.87 1.62 13.21
1/22/2021 4:00:00 PM 2.32 36.176 0.083 6.86 1.61 13.21
1/22/2021 4:15:00 PM 2.29 36.122 0.083 6.86 1.59 13.2
1/22/2021 4:30:00 PM 2.25 36.05 0.083 6.84 1.61 13.17
1/22/2021 4:45:00 PM 2.2 35.96 0.083 6.81 1.59 13.12
1/22/2021 5:00:00 PM 2.17 35.906 0.084 6.79 1.63 13.08
1/22/2021 5:15:00 PM 2.12 35.816 0.084 6.76 1.59 13.02
1/22/2021 5:30:00 PM 2.06 35.708 0.084 6.73 1.6 12.99
1/22/2021 5:45:00 PM 2 35.6 0.084 6.71 1.59 12.96
1/22/2021 6:00:00 PM 1.95 35.51 0.085 6.69 1.64 12.95
1/22/2021 6:15:00 PM 1.89 35.402 0.085 6.67 1.64 12.95
1/22/2021 6:30:00 PM 1.83 35.294 0.085 6.66 1.65 12.96
1/22/2021 6:45:00 PM 1.78 35.204 0.085 6.66 1.63 12.98
1/22/2021 7:00:00 PM 1.72 35.096 0.085 6.65 1.65 12.98
1/22/2021 7:15:00 PM 1.67 35.006 0.086 6.64 1.68 13
1/22/2021 7:30:00 PM 1.62 34.916 0.086 6.64 1.66 13.02
1/22/2021 7:45:00 PM 1.57 34.826 0.086 6.64 1.71 13.04
1/22/2021 8:00:00 PM 1.52 34.736 0.086 6.64 1.65 13.06
1/22/2021 8:15:00 PM 1.47 34.646 0.086 6.64 1.68 13.08
1/22/2021 8:30:00 PM 1.43 34.574 0.086 6.64 1.65 13.1
1/22/2021 8:45:00 PM 1.39 34.502 0.086 6.64 1.69 13.11
1/22/2021 9:00:00 PM 1.34 34.412 0.086 6.64 1.67 13.13
1/22/2021 9:15:00 PM 1.29 34.322 0.086 6.63 1.72 13.16
1/22/2021 9:30:00 PM 1.25 34.25 0.086 6.63 1.67 13.18
1/22/2021 9:45:00 PM 1.2 34.16 0.086 6.63 1.66 13.19
1/22/2021 10:00:00 PM 1.16 34.088 0.086 6.63 1.68 13.22
1/22/2021 10:15:00 PM 1.12 34.016 0.086 6.63 1.71 13.24
1/22/2021 10:30:00 PM 1.07 33.926 0.086 6.63 1.68 13.25
1/22/2021 10:45:00 PM 1.03 33.854 0.086 6.63 1.69 13.27
1/22/2021 11:00:00 PM 1 33.8 0.086 6.63 1.67 13.29
1/22/2021 11:15:00 PM 0.95 33.71 0.086 6.63 1.69 13.31
1/22/2021 11:30:00 PM 0.91 33.638 0.086 6.62 1.81 13.32
1/22/2021 11:45:00 PM 0.87 33.566 0.087 6.63 1.85 13.34
1/23/2021 12:00:00 AM 0.83 33.494 0.087 6.62 1.67 13.36
1/23/2021 12:15:00 AM 0.79 33.422 0.087 6.62 1.7 13.37
1/23/2021 12:30:00 AM 0.75 33.35 0.087 6.62 1.67 13.39
1/23/2021 12:45:00 AM 0.7 33.26 0.087 6.62 1.73 13.41
1/23/2021 1:00:00 AM 0.66 33.188 0.087 6.62 1.72 13.43
1/23/2021 1:15:00 AM 0.6 33.08 0.087 6.62 1.76 13.44
1/23/2021 1:30:00 AM 0.48 32.864 0.087 6.59 1.74 13.47
1/23/2021 1:45:00 AM 0.43 32.774 0.087 6.6 1.69 13.5
1/23/2021 2:00:00 AM 0.41 32.738 0.087 6.62 1.68 13.52
1/23/2021 2:15:00 AM 0.37 32.666 0.087 6.61 1.7 13.55
1/23/2021 2:30:00 AM 0.33 32.594 0.087 6.61 1.92 13.56
1/23/2021 2:45:00 AM 0.3 32.54 0.087 6.62 1.84 13.59
1/23/2021 3:00:00 AM 0.27 32.486 0.087 6.62 1.71 13.6
1/23/2021 3:15:00 AM 0.22 32.396 0.087 6.61 1.78 13.61
1/23/2021 3:30:00 AM 0.16 32.288 0.087 6.6 1.76 13.64
1/23/2021 3:45:00 AM 0.14 32.252 0.087 6.61 1.71 13.66
1/23/2021 4:00:00 AM 0.11 32.198 0.087 6.61 1.73 13.67
1/23/2021 4:15:00 AM 0.09 32.162 0.087 6.61 1.77 13.68
1/23/2021 4:30:00 AM 0.07 32.126 0.087 6.61 2.76 13.69
1/23/2021 4:45:00 AM 0.03 32.054 0.087 6.61 2.64 13.7
1/23/2021 5:00:00 AM 0 32 0.087 6.61 1.99 13.73
1/23/2021 5:15:00 AM -0.02 31.964 0.087 6.61 1.79 13.73
1/23/2021 5:30:00 AM -0.04 31.928 0.087 6.62 1.77 13.75
1/23/2021 5:45:00 AM -0.08 31.856 0.087 6.61 1.73 13.76
1/23/2021 6:00:00 AM -0.11 31.802 0.087 6.61 1.74 13.77
1/23/2021 6:15:00 AM -0.12 31.784 0.087 6.61 1.76 13.79
1/23/2021 6:30:00 AM -0.13 31.766 0.087 6.61 1.7 13.8
1/23/2021 6:45:00 AM -0.14 31.748 0.087 6.62 1.72 13.81
1/23/2021 7:00:00 AM -0.14 31.748 0.087 6.62 1.76 13.82
1/23/2021 7:15:00 AM -0.14 31.748 0.087 6.61 1.71 13.83
1/23/2021 7:30:00 AM -0.14 31.748 0.087 6.62 2.1 13.85
1/23/2021 7:45:00 AM -0.14 31.748 0.087 6.63 1.81 13.86
1/23/2021 8:00:00 AM -0.13 31.766 0.085 6.63 1.73 13.9
1/23/2021 8:15:00 AM -0.14 31.748 0.086 6.6 1.76 13.95
1/23/2021 8:30:00 AM -0.13 31.766 0.082 6.67 1.77 14.02
1/23/2021 8:45:00 AM -0.13 31.766 0.081 6.71 1.68 14.1
1/23/2021 9:00:00 AM -0.13 31.766 0.08 6.7 1.67 14.19
1/23/2021 9:15:00 AM -0.13 31.766 0.079 6.72 1.65 14.26
1/23/2021 9:30:00 AM -0.13 31.766 0.077 6.75 1.7 14.32
1/23/2021 9:45:00 AM -0.13 31.766 0.075 6.77 1.63 14.36
1/23/2021 10:00:00 AM -0.13 31.766 0.074 6.78 1.68 14.4
1/23/2021 10:15:00 AM -0.12 31.784 0.086 6.76 1.69 14.42
1/23/2021 10:30:00 AM -0.11 31.802 0.086 6.78 1.65 14.43
1/23/2021 10:45:00 AM -0.09 31.838 0.086 6.84 1.69 14.44
1/23/2021 11:00:00 AM -0.03 31.946 0.086 6.85 1.64 14.44
1/23/2021 11:15:00 AM 0.02 32.036 0.086 6.86 1.63 14.43
1/23/2021 11:30:00 AM 0.07 32.126 0.086 6.87 1.64 14.42
1/23/2021 11:45:00 AM 0.12 32.216 0.086 6.87 1.67 14.41
1/23/2021 12:00:00 PM 0.15 32.27 0.086 6.87 1.6 14.38
1/23/2021 12:15:00 PM 0.19 32.342 0.085 6.88 1.62 14.36
1/23/2021 12:30:00 PM 0.24 32.432 0.085 6.88 1.64 14.35
1/23/2021 12:45:00 PM 0.29 32.522 0.085 6.88 1.63 14.33
1/23/2021 1:00:00 PM 0.32 32.576 0.085 6.89 1.62 14.31
1/23/2021 1:15:00 PM 0.4 32.72 0.085 6.9 1.63 14.29
1/23/2021 1:30:00 PM 0.45 32.81 0.085 6.9 1.63 14.27
1/23/2021 1:45:00 PM 0.51 32.918 0.085 6.91 1.61 14.25
1/23/2021 2:00:00 PM 0.58 33.044 0.085 6.91 1.61 14.21
1/23/2021 2:15:00 PM 0.64 33.152 0.085 6.91 1.57 14.18
1/23/2021 2:30:00 PM 0.68 33.224 0.085 6.91 1.6 14.14
1/23/2021 2:45:00 PM 0.73 33.314 0.085 6.91 1.56 14.12
1/23/2021 3:00:00 PM 0.7 33.26 0.085 6.9 1.57 14.1
1/23/2021 3:15:00 PM 0.69 33.242 0.085 6.88 1.62 14.11
1/23/2021 3:30:00 PM 0.68 33.224 0.085 6.88 1.59 14.1
1/23/2021 3:45:00 PM 0.66 33.188 0.085 6.88 1.58 14.09
1/23/2021 4:00:00 PM 0.65 33.17 0.085 6.88 1.59 14.06
1/23/2021 4:15:00 PM 0.64 33.152 0.085 6.86 1.59 14.03
1/23/2021 4:30:00 PM 0.64 33.152 0.085 6.85 1.56 14
1/23/2021 4:45:00 PM 0.6 33.08 0.085 6.83 1.58 13.97
1/23/2021 5:00:00 PM 0.56 33.008 0.085 6.8 1.6 13.91
1/23/2021 5:15:00 PM 0.52 32.936 0.085 6.76 1.6 13.85
1/23/2021 5:30:00 PM 0.48 32.864 0.086 6.73 1.61 13.81
1/23/2021 5:45:00 PM 0.45 32.81 0.086 6.71 1.58 13.77
1/23/2021 6:00:00 PM 0.41 32.738 0.086 6.7 1.6 13.74
1/23/2021 6:15:00 PM 0.37 32.666 0.086 6.68 1.62 13.73
1/23/2021 6:30:00 PM 0.34 32.612 0.086 6.68 1.62 13.73
1/23/2021 6:45:00 PM 0.3 32.54 0.086 6.66 1.58 13.73
1/23/2021 7:00:00 PM 0.27 32.486 0.086 6.66 1.61 13.73
1/23/2021 7:15:00 PM 0.24 32.432 0.086 6.65 1.6 13.73
1/23/2021 7:30:00 PM 0.21 32.378 0.086 6.65 1.64 13.75
1/23/2021 7:45:00 PM 0.18 32.324 0.086 6.64 1.63 13.76
1/23/2021 8:00:00 PM 0.15 32.27 0.087 6.64 1.62 13.77
1/23/2021 8:15:00 PM 0.12 32.216 0.087 6.63 1.61 13.79
1/23/2021 8:30:00 PM 0.07 32.126 0.087 6.63 1.62 13.8
1/23/2021 8:45:00 PM 0.04 32.072 0.087 6.63 1.65 13.81
1/23/2021 9:00:00 PM 0.01 32.018 0.087 6.63 1.7 13.82
1/23/2021 9:15:00 PM -0.02 31.964 0.087 6.64 1.66 13.84
1/23/2021 9:30:00 PM -0.05 31.91 0.087 6.64 1.71 13.86
1/23/2021 9:45:00 PM -0.08 31.856 0.087 6.63 1.74 13.87
1/23/2021 10:00:00 PM -0.1 31.82 0.087 6.63 1.67 13.88
1/23/2021 10:15:00 PM -0.14 31.748 0.087 6.63 1.78 13.9
1/23/2021 10:30:00 PM -0.15 31.73 0.087 6.63 1.7 13.91
1/23/2021 10:45:00 PM -0.15 31.73 0.087 6.62 1.72 13.93
1/23/2021 11:00:00 PM -0.15 31.73 0.087 6.63 1.69 13.94
1/23/2021 11:15:00 PM -0.15 31.73 0.087 6.62 1.76 13.94
1/23/2021 11:30:00 PM -0.14 31.748 0.087 6.63 1.72 13.95
1/23/2021 11:45:00 PM -0.14 31.748 0.086 6.63 1.75 13.96
1/24/2021 12:00:00 AM -0.14 31.748 0.082 6.63 1.85 13.96
1/24/2021 12:15:00 AM -0.14 31.748 0.076 6.62 19.96 13.96
1/24/2021 12:30:00 AM -0.14 31.748 0.07 6.6 22.54 13.96
1/24/2021 12:45:00 AM -0.14 31.748 0.063 6.6 21.65 13.96
1/24/2021 1:00:00 AM -0.14 31.748 0.057 6.6 23.96 13.96
1/24/2021 1:15:00 AM -0.13 31.766 0.052 6.61 28.01 13.96
1/24/2021 1:30:00 AM -0.13 31.766 0.048 6.63 27.34 13.95
1/24/2021 1:45:00 AM -0.13 31.766 0.044 6.65 20.76 13.96
1/24/2021 2:00:00 AM -0.13 31.766 0.04 6.67 21.65 13.96
1/24/2021 2:15:00 AM -0.13 31.766 0.037 6.67 18.42 13.96
1/24/2021 2:30:00 AM -0.13 31.766 0.036 6.67 20.4 13.96
1/24/2021 2:45:00 AM -0.13 31.766 0.034 6.67 18.96 13.97
1/24/2021 3:00:00 AM -0.13 31.766 0.033 6.67 18.75 13.96
1/24/2021 3:15:00 AM -0.13 31.766 0.032 6.67 19.01 13.96
1/24/2021 3:30:00 AM -0.13 31.766 0.032 6.67 17.32 13.96
1/24/2021 3:45:00 AM -0.13 31.766 0.032 6.67 17.4 13.95
1/24/2021 4:00:00 AM -0.13 31.766 0.031 6.67 17.25 13.95
1/24/2021 4:15:00 AM -0.13 31.766 0.031 6.67 17.25 13.95
1/24/2021 4:30:00 AM -0.13 31.766 0.031 6.67 17.29 13.95
1/24/2021 4:45:00 AM -0.13 31.766 0.031 6.67 17.25 13.94
1/24/2021 5:00:00 AM -0.13 31.766 0.031 6.66 17.12 13.94
1/24/2021 5:15:00 AM -0.13 31.766 0.031 6.66 17.03 13.94
1/24/2021 5:30:00 AM -0.13 31.766 0.031 6.66 17.03 13.93
1/24/2021 5:45:00 AM -0.13 31.766 0.032 6.66 17.07 13.93
1/24/2021 6:00:00 AM -0.13 31.766 0.032 6.66 16.7 13.94
1/24/2021 6:15:00 AM -0.13 31.766 0.032 6.66 17.21 13.93
1/24/2021 6:30:00 AM -0.13 31.766 0.032 6.66 16.23 13.94
1/24/2021 6:45:00 AM -0.13 31.766 0.032 6.66 16.3 13.94
1/24/2021 7:00:00 AM -0.13 31.766 0.032 6.66 15.99 13.93
1/24/2021 7:15:00 AM -0.13 31.766 0.032 6.66 15.85 13.93
1/24/2021 7:30:00 AM -0.13 31.766 0.032 6.66 15.71 13.94
1/24/2021 7:45:00 AM -0.13 31.766 0.032 6.66 15.73 13.96
1/24/2021 8:00:00 AM -0.13 31.766 0.032 6.67 15.67 14
1/24/2021 8:15:00 AM -0.13 31.766 0.032 6.68 15.61 14.05
1/24/2021 8:30:00 AM -0.13 31.766 0.032 6.7 15.58 14.12
1/24/2021 8:45:00 AM -0.13 31.766 0.032 6.71 15.66 14.19
1/24/2021 9:00:00 AM -0.13 31.766 0.032 6.73 15.09 14.25
1/24/2021 9:15:00 AM -0.13 31.766 0.032 6.75 14.98 14.3
1/24/2021 9:30:00 AM -0.13 31.766 0.032 6.76 14.97 14.35
1/24/2021 9:45:00 AM -0.13 31.766 0.032 6.78 15.03 14.38
1/24/2021 10:00:00 AM -0.13 31.766 0.032 6.79 15.1 14.4
1/24/2021 10:15:00 AM -0.13 31.766 0.032 6.8 15.17 14.4
1/24/2021 10:30:00 AM -0.13 31.766 0.032 6.8 15.25 14.41
1/24/2021 10:45:00 AM -0.13 31.766 0.032 6.81 15.65 14.43
1/24/2021 11:00:00 AM -0.13 31.766 0.032 6.82 15.91 14.43
1/24/2021 11:15:00 AM -0.13 31.766 0.032 6.82 20.01 14.43
1/24/2021 11:30:00 AM -0.13 31.766 0.033 6.83 20.17 14.44
1/24/2021 11:45:00 AM -0.13 31.766 0.033 6.84 22.56 14.44
1/24/2021 12:00:00 PM -0.13 31.766 0.034 6.84 23.13 14.44
1/24/2021 12:15:00 PM -0.13 31.766 0.036 6.86 23.52 14.43
1/24/2021 12:30:00 PM -0.13 31.766 0.038 6.84 25.29 14.42
1/24/2021 12:45:00 PM -0.13 31.766 0.043 6.84 28.6 14.41
1/24/2021 1:00:00 PM -0.13 31.766 0.046 6.84 28.53 14.4
1/24/2021 1:15:00 PM -0.13 31.766 0.05 6.84 28.83 14.39
1/24/2021 1:30:00 PM -0.12 31.784 0.059 6.87 28.46 14.39
1/24/2021 1:45:00 PM -0.12 31.784 0.069 6.86 16.64 14.37
1/24/2021 2:00:00 PM -0.12 31.784 0.079 6.88 10.42 14.33
1/24/2021 2:15:00 PM -0.1 31.82 0.085 6.88 5.84 14.3
1/24/2021 2:30:00 PM -0.05 31.91 0.085 6.88 1.93 14.26
1/24/2021 2:45:00 PM 0.06 32.108 0.085 6.9 1.8 14.23
1/24/2021 3:00:00 PM 0.23 32.414 0.085 6.92 1.7 14.19
1/24/2021 3:15:00 PM 0.36 32.648 0.085 6.92 1.71 14.14
1/24/2021 3:30:00 PM 0.48 32.864 0.085 6.93 1.67 14.1
1/24/2021 3:45:00 PM 0.58 33.044 0.085 6.92 1.7 14.06
1/24/2021 4:00:00 PM 0.65 33.17 0.085 6.91 1.65 14
1/24/2021 4:15:00 PM 0.71 33.278 0.085 6.9 1.67 13.96
1/24/2021 4:30:00 PM 0.75 33.35 0.085 6.89 1.71 13.91
1/24/2021 4:45:00 PM 0.78 33.404 0.085 6.86 1.67 13.84
1/24/2021 5:00:00 PM 0.8 33.44 0.085 6.83 1.61 13.76
1/24/2021 5:15:00 PM 0.81 33.458 0.085 6.81 1.64 13.69
1/24/2021 5:30:00 PM 0.82 33.476 0.085 6.78 1.66 13.62
1/24/2021 5:45:00 PM 0.82 33.476 0.085 6.75 1.82 13.57
1/24/2021 6:00:00 PM 0.82 33.476 0.085 6.73 1.72 13.52
1/24/2021 6:15:00 PM 0.81 33.458 0.086 6.71 1.74 13.49
1/24/2021 6:30:00 PM 0.8 33.44 0.086 6.7 1.78 13.48
1/24/2021 6:45:00 PM 0.8 33.44 0.086 6.69 1.73 13.47
1/24/2021 7:00:00 PM 0.79 33.422 0.086 6.68 1.76 13.45
1/24/2021 7:15:00 PM 0.78 33.404 0.086 6.68 1.71 13.46
1/24/2021 7:30:00 PM 0.77 33.386 0.086 6.66 1.73 13.46
1/24/2021 7:45:00 PM 0.75 33.35 0.086 6.66 1.74 13.45
1/24/2021 8:00:00 PM 0.73 33.314 0.086 6.66 1.73 13.46
1/24/2021 8:15:00 PM 0.72 33.296 0.086 6.66 1.76 13.47
1/24/2021 8:30:00 PM 0.7 33.26 0.086 6.65 1.82 13.47
1/24/2021 8:45:00 PM 0.68 33.224 0.087 6.65 1.8 13.48
1/24/2021 9:00:00 PM 0.67 33.206 0.087 6.65 1.77 13.49
1/24/2021 9:15:00 PM 0.65 33.17 0.087 6.65 1.7 13.49
1/24/2021 9:30:00 PM 0.64 33.152 0.087 6.65 1.72 13.51
1/24/2021 9:45:00 PM 0.62 33.116 0.087 6.65 1.75 13.5
1/24/2021 10:00:00 PM 0.61 33.098 0.087 6.65 1.72 13.51
1/24/2021 10:15:00 PM 0.59 33.062 0.087 6.64 1.76 13.51
1/24/2021 10:30:00 PM 0.58 33.044 0.087 6.65 1.7 13.53
1/24/2021 10:45:00 PM 0.56 33.008 0.087 6.65 1.75 13.53
1/24/2021 11:00:00 PM 0.54 32.972 0.087 6.64 1.73 13.54
1/24/2021 11:15:00 PM 0.53 32.954 0.087 6.65 1.7 13.54
1/24/2021 11:30:00 PM 0.51 32.918 0.087 6.64 1.68 13.55
1/24/2021 11:45:00 PM 0.48 32.864 0.087 6.64 1.67 13.56
1/25/2021 12:00:00 AM 0.45 32.81 0.087 6.64 1.76 13.58
1/25/2021 12:15:00 AM 0.4 32.72 0.087 6.63 1.74 13.59
1/25/2021 12:30:00 AM 0.35 32.63 0.088 6.63 1.68 13.6
1/25/2021 12:45:00 AM 0.3 32.54 0.088 6.63 1.72 13.62
1/25/2021 1:00:00 AM 0.25 32.45 0.088 6.63 1.71 13.63
1/25/2021 1:15:00 AM 0.19 32.342 0.088 6.62 1.73 13.65
1/25/2021 1:30:00 AM 0.14 32.252 0.088 6.62 1.77 13.67
1/25/2021 1:45:00 AM 0.09 32.162 0.088 6.62 1.71 13.69
1/25/2021 2:00:00 AM 0.03 32.054 0.088 6.62 1.72 13.71
1/25/2021 2:15:00 AM -0.02 31.964 0.088 6.61 1.72 13.74
1/25/2021 2:30:00 AM -0.07 31.874 0.088 6.61 1.7 13.75
1/25/2021 2:45:00 AM -0.11 31.802 0.088 6.62 1.72 13.77
1/25/2021 3:00:00 AM -0.14 31.748 0.088 6.61 1.72 13.8
1/25/2021 3:15:00 AM -0.17 31.694 0.088 6.62 1.74 13.81
1/25/2021 3:30:00 AM -0.17 31.694 0.088 6.62 1.77 13.83
1/25/2021 3:45:00 AM -0.15 31.73 0.088 6.62 1.86 13.84
1/25/2021 4:00:00 AM -0.15 31.73 0.088 6.61 4.11 13.85
1/25/2021 4:15:00 AM -0.15 31.73 0.088 6.61 4.89 13.88
1/25/2021 4:30:00 AM -0.15 31.73 0.086 6.62 5.21 13.93
1/25/2021 4:45:00 AM -0.14 31.748 0.084 6.63 5.31 13.92
1/25/2021 5:00:00 AM -0.14 31.748 0.077 6.64 5.42 13.97
1/25/2021 5:15:00 AM -0.14 31.748 0.064 6.63 5.62 14.07
1/25/2021 5:30:00 AM -0.14 31.748 0.057 6.64 6.29 13.96
1/25/2021 5:45:00 AM -0.14 31.748 0.053 6.63 5.79 13.91
1/25/2021 6:00:00 AM -0.13 31.766 0.051 6.63 6.18 13.9
1/25/2021 6:15:00 AM -0.13 31.766 0.05 6.66 6.17 13.89
1/25/2021 6:30:00 AM -0.13 31.766 0.049 6.66 6.04 13.89
1/25/2021 6:45:00 AM -0.13 31.766 0.049 6.66 6.02 13.89
1/25/2021 7:00:00 AM -0.13 31.766 0.048 6.65 6.09 13.88
1/25/2021 7:15:00 AM -0.13 31.766 0.047 6.65 6.31 13.89
1/25/2021 7:30:00 AM -0.13 31.766 0.046 6.65 6.08 13.9
1/25/2021 7:45:00 AM -0.13 31.766 0.045 6.66 6.07 13.92
1/25/2021 8:00:00 AM -0.13 31.766 0.044 6.67 6.48 13.95
1/25/2021 8:15:00 AM -0.13 31.766 0.043 6.68 6.3 13.98
1/25/2021 8:30:00 AM -0.13 31.766 0.043 6.7 6.12 14.04
1/25/2021 8:45:00 AM -0.13 31.766 0.042 6.71 6.16 14.1
1/25/2021 9:00:00 AM -0.13 31.766 0.042 6.72 6.26 14.16
1/25/2021 9:15:00 AM -0.13 31.766 0.042 6.74 6.4 14.22
1/25/2021 9:30:00 AM -0.13 31.766 0.041 6.75 6.12 14.27
1/25/2021 9:45:00 AM -0.13 31.766 0.041 6.77 6.29 14.3
1/25/2021 10:00:00 AM -0.13 31.766 0.041 6.78 6.55 14.33
1/25/2021 10:15:00 AM -0.13 31.766 0.041 6.79 6.24 14.36
1/25/2021 10:30:00 AM -0.13 31.766 0.042 6.8 6.85 14.39
1/25/2021 10:45:00 AM -0.13 31.766 0.042 6.82 6.43 14.4
1/25/2021 11:00:00 AM -0.13 31.766 0.043 6.83 6.37 14.41
1/25/2021 11:15:00 AM -0.13 31.766 0.043 6.84 6.52 14.42
1/25/2021 11:30:00 AM -0.13 31.766 0.043 6.85 6.54 14.41
1/25/2021 11:45:00 AM -0.13 31.766 0.044 6.85 7.03 14.41
1/25/2021 12:00:00 PM -0.13 31.766 0.045 6.85 7.7 14.41
1/25/2021 12:15:00 PM -0.13 31.766 0.047 6.86 7.39 14.4
1/25/2021 12:30:00 PM -0.13 31.766 0.048 6.86 6.76 14.39
1/25/2021 12:45:00 PM -0.13 31.766 0.049 6.87 7.56 14.38
1/25/2021 1:00:00 PM -0.13 31.766 0.053 6.87 6.17 14.36
1/25/2021 1:15:00 PM -0.12 31.784 0.059 6.87 6.3 14.32
1/25/2021 1:30:00 PM -0.12 31.784 0.069 6.87 4.78 14.36
1/25/2021 1:45:00 PM -0.12 31.784 0.075 6.88 2.4 14.35
1/25/2021 2:00:00 PM -0.11 31.802 0.082 6.89 2.01 14.35
1/25/2021 2:15:00 PM -0.11 31.802 0.086 6.9 2.03 14.34
1/25/2021 2:30:00 PM -0.09 31.838 0.086 6.89 2 14.33
1/25/2021 2:45:00 PM -0.05 31.91 0.086 6.89 1.94 14.3
1/25/2021 3:00:00 PM 0.01 32.018 0.085 6.89 1.9 14.27
1/25/2021 3:15:00 PM 0.08 32.144 0.085 6.9 1.78 14.24
1/25/2021 3:30:00 PM 0.17 32.306 0.085 6.9 1.81 14.2
1/25/2021 3:45:00 PM 0.28 32.504 0.085 6.91 1.74 14.14
1/25/2021 4:00:00 PM 0.41 32.738 0.085 6.91 1.76 14.06
1/25/2021 4:15:00 PM 0.53 32.954 0.085 6.91 1.71 13.98
1/25/2021 4:30:00 PM 0.65 33.17 0.085 6.9 1.76 13.9
1/25/2021 4:45:00 PM 0.75 33.35 0.085 6.88 1.77 13.8
1/25/2021 5:00:00 PM 0.83 33.494 0.086 6.85 1.75 13.7
1/25/2021 5:15:00 PM 0.89 33.602 0.086 6.83 1.74 13.61
1/25/2021 5:30:00 PM 0.94 33.692 0.086 6.79 1.83 13.52
1/25/2021 5:45:00 PM 0.97 33.746 0.086 6.77 1.76 13.45
1/25/2021 6:00:00 PM 1 33.8 0.086 6.75 1.82 13.41
1/25/2021 6:15:00 PM 1.03 33.854 0.086 6.73 1.81 13.36
1/25/2021 6:30:00 PM 1.05 33.89 0.086 6.72 1.86 13.33
1/25/2021 6:45:00 PM 1.07 33.926 0.086 6.71 1.82 13.31
1/25/2021 7:00:00 PM 1.08 33.944 0.086 6.7 1.8 13.29
1/25/2021 7:15:00 PM 1.09 33.962 0.086 6.69 1.78 13.29
1/25/2021 7:30:00 PM 1.1 33.98 0.086 6.69 1.86 13.27
1/25/2021 7:45:00 PM 1.1 33.98 0.086 6.68 1.81 13.27
1/25/2021 8:00:00 PM 1.1 33.98 0.086 6.68 1.81 13.26
1/25/2021 8:15:00 PM 1.1 33.98 0.086 6.68 1.83 13.26
1/25/2021 8:30:00 PM 1.1 33.98 0.086 6.67 1.87 13.26
1/25/2021 8:45:00 PM 1.1 33.98 0.086 6.66 1.86 13.27
1/25/2021 9:00:00 PM 1.09 33.962 0.086 6.66 1.83 13.26
1/25/2021 9:15:00 PM 1.08 33.944 0.086 6.66 1.77 13.27
1/25/2021 9:30:00 PM 1.08 33.944 0.086 6.66 1.76 13.27
1/25/2021 9:45:00 PM 1.08 33.944 0.086 6.66 1.81 13.28
1/25/2021 10:00:00 PM 1.07 33.926 0.086 6.66 1.77 13.28
1/25/2021 10:15:00 PM 1.07 33.926 0.086 6.66 1.73 13.28
1/25/2021 10:30:00 PM 1.06 33.908 0.086 6.66 1.77 13.28
1/25/2021 10:45:00 PM 1.06 33.908 0.086 6.66 1.84 13.28
1/25/2021 11:00:00 PM 1.05 33.89 0.086 6.66 1.76 13.28
1/25/2021 11:15:00 PM 1.05 33.89 0.087 6.66 1.83 13.28
1/25/2021 11:30:00 PM 1.04 33.872 0.087 6.66 1.71 13.29
1/25/2021 11:45:00 PM 1.04 33.872 0.087 6.66 1.76 13.29
1/26/2021 12:00:00 AM 1.03 33.854 0.087 6.66 1.73 13.29
1/26/2021 12:15:00 AM 1.03 33.854 0.087 6.66 1.74 13.28
1/26/2021 12:30:00 AM 1.03 33.854 0.087 6.67 1.76 13.29
1/26/2021 12:45:00 AM 1.03 33.854 0.087 6.66 1.82 13.28
1/26/2021 1:00:00 AM 1.03 33.854 0.087 6.66 1.77 13.28
1/26/2021 1:15:00 AM 1.03 33.854 0.087 6.67 1.74 13.28
1/26/2021 1:30:00 AM 1.02 33.836 0.087 6.67 1.73 13.29
1/26/2021 1:45:00 AM 1.02 33.836 0.087 6.67 1.7 13.28
1/26/2021 2:00:00 AM 1.02 33.836 0.087 6.66 1.78 13.28
1/26/2021 2:15:00 AM 1.02 33.836 0.087 6.67 1.77 13.28
1/26/2021 2:30:00 AM 1.02 33.836 0.087 6.66 1.76 13.27
1/26/2021 2:45:00 AM 1.02 33.836 0.087 6.66 1.76 13.27
1/26/2021 3:00:00 AM 1.01 33.818 0.087 6.66 1.76 13.27
1/26/2021 3:15:00 AM 1.01 33.818 0.087 6.67 1.77 13.27
1/26/2021 3:30:00 AM 1.01 33.818 0.087 6.66 1.75 13.27
1/26/2021 3:45:00 AM 1.01 33.818 0.087 6.66 1.75 13.27
1/26/2021 4:00:00 AM 1 33.8 0.087 6.66 1.78 13.27
1/26/2021 4:15:00 AM 0.98 33.764 0.087 6.66 1.76 13.26
1/26/2021 4:30:00 AM 0.95 33.71 0.087 6.65 1.69 13.26
1/26/2021 4:45:00 AM 0.94 33.692 0.087 6.66 1.73 13.27
1/26/2021 5:00:00 AM 0.94 33.692 0.087 6.66 1.8 13.27
1/26/2021 5:15:00 AM 0.94 33.692 0.087 6.66 1.73 13.28
1/26/2021 5:30:00 AM 0.93 33.674 0.087 6.66 1.7 13.28
1/26/2021 5:45:00 AM 0.93 33.674 0.087 6.66 1.72 13.27
1/26/2021 6:00:00 AM 0.93 33.674 0.087 6.66 1.73 13.27
1/26/2021 6:15:00 AM 0.93 33.674 0.087 6.66 1.72 13.27
1/26/2021 6:30:00 AM 0.92 33.656 0.087 6.66 1.75 13.27
1/26/2021 6:45:00 AM 0.91 33.638 0.087 6.66 1.71 13.27
1/26/2021 7:00:00 AM 0.91 33.638 0.087 6.66 1.73 13.27
1/26/2021 7:15:00 AM 0.9 33.62 0.087 6.66 1.74 13.28
1/26/2021 7:30:00 AM 0.84 33.512 0.087 6.66 1.72 13.28
1/26/2021 7:45:00 AM 0.77 33.386 0.087 6.64 1.66 13.3
1/26/2021 8:00:00 AM 0.65 33.17 0.087 6.63 1.69 13.33
1/26/2021 8:15:00 AM 0.54 32.972 0.087 6.63 1.72 13.38
1/26/2021 8:30:00 AM 0.51 32.918 0.087 6.66 1.71 13.46
1/26/2021 8:45:00 AM 0.5 32.9 0.087 6.67 1.71 13.49
1/26/2021 9:00:00 AM 0.49 32.882 0.087 6.68 1.7 13.52
1/26/2021 9:15:00 AM 0.37 32.666 0.086 6.67 1.67 13.61
1/26/2021 9:30:00 AM 0.26 32.468 0.086 6.67 1.7 13.69
1/26/2021 9:45:00 AM 0.18 32.324 0.086 6.69 1.69 13.78
1/26/2021 10:00:00 AM 0.13 32.234 0.086 6.71 1.76 13.85
1/26/2021 10:15:00 AM 0.03 32.054 0.085 6.72 1.76 13.9
1/26/2021 10:30:00 AM -0.03 31.946 0.085 6.72 1.72 13.95
1/26/2021 10:45:00 AM 0 32 0.085 6.76 1.68 14.02
1/26/2021 11:00:00 AM 0.05 32.09 0.085 6.79 1.69 14.06
1/26/2021 11:15:00 AM 0.09 32.162 0.085 6.79 1.75 14.08
1/26/2021 11:30:00 AM 0.12 32.216 0.084 6.79 1.69 14.07
1/26/2021 11:45:00 AM 0.14 32.252 0.084 6.8 1.68 14.05
1/26/2021 12:00:00 PM 0.15 32.27 0.084 6.79 1.69 14.04
1/26/2021 12:15:00 PM 0.17 32.306 0.084 6.8 1.67 14.06
1/26/2021 12:30:00 PM 0.17 32.306 0.084 6.8 1.66 14.05
1/26/2021 12:45:00 PM 0.17 32.306 0.084 6.8 1.65 14.03
1/26/2021 1:00:00 PM 0.18 32.324 0.083 6.81 1.67 14.04
1/26/2021 1:15:00 PM 0.21 32.378 0.083 6.81 1.68 14.03
1/26/2021 1:30:00 PM 0.21 32.378 0.083 6.81 1.67 14.04
1/26/2021 1:45:00 PM 0.27 32.486 0.083 6.83 1.67 14.04
1/26/2021 2:00:00 PM 0.33 32.594 0.083 6.85 1.68 14.03
1/26/2021 2:15:00 PM 0.38 32.684 0.083 6.85 1.69 14.01
1/26/2021 2:30:00 PM 0.44 32.792 0.083 6.86 1.63 13.99
1/26/2021 2:45:00 PM 0.48 32.864 0.083 6.85 1.65 13.95
1/26/2021 3:00:00 PM 0.53 32.954 0.083 6.85 1.63 13.9
1/26/2021 3:15:00 PM 0.57 33.026 0.083 6.83 1.64 13.85
1/26/2021 3:30:00 PM 0.61 33.098 0.083 6.83 1.64 13.79
1/26/2021 3:45:00 PM 0.65 33.17 0.083 6.82 1.63 13.75
1/26/2021 4:00:00 PM 0.69 33.242 0.083 6.81 1.61 13.71
1/26/2021 4:15:00 PM 0.74 33.332 0.083 6.8 1.64 13.65
1/26/2021 4:30:00 PM 0.78 33.404 0.083 6.78 1.62 13.59
1/26/2021 4:45:00 PM 0.82 33.476 0.083 6.77 1.67 13.53
1/26/2021 5:00:00 PM 0.85 33.53 0.083 6.75 1.64 13.47
1/26/2021 5:15:00 PM 0.88 33.584 0.084 6.74 1.61 13.41
1/26/2021 5:30:00 PM 0.89 33.602 0.084 6.72 1.64 13.37
1/26/2021 5:45:00 PM 0.93 33.674 0.084 6.71 1.65 13.32
1/26/2021 6:00:00 PM 0.96 33.728 0.084 6.71 1.64 13.29
1/26/2021 6:15:00 PM 1 33.8 0.084 6.7 1.66 13.25
1/26/2021 6:30:00 PM 1.04 33.872 0.084 6.7 1.63 13.23
1/26/2021 6:45:00 PM 1.07 33.926 0.084 6.69 1.67 13.21
1/26/2021 7:00:00 PM 1.11 33.998 0.084 6.69 1.67 13.18
1/26/2021 7:15:00 PM 1.15 34.07 0.085 6.68 1.68 13.16
1/26/2021 7:30:00 PM 1.18 34.124 0.085 6.68 1.78 13.15
1/26/2021 7:45:00 PM 1.21 34.178 0.085 6.68 1.78 13.13
1/26/2021 8:00:00 PM 1.25 34.25 0.085 6.68 1.75 13.12
1/26/2021 8:15:00 PM 1.27 34.286 0.085 6.68 1.74 13.11
1/26/2021 8:30:00 PM 1.3 34.34 0.085 6.68 1.7 13.1
1/26/2021 8:45:00 PM 1.32 34.376 0.085 6.68 1.7 13.09
1/26/2021 9:00:00 PM 1.35 34.43 0.085 6.67 1.7 13.09
1/26/2021 9:15:00 PM 1.37 34.466 0.086 6.68 1.69 13.07
1/26/2021 9:30:00 PM 1.4 34.52 0.086 6.68 1.7 13.06
1/26/2021 9:45:00 PM 1.42 34.556 0.086 6.68 1.72 13.05
1/26/2021 10:00:00 PM 1.45 34.61 0.086 6.68 1.68 13.05
1/26/2021 10:15:00 PM 1.47 34.646 0.086 6.68 1.68 13.03
1/26/2021 10:30:00 PM 1.49 34.682 0.086 6.68 1.67 13.03
1/26/2021 10:45:00 PM 1.51 34.718 0.086 6.68 1.67 13.02
1/26/2021 11:00:00 PM 1.53 34.754 0.086 6.68 1.66 13.01
1/26/2021 11:15:00 PM 1.55 34.79 0.086 6.67 1.67 13.01
1/26/2021 11:30:00 PM 1.56 34.808 0.086 6.68 1.65 13
1/26/2021 11:45:00 PM 1.57 34.826 0.086 6.68 1.69 13
1/27/2021 12:00:00 AM 1.53 34.754 0.086 6.67 1.7 12.99
1/27/2021 12:15:00 AM 1.52 34.736 0.086 6.67 1.69 13
1/27/2021 12:30:00 AM 1.52 34.736 0.086 6.67 1.76 13.01
1/27/2021 12:45:00 AM 1.52 34.736 0.086 6.67 1.77 13.02
1/27/2021 1:00:00 AM 1.51 34.718 0.086 6.67 1.77 13.02
1/27/2021 1:15:00 AM 1.5 34.7 0.086 6.67 1.72 13.04
1/27/2021 1:30:00 AM 1.5 34.7 0.087 6.67 1.7 13.04
1/27/2021 1:45:00 AM 1.49 34.682 0.087 6.67 1.69 13.05
1/27/2021 2:00:00 AM 1.49 34.682 0.087 6.67 1.71 13.05
1/27/2021 2:15:00 AM 1.49 34.682 0.087 6.67 1.69 13.06
1/27/2021 2:30:00 AM 1.48 34.664 0.087 6.67 1.7 13.07
1/27/2021 2:45:00 AM 1.47 34.646 0.087 6.67 1.74 13.07
1/27/2021 3:00:00 AM 1.46 34.628 0.087 6.67 1.86 13.09
1/27/2021 3:15:00 AM 1.45 34.61 0.087 6.67 1.77 13.09
1/27/2021 3:30:00 AM 1.44 34.592 0.087 6.66 1.8 13.1
1/27/2021 3:45:00 AM 1.43 34.574 0.087 6.67 1.72 13.11
1/27/2021 4:00:00 AM 1.42 34.556 0.087 6.67 1.72 13.11
1/27/2021 4:15:00 AM 1.4 34.52 0.087 6.66 1.68 13.12
1/27/2021 4:30:00 AM 1.37 34.466 0.087 6.66 1.74 13.13
1/27/2021 4:45:00 AM 1.35 34.43 0.087 6.66 1.72 13.14
1/27/2021 5:00:00 AM 1.32 34.376 0.087 6.66 1.71 13.16
1/27/2021 5:15:00 AM 1.31 34.358 0.087 6.66 1.7 13.17
1/27/2021 5:30:00 AM 1.28 34.304 0.087 6.66 1.76 13.18
1/27/2021 5:45:00 AM 1.26 34.268 0.087 6.66 2.04 13.19
1/27/2021 6:00:00 AM 1.24 34.232 0.087 6.66 1.74 13.2
1/27/2021 6:15:00 AM 1.22 34.196 0.087 6.65 1.67 13.21
1/27/2021 6:30:00 AM 1.19 34.142 0.087 6.66 1.65 13.23
1/27/2021 6:45:00 AM 1.17 34.106 0.087 6.66 1.66 13.25
1/27/2021 7:00:00 AM 1.15 34.07 0.087 6.66 1.65 13.26
1/27/2021 7:15:00 AM 1.12 34.016 0.087 6.65 1.67 13.27
1/27/2021 7:30:00 AM 1.09 33.962 0.087 6.66 1.64 13.3
1/27/2021 7:45:00 AM 1.06 33.908 0.087 6.66 1.64 13.34
1/27/2021 8:00:00 AM 1.04 33.872 0.087 6.67 1.69 13.4
1/27/2021 8:15:00 AM 1.03 33.854 0.087 6.69 1.6 13.46
1/27/2021 8:30:00 AM 1.02 33.836 0.087 6.72 1.64 13.58
1/27/2021 8:45:00 AM 1.01 33.818 0.086 6.75 1.63 13.7
1/27/2021 9:00:00 AM 1.01 33.818 0.086 6.78 1.61 13.77
1/27/2021 9:15:00 AM 1.03 33.854 0.086 6.81 1.61 13.82
1/27/2021 9:30:00 AM 1.04 33.872 0.086 6.83 1.65 13.87
1/27/2021 9:45:00 AM 1.06 33.908 0.086 6.85 1.65 13.92
1/27/2021 10:00:00 AM 1.09 33.962 0.086 6.88 1.61 13.96
1/27/2021 10:15:00 AM 1.1 33.98 0.086 6.9 1.63 13.98
1/27/2021 10:30:00 AM 1.12 34.016 0.085 6.91 1.64 13.99
1/27/2021 10:45:00 AM 1.14 34.052 0.085 6.92 1.64 13.99
1/27/2021 11:00:00 AM 1.17 34.106 0.085 6.93 1.63 13.99
1/27/2021 11:15:00 AM 1.2 34.16 0.085 6.94 1.6 14
1/27/2021 11:30:00 AM 1.23 34.214 0.085 6.95 1.63 14.01
1/27/2021 11:45:00 AM 1.25 34.25 0.085 6.96 1.65 14
1/27/2021 12:00:00 PM 1.26 34.268 0.085 6.96 1.62 13.98
1/27/2021 12:15:00 PM 1.27 34.286 0.085 6.97 1.62 13.99
1/27/2021 12:30:00 PM 1.3 34.34 0.084 6.97 1.6 13.99
1/27/2021 12:45:00 PM 1.33 34.394 0.084 6.99 1.63 13.98
1/27/2021 1:00:00 PM 1.36 34.448 0.084 6.99 1.62 13.98
1/27/2021 1:15:00 PM 1.4 34.52 0.084 7 1.64 13.97
1/27/2021 1:30:00 PM 1.42 34.556 0.084 7 1.62 13.95
1/27/2021 1:45:00 PM 1.42 34.556 0.084 7 1.62 13.93
1/27/2021 2:00:00 PM 1.4 34.52 0.084 6.98 1.65 13.89
1/27/2021 2:15:00 PM 1.39 34.502 0.084 6.97 1.61 13.87
1/27/2021 2:30:00 PM 1.39 34.502 0.084 6.95 1.64 13.86
1/27/2021 2:45:00 PM 1.37 34.466 0.084 6.95 1.6 13.85
1/27/2021 3:00:00 PM 1.36 34.448 0.084 6.94 1.6 13.86
1/27/2021 3:15:00 PM 1.35 34.43 0.084 6.95 1.6 13.86
1/27/2021 3:30:00 PM 1.35 34.43 0.084 6.95 1.6 13.87
1/27/2021 3:45:00 PM 1.34 34.412 0.084 6.95 1.62 13.87
1/27/2021 4:00:00 PM 1.33 34.394 0.084 6.95 1.62 13.85
1/27/2021 4:15:00 PM 1.32 34.376 0.084 6.93 1.6 13.82
1/27/2021 4:30:00 PM 1.3 34.34 0.084 6.92 1.65 13.81
1/27/2021 4:45:00 PM 1.28 34.304 0.084 6.9 1.61 13.75
1/27/2021 5:00:00 PM 1.24 34.232 0.084 6.86 1.62 13.67
1/27/2021 5:15:00 PM 1.21 34.178 0.084 6.83 1.62 13.6
1/27/2021 5:30:00 PM 1.18 34.124 0.084 6.79 1.64 13.54
1/27/2021 5:45:00 PM 1.15 34.07 0.085 6.77 1.63 13.48
1/27/2021 6:00:00 PM 1.12 34.016 0.085 6.75 1.65 13.45
1/27/2021 6:15:00 PM 1.09 33.962 0.085 6.72 1.68 13.42
1/27/2021 6:30:00 PM 1.05 33.89 0.085 6.71 1.7 13.4
1/27/2021 6:45:00 PM 1.01 33.818 0.085 6.7 1.69 13.4
1/27/2021 7:00:00 PM 0.95 33.71 0.085 6.69 1.69 13.4
1/27/2021 7:15:00 PM 0.9 33.62 0.086 6.68 1.7 13.41
1/27/2021 7:30:00 PM 0.84 33.512 0.086 6.67 1.77 13.43
1/27/2021 7:45:00 PM 0.77 33.386 0.086 6.66 1.72 13.44
1/27/2021 8:00:00 PM 0.72 33.296 0.086 6.66 1.75 13.47
1/27/2021 8:15:00 PM 0.68 33.224 0.086 6.66 1.71 13.48
1/27/2021 8:30:00 PM 0.63 33.134 0.086 6.66 1.74 13.5
1/27/2021 8:45:00 PM 0.59 33.062 0.086 6.65 1.78 13.51
1/27/2021 9:00:00 PM 0.55 32.99 0.086 6.65 1.73 13.54
1/27/2021 9:15:00 PM 0.5 32.9 0.087 6.65 1.72 13.55
1/27/2021 9:30:00 PM 0.45 32.81 0.087 6.65 1.76 13.57
1/27/2021 9:45:00 PM 0.41 32.738 0.087 6.65 1.73 13.58
1/27/2021 10:00:00 PM 0.36 32.648 0.087 6.65 1.7 13.61
1/27/2021 10:15:00 PM 0.32 32.576 0.087 6.65 1.92 13.63
1/27/2021 10:30:00 PM 0.26 32.468 0.087 6.64 1.84 13.65
1/27/2021 10:45:00 PM 0.21 32.378 0.087 6.63 1.77 13.67
1/27/2021 11:00:00 PM 0.16 32.288 0.087 6.64 1.71 13.69
1/27/2021 11:15:00 PM 0.11 32.198 0.087 6.64 1.69 13.71
1/27/2021 11:30:00 PM 0.05 32.09 0.087 6.64 1.71 13.74
1/27/2021 11:45:00 PM 0.02 32.036 0.087 6.64 1.74 13.76
1/28/2021 12:00:00 AM 0 32 0.087 6.64 1.76 13.77
1/28/2021 12:15:00 AM -0.02 31.964 0.088 6.64 1.72 13.78
1/28/2021 12:30:00 AM -0.05 31.91 0.088 6.64 1.69 13.8
1/28/2021 12:45:00 AM -0.06 31.892 0.088 6.65 1.69 13.81
1/28/2021 1:00:00 AM -0.09 31.838 0.088 6.64 1.76 13.82
1/28/2021 1:15:00 AM -0.11 31.802 0.088 6.65 1.74 13.83
1/28/2021 1:30:00 AM -0.14 31.748 0.088 6.65 1.79 13.84
1/28/2021 1:45:00 AM -0.14 31.748 0.088 6.66 6.94 13.86
1/28/2021 2:00:00 AM -0.14 31.748 0.08 6.61 15.61 13.87
1/28/2021 2:15:00 AM -0.14 31.748 0.066 6.66 12.05 13.88
1/28/2021 2:30:00 AM -0.13 31.766 0.055 6.63 11.87 13.89
1/28/2021 2:45:00 AM -0.13 31.766 0.054 6.64 9.63 13.89
1/28/2021 3:00:00 AM -0.13 31.766 0.053 6.64 8.93 13.89
1/28/2021 3:15:00 AM -0.13 31.766 0.054 6.64 8.92 13.89
1/28/2021 3:30:00 AM -0.13 31.766 0.055 6.64 4.93 13.89
1/28/2021 3:45:00 AM -0.13 31.766 0.055 6.64 4.34 13.9
1/28/2021 4:00:00 AM -0.13 31.766 0.056 6.64 4.38 13.89
1/28/2021 4:15:00 AM -0.13 31.766 0.056 6.64 4.7 13.9
1/28/2021 4:30:00 AM -0.13 31.766 0.056 6.64 5.25 13.9
1/28/2021 4:45:00 AM -0.13 31.766 0.057 6.64 4.3 13.89
1/28/2021 5:00:00 AM -0.13 31.766 0.057 6.65 4.99 13.9
1/28/2021 5:15:00 AM -0.13 31.766 0.057 6.65 3.98 13.91
1/28/2021 5:30:00 AM -0.13 31.766 0.058 6.66 3.8 13.9
1/28/2021 5:45:00 AM -0.13 31.766 0.058 6.66 3.62 13.91
1/28/2021 6:00:00 AM -0.13 31.766 0.058 6.67 3.4 13.91
1/28/2021 6:15:00 AM -0.13 31.766 0.059 6.67 3.35 13.91
1/28/2021 6:30:00 AM -0.13 31.766 0.059 6.68 3.27 13.91
1/28/2021 6:45:00 AM -0.13 31.766 0.059 6.67 3.32 13.91
1/28/2021 7:00:00 AM -0.13 31.766 0.059 6.67 3.73 13.91
1/28/2021 7:15:00 AM -0.13 31.766 0.06 6.66 3.86 13.92
1/28/2021 7:30:00 AM -0.13 31.766 0.06 6.66 3.82 13.93
1/28/2021 7:45:00 AM -0.13 31.766 0.06 6.67 3.7 13.97
1/28/2021 8:00:00 AM -0.13 31.766 0.06 6.68 3.69 14.02
1/28/2021 8:15:00 AM -0.13 31.766 0.06 6.7 4.16 14.11
1/28/2021 8:30:00 AM -0.13 31.766 0.061 6.72 4.14 14.19
1/28/2021 8:45:00 AM -0.13 31.766 0.061 6.75 4.19 14.28
1/28/2021 9:00:00 AM -0.13 31.766 0.061 6.76 4.26 14.34
1/28/2021 9:15:00 AM -0.13 31.766 0.061 6.78 4.21 14.4
1/28/2021 9:30:00 AM -0.13 31.766 0.061 6.81 4.23 14.46
1/28/2021 9:45:00 AM -0.13 31.766 0.061 6.83 4.22 14.5
1/28/2021 10:00:00 AM -0.13 31.766 0.061 6.84 4.38 14.55
1/28/2021 10:15:00 AM -0.13 31.766 0.061 6.86 4.44 14.59
1/28/2021 10:30:00 AM -0.13 31.766 0.061 6.88 4.47 14.58
1/28/2021 10:45:00 AM -0.13 31.766 0.061 6.87 4.57 14.59
1/28/2021 11:00:00 AM -0.13 31.766 0.061 6.86 4.6 14.59
1/28/2021 11:15:00 AM -0.13 31.766 0.061 6.87 4.35 14.6
1/28/2021 11:30:00 AM -0.13 31.766 0.061 6.88 4.19 14.61
1/28/2021 11:45:00 AM -0.13 31.766 0.062 6.89 4.46 14.61
1/28/2021 12:00:00 PM -0.13 31.766 0.062 6.89 5.24 14.61
1/28/2021 12:15:00 PM -0.13 31.766 0.064 6.91 5.23 14.61
1/28/2021 12:30:00 PM -0.13 31.766 0.066 6.91 4.63 14.61
1/28/2021 12:45:00 PM -0.13 31.766 0.07 6.93 2.88 14.6
1/28/2021 1:00:00 PM -0.13 31.766 0.073 6.94 2.33 14.58
1/28/2021 1:15:00 PM -0.13 31.766 0.075 6.93 2.48 14.56
1/28/2021 1:30:00 PM -0.13 31.766 0.073 6.92 2.47 14.53
1/28/2021 1:45:00 PM -0.13 31.766 0.069 6.9 2.47 14.51
1/28/2021 2:00:00 PM -0.13 31.766 0.064 6.89 2.51 14.5
1/28/2021 2:15:00 PM -0.14 31.748 0.058 6.88 2.55 14.5
1/28/2021 2:30:00 PM -0.13 31.766 0.052 6.87 2.54 14.48
1/28/2021 2:45:00 PM -0.13 31.766 0.048 6.85 2.56 14.45
1/28/2021 3:00:00 PM -0.13 31.766 0.045 6.85 2.59 14.43
1/28/2021 3:15:00 PM -0.13 31.766 0.043 6.85 2.57 14.41
1/28/2021 3:30:00 PM -0.13 31.766 0.043 6.86 2.53 14.4
1/28/2021 3:45:00 PM -0.13 31.766 0.043 6.86 2.49 14.38
1/28/2021 4:00:00 PM -0.13 31.766 0.043 6.86 2.57 14.37
1/28/2021 4:15:00 PM -0.13 31.766 0.043 6.86 2.62 14.36
1/28/2021 4:30:00 PM -0.13 31.766 0.043 6.86 2.99 14.35
1/28/2021 4:45:00 PM -0.13 31.766 0.043 6.85 3.26 14.33
1/28/2021 5:00:00 PM -0.13 31.766 0.043 6.84 3.68 14.28
1/28/2021 5:15:00 PM -0.13 31.766 0.043 6.83 4.16 14.22
1/28/2021 5:30:00 PM -0.13 31.766 0.043 6.81 4.54 14.15
1/28/2021 5:45:00 PM -0.13 31.766 0.044 6.78 4.9 14.11
1/28/2021 6:00:00 PM -0.13 31.766 0.044 6.76 5.23 14.04
1/28/2021 6:15:00 PM -0.13 31.766 0.044 6.74 5.31 14.02
1/28/2021 6:30:00 PM -0.13 31.766 0.044 6.73 5.15 13.98
1/28/2021 6:45:00 PM -0.13 31.766 0.044 6.72 5.13 13.95
1/28/2021 7:00:00 PM -0.13 31.766 0.044 6.71 5.19 13.94
1/28/2021 7:15:00 PM -0.13 31.766 0.044 6.7 5.44 13.92
1/28/2021 7:30:00 PM -0.13 31.766 0.044 6.7 5.68 13.91
1/28/2021 7:45:00 PM -0.13 31.766 0.045 6.69 5.17 13.9
1/28/2021 8:00:00 PM -0.13 31.766 0.045 6.69 4.83 13.89
1/28/2021 8:15:00 PM -0.13 31.766 0.045 6.69 4.56 13.89
1/28/2021 8:30:00 PM -0.13 31.766 0.045 6.69 4.26 13.88
1/28/2021 8:45:00 PM -0.13 31.766 0.045 6.69 3.95 13.87
1/28/2021 9:00:00 PM -0.13 31.766 0.045 6.69 3.79 13.87
1/28/2021 9:15:00 PM -0.13 31.766 0.045 6.69 3.69 13.86
1/28/2021 9:30:00 PM -0.13 31.766 0.045 6.69 3.68 13.85
1/28/2021 9:45:00 PM -0.13 31.766 0.046 6.68 3.64 13.84
1/28/2021 10:00:00 PM -0.13 31.766 0.046 6.68 3.6 13.83
1/28/2021 10:15:00 PM -0.13 31.766 0.046 6.68 3.56 13.82
1/28/2021 10:30:00 PM -0.13 31.766 0.046 6.68 3.58 13.8
1/28/2021 10:45:00 PM -0.13 31.766 0.046 6.68 3.61 13.79
1/28/2021 11:00:00 PM -0.13 31.766 0.046 6.68 3.59 13.78
1/28/2021 11:15:00 PM -0.13 31.766 0.046 6.68 3.61 13.77
1/28/2021 11:30:00 PM -0.13 31.766 0.046 6.68 3.63 13.75
1/28/2021 11:45:00 PM -0.13 31.766 0.046 6.68 3.62 13.74
1/29/2021 12:00:00 AM -0.13 31.766 0.046 6.68 3.7 13.69
1/29/2021 12:15:00 AM -0.13 31.766 0.046 6.68 3.66 13.67
1/29/2021 12:30:00 AM -0.13 31.766 0.046 6.68 3.71 13.66
1/29/2021 12:45:00 AM -0.13 31.766 0.046 6.68 3.65 13.64
1/29/2021 1:00:00 AM -0.13 31.766 0.046 6.68 3.73 13.62
1/29/2021 1:15:00 AM -0.13 31.766 0.046 6.68 3.77 13.6
1/29/2021 1:30:00 AM -0.13 31.766 0.046 6.67 3.82 13.59
1/29/2021 1:45:00 AM -0.13 31.766 0.046 6.67 3.94 13.57
1/29/2021 2:00:00 AM -0.13 31.766 0.046 6.67 3.98 13.56
1/29/2021 2:15:00 AM -0.13 31.766 0.046 6.67 4 13.53
1/29/2021 2:30:00 AM -0.13 31.766 0.047 6.67 4.07 13.51
1/29/2021 2:45:00 AM -0.13 31.766 0.047 6.67 4.09 13.49
1/29/2021 3:00:00 AM -0.13 31.766 0.047 6.67 4.08 13.47
1/29/2021 3:15:00 AM -0.13 31.766 0.047 6.67 4.03 13.45
1/29/2021 3:30:00 AM -0.13 31.766 0.047 6.67 4.07 13.44
1/29/2021 3:45:00 AM -0.13 31.766 0.047 6.67 4 13.4
1/29/2021 4:00:00 AM -0.13 31.766 0.047 6.67 3.95 13.38
1/29/2021 4:15:00 AM -0.13 31.766 0.047 6.67 4.06 13.35
1/29/2021 4:30:00 AM -0.13 31.766 0.047 6.66 4.26 13.32
1/29/2021 4:45:00 AM -0.13 31.766 0.047 6.66 4.28 13.3
1/29/2021 5:00:00 AM -0.13 31.766 0.047 6.66 4.52 13.28
1/29/2021 5:15:00 AM -0.13 31.766 0.047 6.66 4.72 13.25
1/29/2021 5:30:00 AM -0.13 31.766 0.047 6.66 4.72 13.23
1/29/2021 5:45:00 AM -0.13 31.766 0.047 6.66 4.59 13.22
1/29/2021 6:00:00 AM -0.13 31.766 0.047 6.66 4.6 13.2
1/29/2021 6:15:00 AM -0.13 31.766 0.047 6.66 4.66 13.17
1/29/2021 6:30:00 AM -0.13 31.766 0.048 6.66 4.68 13.16
1/29/2021 6:45:00 AM -0.13 31.766 0.048 6.66 4.63 13.14
1/29/2021 7:00:00 AM -0.13 31.766 0.048 6.66 4.8 13.11
1/29/2021 7:15:00 AM -0.13 31.766 0.048 6.66 4.98 13.07
1/29/2021 7:30:00 AM -0.13 31.766 0.048 6.66 5.25 13.03
1/29/2021 7:45:00 AM -0.13 31.766 0.048 6.66 5.76 12.98
1/29/2021 8:00:00 AM -0.13 31.766 0.048 6.67 6.05 12.94
1/29/2021 8:15:00 AM -0.13 31.766 0.048 6.68 5.96 12.9
1/29/2021 8:30:00 AM -0.13 31.766 0.048 6.7 6.13 12.85
1/29/2021 8:45:00 AM -0.13 31.766 0.048 6.71 6.03 12.82
1/29/2021 9:00:00 AM -0.13 31.766 0.048 6.72 6.12 12.79
1/29/2021 9:15:00 AM -0.13 31.766 0.048 6.75 5.99 12.76
1/29/2021 9:30:00 AM -0.13 31.766 0.048 6.78 5.92 12.71
1/29/2021 9:45:00 AM -0.13 31.766 0.048 6.8 5.95 12.86
1/29/2021 10:00:00 AM -0.13 31.766 0.048 6.82 5.05 13.08
1/29/2021 10:15:00 AM -0.13 31.766 0.048 6.83 5.18 14.32
1/29/2021 10:30:00 AM -0.13 31.766 0.048 6.84 5.26 14.54
1/29/2021 10:45:00 AM -0.13 31.766 0.048 6.87 5.38 14.63
1/29/2021 11:00:00 AM -0.13 31.766 0.048 6.89 5.47 14.68
1/29/2021 11:15:00 AM -0.13 31.766 0.048 6.9 5.52 14.69
1/29/2021 11:30:00 AM -0.13 31.766 0.048 6.92 5.64 14.72
1/29/2021 11:45:00 AM -0.13 31.766 0.048 6.93 5.85 14.73
1/29/2021 12:00:00 PM -0.13 31.766 0.048 6.94 6.11 14.73
1/29/2021 12:15:00 PM -0.13 31.766 0.048 6.94 6.51 14.73
1/29/2021 12:30:00 PM -0.13 31.766 0.047 6.95 6.7 14.74
1/29/2021 12:45:00 PM -0.13 31.766 0.047 6.95 12.37 14.75
1/29/2021 1:00:00 PM -0.13 31.766 0.047 6.96 12.71 14.75
1/29/2021 1:15:00 PM -0.13 31.766 0.047 6.96 12.53 14.74
1/29/2021 1:30:00 PM -0.13 31.766 0.047 6.98 12.54 14.76
1/29/2021 1:45:00 PM -0.13 31.766 0.047 6.99 12.34 14.75
1/29/2021 2:00:00 PM -0.13 31.766 0.047 7 12.19 14.74
1/29/2021 2:15:00 PM -0.13 31.766 0.047 7 12.43 14.74
1/29/2021 2:30:00 PM -0.13 31.766 0.047 7 12.49 14.76
1/29/2021 2:45:00 PM -0.13 31.766 0.047 7.01 12.15 14.76
1/29/2021 3:00:00 PM -0.13 31.766 0.047 7.01 15.1 14.76
1/29/2021 3:15:00 PM -0.13 31.766 0.047 7.01 15.27 14.75
1/29/2021 3:30:00 PM -0.13 31.766 0.047 7.01 15.31 14.74
1/29/2021 3:45:00 PM -0.13 31.766 0.047 7 15.35 14.72
1/29/2021 4:00:00 PM -0.13 31.766 0.047 7 15.48 14.71
1/29/2021 4:15:00 PM -0.13 31.766 0.047 6.99 15.88 14.68
1/29/2021 4:30:00 PM -0.13 31.766 0.047 6.97 15.64 14.62
1/29/2021 4:45:00 PM -0.13 31.766 0.047 6.94 15.32 14.55
1/29/2021 5:00:00 PM -0.13 31.766 0.047 6.91 14.99 14.46
1/29/2021 5:15:00 PM -0.13 31.766 0.047 6.88 15.36 14.38
1/29/2021 5:30:00 PM -0.13 31.766 0.047 6.85 15.11 14.3
1/29/2021 5:45:00 PM -0.13 31.766 0.047 6.83 15.08 14.22
1/29/2021 6:00:00 PM -0.13 31.766 0.047 6.8 15.19 14.16
1/29/2021 6:15:00 PM -0.13 31.766 0.047 6.77 15.1 14.09
1/29/2021 6:30:00 PM -0.13 31.766 0.048 6.76 15.09 14.05
1/29/2021 6:45:00 PM -0.13 31.766 0.048 6.74 15.16 14.01
1/29/2021 7:00:00 PM -0.13 31.766 0.048 6.73 15.82 13.97
1/29/2021 7:15:00 PM -0.13 31.766 0.048 6.72 15.9 13.95
1/29/2021 7:30:00 PM -0.13 31.766 0.048 6.71 16.13 13.92
1/29/2021 7:45:00 PM -0.13 31.766 0.048 6.7 16.87 13.91
1/29/2021 8:00:00 PM -0.13 31.766 0.048 6.69 16.79 13.89
1/29/2021 8:15:00 PM -0.13 31.766 0.048 6.69 14.25 13.88
1/29/2021 8:30:00 PM -0.13 31.766 0.048 6.68 14.2 13.86
1/29/2021 8:45:00 PM -0.13 31.766 0.048 6.68 14.33 13.85
1/29/2021 9:00:00 PM -0.13 31.766 0.049 6.67 14.29 13.84
1/29/2021 9:15:00 PM -0.13 31.766 0.049 6.67 14.16 13.83
1/29/2021 9:30:00 PM -0.13 31.766 0.049 6.67 14.13 13.82
1/29/2021 9:45:00 PM -0.13 31.766 0.049 6.66 14.61 13.82
1/29/2021 10:00:00 PM -0.13 31.766 0.049 6.66 14.22 13.81
1/29/2021 10:15:00 PM -0.13 31.766 0.049 6.66 14.18 13.81
1/29/2021 10:30:00 PM -0.13 31.766 0.049 6.66 14.65 13.81
1/29/2021 10:45:00 PM -0.13 31.766 0.049 6.65 14.66 13.8
1/29/2021 11:00:00 PM -0.13 31.766 0.049 6.65 14.74 13.8
1/29/2021 11:15:00 PM -0.13 31.766 0.049 6.65 14.61 13.79
1/29/2021 11:30:00 PM -0.13 31.766 0.049 6.65 14.7 13.79
1/29/2021 11:45:00 PM -0.13 31.766 0.049 6.65 14.64 13.79
1/30/2021 12:00:00 AM -0.13 31.766 0.049 6.65 14.77 13.79
1/30/2021 12:15:00 AM -0.13 31.766 0.049 6.65 14.77 13.78
1/30/2021 12:30:00 AM -0.13 31.766 0.049 6.65 14.83 13.79
1/30/2021 12:45:00 AM -0.13 31.766 0.049 6.64 14.93 13.78
1/30/2021 1:00:00 AM -0.13 31.766 0.049 6.64 14.95 13.78
1/30/2021 1:15:00 AM -0.13 31.766 0.049 6.64 15.04 13.79
1/30/2021 1:30:00 AM -0.13 31.766 0.049 6.64 13.84 13.79
1/30/2021 1:45:00 AM -0.13 31.766 0.05 6.64 13.67 13.78
1/30/2021 2:00:00 AM -0.13 31.766 0.05 6.64 13.43 13.78
1/30/2021 2:15:00 AM -0.13 31.766 0.05 6.64 12.5 13.78
1/30/2021 2:30:00 AM -0.13 31.766 0.05 6.64 13.7 13.78
1/30/2021 2:45:00 AM -0.13 31.766 0.05 6.64 14.05 13.78
1/30/2021 3:00:00 AM -0.13 31.766 0.05 6.64 14.3 13.78
1/30/2021 3:15:00 AM -0.13 31.766 0.05 6.63 14.29 13.77
1/30/2021 3:30:00 AM -0.13 31.766 0.05 6.63 14.73 13.78
1/30/2021 3:45:00 AM -0.13 31.766 0.05 6.63 14.05 13.77
1/30/2021 4:00:00 AM -0.13 31.766 0.05 6.63 14.16 13.77
1/30/2021 4:15:00 AM -0.13 31.766 0.05 6.63 14.06 13.77
1/30/2021 4:30:00 AM -0.13 31.766 0.05 6.63 13.9 13.77
1/30/2021 4:45:00 AM -0.13 31.766 0.05 6.63 13.61 13.77
1/30/2021 5:00:00 AM -0.13 31.766 0.051 6.63 13.93 13.77
1/30/2021 5:15:00 AM -0.13 31.766 0.051 6.63 14.07 13.77
1/30/2021 5:30:00 AM -0.13 31.766 0.051 6.63 13.99 13.77
1/30/2021 5:45:00 AM -0.13 31.766 0.051 6.63 13.7 13.78
1/30/2021 6:00:00 AM -0.13 31.766 0.051 6.63 15.92 13.77
1/30/2021 6:15:00 AM -0.13 31.766 0.051 6.63 15.01 13.78
1/30/2021 6:30:00 AM -0.13 31.766 0.051 6.63 14.53 13.78
1/30/2021 6:45:00 AM -0.13 31.766 0.051 6.62 14.47 13.78
1/30/2021 7:00:00 AM -0.13 31.766 0.051 6.62 14.88 13.78
1/30/2021 7:15:00 AM -0.13 31.766 0.051 6.62 14.81 13.78
1/30/2021 7:30:00 AM -0.13 31.766 0.051 6.62 17.32 13.78
1/30/2021 7:45:00 AM -0.13 31.766 0.051 6.62 18.04 13.8
1/30/2021 8:00:00 AM -0.13 31.766 0.052 6.63 17.91 13.83
1/30/2021 8:15:00 AM -0.13 31.766 0.051 6.64 18.08 13.88
1/30/2021 8:30:00 AM -0.13 31.766 0.052 6.65 17.98 13.95
1/30/2021 8:45:00 AM -0.13 31.766 0.052 6.66 17.97 14.02
1/30/2021 9:00:00 AM -0.13 31.766 0.052 6.68 17.88 14.09
1/30/2021 9:15:00 AM -0.13 31.766 0.052 6.7 14.4 14.17
1/30/2021 9:30:00 AM -0.13 31.766 0.052 6.72 9.73 14.24
1/30/2021 9:45:00 AM -0.13 31.766 0.052 6.75 9.55 14.3
1/30/2021 10:00:00 AM -0.13 31.766 0.052 6.77 9.21 14.36
1/30/2021 10:15:00 AM -0.13 31.766 0.052 6.8 9.07 14.45
1/30/2021 10:30:00 AM -0.13 31.766 0.052 6.83 9.64 14.53
1/30/2021 10:45:00 AM -0.13 31.766 0.052 6.85 11.76 14.62
1/30/2021 11:00:00 AM -0.13 31.766 0.052 6.87 11.46 14.68
1/30/2021 11:15:00 AM -0.13 31.766 0.052 6.89 11.83 14.71
1/30/2021 11:30:00 AM -0.13 31.766 0.052 6.9 10.83 14.73
1/30/2021 11:45:00 AM -0.13 31.766 0.053 6.92 10.18 14.76
1/30/2021 12:00:00 PM -0.13 31.766 0.053 6.93 10.08 14.78
1/30/2021 12:15:00 PM -0.13 31.766 0.053 6.94 15.93 14.78
1/30/2021 12:30:00 PM -0.13 31.766 0.052 6.96 9.58 14.79
1/30/2021 12:45:00 PM -0.13 31.766 0.052 6.96 9.29 14.79
1/30/2021 1:00:00 PM -0.13 31.766 0.052 6.96 8.71 14.8
1/30/2021 1:15:00 PM -0.13 31.766 0.052 6.97 8.75 14.78
1/30/2021 1:30:00 PM -0.13 31.766 0.052 6.97 10.49 14.76
1/30/2021 1:45:00 PM -0.13 31.766 0.052 6.97 9.76 14.74
1/30/2021 2:00:00 PM -0.13 31.766 0.052 6.97 9.95 14.72
1/30/2021 2:15:00 PM -0.13 31.766 0.052 6.96 10.07 14.71
1/30/2021 2:30:00 PM -0.13 31.766 0.052 6.96 9.34 14.68
1/30/2021 2:45:00 PM -0.13 31.766 0.052 6.96 9.03 14.66
1/30/2021 3:00:00 PM -0.13 31.766 0.051 6.95 9.03 14.64
1/30/2021 3:15:00 PM -0.13 31.766 0.051 6.95 8.76 14.62
1/30/2021 3:30:00 PM -0.13 31.766 0.051 6.94 8.91 14.61
1/30/2021 3:45:00 PM -0.13 31.766 0.051 6.94 8.69 14.6
1/30/2021 4:00:00 PM -0.13 31.766 0.051 6.93 8.73 14.58
1/30/2021 4:15:00 PM -0.13 31.766 0.051 6.93 8.98 14.55
1/30/2021 4:30:00 PM -0.13 31.766 0.051 6.92 8.83 14.52
1/30/2021 4:45:00 PM -0.13 31.766 0.051 6.91 8.68 14.49
1/30/2021 5:00:00 PM -0.13 31.766 0.051 6.89 8.74 14.44
1/30/2021 5:15:00 PM -0.13 31.766 0.051 6.87 8.67 14.38
1/30/2021 5:30:00 PM -0.13 31.766 0.051 6.85 8.57 14.31
1/30/2021 5:45:00 PM -0.13 31.766 0.051 6.82 8.43 14.22
1/30/2021 6:00:00 PM -0.13 31.766 0.051 6.79 8.8 14.15
1/30/2021 6:15:00 PM -0.13 31.766 0.051 6.77 8.67 14.09
1/30/2021 6:30:00 PM -0.13 31.766 0.052 6.75 9.1 14.04
1/30/2021 6:45:00 PM -0.13 31.766 0.052 6.74 8.81 13.99
1/30/2021 7:00:00 PM -0.13 31.766 0.052 6.72 8.92 13.94
1/30/2021 7:15:00 PM -0.13 31.766 0.052 6.71 11.68 13.89
1/30/2021 7:30:00 PM -0.13 31.766 0.052 6.7 10.8 13.85
1/30/2021 7:45:00 PM -0.13 31.766 0.052 6.69 10.87 13.86
1/30/2021 8:00:00 PM -0.13 31.766 0.052 6.69 11.05 13.85
1/30/2021 8:15:00 PM -0.13 31.766 0.052 6.68 13.2 13.84
1/30/2021 8:30:00 PM -0.13 31.766 0.052 6.68 13.41 13.81
1/30/2021 8:45:00 PM -0.13 31.766 0.052 6.68 12.82 13.78
1/30/2021 9:00:00 PM -0.13 31.766 0.052 6.67 12.74 13.75
1/30/2021 9:15:00 PM -0.13 31.766 0.052 6.67 12.44 13.72
1/30/2021 9:30:00 PM -0.13 31.766 0.052 6.67 9.58 13.7
1/30/2021 9:45:00 PM -0.13 31.766 0.053 6.67 9.51 13.69
1/30/2021 10:00:00 PM -0.13 31.766 0.053 6.66 9.79 13.68
1/30/2021 10:15:00 PM -0.13 31.766 0.053 6.66 9.98 13.68
1/30/2021 10:30:00 PM -0.13 31.766 0.053 6.66 9.71 13.68
1/30/2021 10:45:00 PM -0.13 31.766 0.053 6.66 9.7 13.68
1/30/2021 11:00:00 PM -0.13 31.766 0.053 6.66 9.94 13.67
1/30/2021 11:15:00 PM -0.13 31.766 0.053 6.66 9.95 13.64
1/30/2021 11:30:00 PM -0.13 31.766 0.054 6.66 9.97 13.62
1/30/2021 11:45:00 PM -0.13 31.766 0.054 6.66 9.9 13.65
1/31/2021 12:00:00 AM -0.13 31.766 0.054 6.65 9.92 13.67
1/31/2021 12:15:00 AM -0.13 31.766 0.054 6.65 9.98 13.69
1/31/2021 12:30:00 AM -0.13 31.766 0.054 6.65 10.35 13.69
1/31/2021 12:45:00 AM -0.13 31.766 0.054 6.65 10.29 13.67
1/31/2021 1:00:00 AM -0.13 31.766 0.054 6.65 10.1 13.67
1/31/2021 1:15:00 AM -0.13 31.766 0.054 6.65 10.19 13.67
1/31/2021 1:30:00 AM -0.13 31.766 0.055 6.65 10.38 13.65
1/31/2021 1:45:00 AM -0.13 31.766 0.055 6.65 10.22 13.64
1/31/2021 2:00:00 AM -0.13 31.766 0.055 6.65 10.24 13.64
1/31/2021 2:15:00 AM -0.13 31.766 0.054 6.65 10.35 13.63
1/31/2021 2:30:00 AM -0.13 31.766 0.054 6.65 10.23 13.63
1/31/2021 2:45:00 AM -0.13 31.766 0.054 6.65 10.32 13.62
1/31/2021 3:00:00 AM -0.13 31.766 0.054 6.65 10.23 13.61
1/31/2021 3:15:00 AM -0.13 31.766 0.054 6.64 10.39 13.61
1/31/2021 3:30:00 AM -0.13 31.766 0.054 6.64 10.39 13.63
1/31/2021 3:45:00 AM -0.13 31.766 0.054 6.64 10.27 13.61
1/31/2021 4:00:00 AM -0.13 31.766 0.055 6.64 10.31 13.6
1/31/2021 4:15:00 AM -0.13 31.766 0.055 6.64 10.16 13.59
1/31/2021 4:30:00 AM -0.13 31.766 0.055 6.64 10.07 13.58
1/31/2021 4:45:00 AM -0.13 31.766 0.055 6.64 10.09 13.57
1/31/2021 5:00:00 AM -0.13 31.766 0.055 6.64 10.05 13.56
1/31/2021 5:15:00 AM -0.13 31.766 0.055 6.64 10.17 13.5
1/31/2021 5:30:00 AM -0.13 31.766 0.055 6.64 10.26 13.47
1/31/2021 5:45:00 AM -0.13 31.766 0.055 6.64 10.19 13.45
1/31/2021 6:00:00 AM -0.13 31.766 0.055 6.64 10.27 13.43
1/31/2021 6:15:00 AM -0.13 31.766 0.055 6.64 10.22 13.41
1/31/2021 6:30:00 AM -0.13 31.766 0.055 6.64 9.76 13.4
1/31/2021 6:45:00 AM -0.13 31.766 0.055 6.63 9.8 13.39
1/31/2021 7:00:00 AM -0.13 31.766 0.055 6.63 9.75 13.38
1/31/2021 7:15:00 AM -0.13 31.766 0.055 6.63 10.35 13.37
1/31/2021 7:30:00 AM -0.13 31.766 0.055 6.63 10.45 13.37
1/31/2021 7:45:00 AM -0.13 31.766 0.055 6.63 10.48 13.37
1/31/2021 8:00:00 AM -0.13 31.766 0.055 6.64 10.57 13.37
1/31/2021 8:15:00 AM -0.13 31.766 0.055 6.64 10.5 13.4
1/31/2021 8:30:00 AM -0.13 31.766 0.055 6.66 10.47 13.44
1/31/2021 8:45:00 AM -0.13 31.766 0.055 6.67 10.49 13.49
1/31/2021 9:00:00 AM -0.13 31.766 0.055 6.69 10.56 13.55
1/31/2021 9:15:00 AM -0.13 31.766 0.055 6.7 10.65 13.6
1/31/2021 9:30:00 AM -0.13 31.766 0.055 6.72 10.63 13.65
1/31/2021 9:45:00 AM -0.13 31.766 0.055 6.74 9.52 13.71
1/31/2021 10:00:00 AM -0.13 31.766 0.055 6.77 9.55 13.77
1/31/2021 10:15:00 AM -0.13 31.766 0.055 6.79 9.68 13.82
1/31/2021 10:30:00 AM -0.13 31.766 0.055 6.81 9.92 13.84
1/31/2021 10:45:00 AM -0.13 31.766 0.054 6.83 9.84 13.85
1/31/2021 11:00:00 AM -0.13 31.766 0.054 6.85 9.52 13.86
1/31/2021 11:15:00 AM -0.13 31.766 0.054 6.87 9.55 13.85
1/31/2021 11:30:00 AM -0.13 31.766 0.054 6.88 9.74 13.83
1/31/2021 11:45:00 AM -0.13 31.766 0.054 6.89 9.88 13.81
1/31/2021 12:00:00 PM -0.13 31.766 0.054 6.91 9.82 13.79
1/31/2021 12:15:00 PM -0.13 31.766 0.054 6.93 9.6 13.73
1/31/2021 12:30:00 PM -0.13 31.766 0.054 6.95 9.78 13.66
1/31/2021 12:45:00 PM -0.13 31.766 0.054 6.97 9.76 13.57
1/31/2021 1:00:00 PM -0.13 31.766 0.053 6.99 9.6 13.47
1/31/2021 1:15:00 PM -0.13 31.766 0.053 7.01 9.84 13.35
1/31/2021 1:30:00 PM -0.13 31.766 0.053 7.03 10.63 13.26
1/31/2021 1:45:00 PM -0.13 31.766 0.053 7.04 10.77 13.16
1/31/2021 2:00:00 PM -0.13 31.766 0.053 7.05 11.11 13.06
1/31/2021 2:15:00 PM -0.13 31.766 0.053 7.06 11.19 12.96
1/31/2021 2:30:00 PM -0.13 31.766 0.053 7.07 11.25 12.88
1/31/2021 2:45:00 PM -0.13 31.766 0.053 7.07 14.57 12.75
1/31/2021 3:00:00 PM -0.13 31.766 0.053 7.06 19.01 12.72
1/31/2021 3:15:00 PM -0.13 31.766 0.053 7.06 22.1 12.8
1/31/2021 3:30:00 PM -0.13 31.766 0.052 7.05 23.37 12.86
1/31/2021 3:45:00 PM -0.13 31.766 0.052 7.04 23.44 12.91
1/31/2021 4:00:00 PM -0.13 31.766 0.052 7.03 24.69 12.9
1/31/2021 4:15:00 PM -0.13 31.766 0.052 7.01 24.52 12.94
1/31/2021 4:30:00 PM -0.13 31.766 0.052 6.99 20.09 12.97
1/31/2021 4:45:00 PM -0.13 31.766 0.052 6.96 21.09 12.93
1/31/2021 5:00:00 PM -0.13 31.766 0.052 6.93 21.51 12.9
1/31/2021 5:15:00 PM -0.13 31.766 0.052 6.89 21.97 12.88
1/31/2021 5:30:00 PM -0.13 31.766 0.052 6.85 21.99 12.85
1/31/2021 5:45:00 PM -0.13 31.766 0.052 6.82 23.03 12.82
1/31/2021 6:00:00 PM -0.13 31.766 0.052 6.79 25.12 12.78
1/31/2021 6:15:00 PM -0.13 31.766 0.052 6.77 27.72 12.76
1/31/2021 6:30:00 PM -0.13 31.766 0.052 6.75 21.37 12.75
1/31/2021 6:45:00 PM -0.13 31.766 0.053 6.73 20.43 12.72
1/31/2021 7:00:00 PM -0.13 31.766 0.053 6.72 20.51 12.71
1/31/2021 7:15:00 PM -0.13 31.766 0.053 6.7 20.64 12.72
1/31/2021 7:30:00 PM -0.13 31.766 0.053 6.69 20.63 12.73
1/31/2021 7:45:00 PM -0.13 31.766 0.053 6.69 20.76 12.73
1/31/2021 8:00:00 PM -0.13 31.766 0.053 6.68 20.56 12.77
1/31/2021 8:15:00 PM -0.13 31.766 0.053 6.68 21.12 12.77
1/31/2021 8:30:00 PM -0.13 31.766 0.053 6.67 21.34 12.8
1/31/2021 8:45:00 PM -0.13 31.766 0.053 6.67 21.53 12.83
1/31/2021 9:00:00 PM -0.13 31.766 0.053 6.66 21.98 12.85
1/31/2021 9:15:00 PM -0.13 31.766 0.053 6.66 21.91 12.85
1/31/2021 9:30:00 PM -0.13 31.766 0.053 6.66 22.08 12.88
1/31/2021 9:45:00 PM -0.13 31.766 0.053 6.66 22.91 12.86
1/31/2021 10:00:00 PM -0.13 31.766 0.053 6.65 23.38 12.83
1/31/2021 10:15:00 PM -0.13 31.766 0.054 6.65 23.86 12.84
1/31/2021 10:30:00 PM -0.13 31.766 0.054 6.65 24.41 12.83
1/31/2021 10:45:00 PM -0.13 31.766 0.054 6.65 22.98 12.82
1/31/2021 11:00:00 PM -0.13 31.766 0.054 6.65 24.29 12.81
1/31/2021 11:15:00 PM -0.13 31.766 0.054 6.65 24.64 12.82
1/31/2021 11:30:00 PM -0.13 31.766 0.054 6.65 26.1 12.82
1/31/2021 11:45:00 PM -0.13 31.766 0.054 6.65 25.76 12.82
2/1/2021 12:00:00 AM -0.13 31.766 0.054 6.65 25.75 12.83
2/1/2021 12:15:00 AM -0.13 31.766 0.054 6.65 27.39 12.84
2/1/2021 12:30:00 AM -0.13 31.766 0.054 6.64 28.16 12.84
2/1/2021 12:45:00 AM -0.13 31.766 0.054 6.64 30.44 12.82
2/1/2021 1:00:00 AM -0.13 31.766 0.054 6.64 32.16 12.81
2/1/2021 1:15:00 AM -0.13 31.766 0.054 6.64 32.32 12.83
2/1/2021 1:30:00 AM -0.13 31.766 0.054 6.64 32.99 12.82
2/1/2021 1:45:00 AM -0.13 31.766 0.054 6.64 33.41 12.84
2/1/2021 2:00:00 AM -0.13 31.766 0.054 6.64 33.69 12.86
2/1/2021 2:15:00 AM -0.13 31.766 0.054 6.64 32.06 12.87
2/1/2021 2:30:00 AM -0.13 31.766 0.054 6.64 31.55 12.88
2/1/2021 2:45:00 AM -0.13 31.766 0.054 6.64 31.4 12.87
2/1/2021 3:00:00 AM -0.13 31.766 0.054 6.64 32.05 12.88
2/1/2021 3:15:00 AM -0.13 31.766 0.054 6.64 31.98 12.89
2/1/2021 3:30:00 AM -0.13 31.766 0.054 6.64 31.9 12.91
2/1/2021 3:45:00 AM -0.13 31.766 0.054 6.64 32.11 12.93
2/1/2021 4:00:00 AM -0.13 31.766 0.054 6.64 32.84 12.92
2/1/2021 4:15:00 AM -0.13 31.766 0.054 6.64 32.34 12.93
2/1/2021 4:30:00 AM -0.13 31.766 0.054 6.63 32.75 12.95
2/1/2021 4:45:00 AM -0.13 31.766 0.054 6.64 32.48 12.94
2/1/2021 5:00:00 AM -0.13 31.766 0.054 6.64 32.58 12.92
2/1/2021 5:15:00 AM -0.13 31.766 0.054 6.64 32.79 12.92
2/1/2021 5:30:00 AM -0.13 31.766 0.054 6.63 33.13 12.93
2/1/2021 5:45:00 AM -0.13 31.766 0.054 6.64 33.15 12.95
2/1/2021 6:00:00 AM -0.13 31.766 0.054 6.63 33.67 12.96
2/1/2021 6:15:00 AM -0.13 31.766 0.054 6.63 34.78 12.96
2/1/2021 6:30:00 AM -0.13 31.766 0.054 6.64 34.61 12.96
2/1/2021 6:45:00 AM -0.13 31.766 0.054 6.63 34.75 12.96
2/1/2021 7:00:00 AM -0.13 31.766 0.054 6.63 34.58 12.97
2/1/2021 7:15:00 AM -0.13 31.766 0.054 6.64 34.72 12.99
2/1/2021 7:30:00 AM -0.13 31.766 0.054 6.64 37.03 12.99
2/1/2021 7:45:00 AM -0.13 31.766 0.054 6.64 35.67 13.01
2/1/2021 8:00:00 AM -0.13 31.766 0.055 6.64 34.84 13.03
2/1/2021 8:15:00 AM -0.13 31.766 0.055 6.65 35.42 13.06
2/1/2021 8:30:00 AM -0.13 31.766 0.055 6.66 35.2 13.09
2/1/2021 8:45:00 AM -0.13 31.766 0.055 6.66 35.65 13.13
2/1/2021 9:00:00 AM -0.13 31.766 0.055 6.67 35.83 13.17
2/1/2021 9:15:00 AM -0.13 31.766 0.055 6.69 35.96 13.21
2/1/2021 9:30:00 AM -0.13 31.766 0.055 6.71 35.95 13.26
2/1/2021 9:45:00 AM -0.13 31.766 0.054 6.72 36.25 13.3
2/1/2021 10:00:00 AM -0.13 31.766 0.054 6.74 36.42 13.33
2/1/2021 10:15:00 AM -0.13 31.766 0.054 6.75 37.31 13.38
2/1/2021 10:30:00 AM -0.13 31.766 0.054 6.77 37.29 13.43
2/1/2021 10:45:00 AM -0.13 31.766 0.054 6.79 38.11 13.49
2/1/2021 11:00:00 AM -0.13 31.766 0.054 6.81 39.07 13.51
2/1/2021 11:15:00 AM -0.13 31.766 0.054 6.82 43.36 13.51
2/1/2021 11:30:00 AM -0.13 31.766 0.054 6.84 42.07 13.51
2/1/2021 11:45:00 AM -0.13 31.766 0.054 6.85 36.31 13.55
2/1/2021 12:00:00 PM -0.13 31.766 0.054 6.86 36.62 13.69
2/1/2021 12:15:00 PM -0.13 31.766 0.054 6.88 36.44 13.8
2/1/2021 12:30:00 PM -0.13 31.766 0.054 6.89 35.75 14.01
2/1/2021 12:45:00 PM -0.13 31.766 0.054 6.9 26.59 14.08
2/1/2021 1:00:00 PM -0.13 31.766 0.054 6.91 28.6 14.14
2/1/2021 1:15:00 PM -0.13 31.766 0.055 6.91 28.39 14.07
2/1/2021 1:30:00 PM -0.13 31.766 0.056 6.91 28.77 14.2
2/1/2021 1:45:00 PM -0.13 31.766 0.059 6.89 29.17 14.25
2/1/2021 2:00:00 PM -0.12 31.784 0.062 6.88 32.31 14.25
2/1/2021 2:15:00 PM -0.12 31.784 0.067 6.87 45.1 14.22
2/1/2021 2:30:00 PM -0.13 31.766 0.07 6.92 46.76 14.21
2/1/2021 2:45:00 PM -0.13 31.766 0.07 6.92 45.38 14.21
2/1/2021 3:00:00 PM -0.13 31.766 0.071 6.91 28.1 14.19
2/1/2021 3:15:00 PM -0.13 31.766 0.072 6.9 17.58 14.17
2/1/2021 3:30:00 PM -0.13 31.766 0.072 6.9 19.49 14.13
2/1/2021 3:45:00 PM -0.13 31.766 0.072 6.89 17.99 14.09
2/1/2021 4:00:00 PM -0.13 31.766 0.072 6.87 17.58 14.05
2/1/2021 4:15:00 PM -0.13 31.766 0.072 6.87 17.9 14.03
2/1/2021 4:30:00 PM -0.13 31.766 0.072 6.85 26.28 14
2/1/2021 4:45:00 PM -0.13 31.766 0.072 6.82 24.11 13.94
2/1/2021 5:00:00 PM -0.13 31.766 0.073 6.78 20.68 13.83
2/1/2021 5:15:00 PM -0.13 31.766 0.072 6.76 21.62 13.76
2/1/2021 5:30:00 PM -0.13 31.766 0.072 6.74 17.3 13.71
2/1/2021 5:45:00 PM -0.13 31.766 0.072 6.72 26.41 13.7
2/1/2021 6:00:00 PM -0.13 31.766 0.072 6.7 21.23 13.59
2/1/2021 6:15:00 PM -0.13 31.766 0.071 6.68 14.16 13.53
2/1/2021 6:30:00 PM -0.13 31.766 0.073 6.66 8.87 13.51
2/1/2021 6:45:00 PM -0.13 31.766 0.074 6.65 7.6 13.5
2/1/2021 7:00:00 PM -0.13 31.766 0.075 6.64 3.23 13.49
2/1/2021 7:15:00 PM -0.13 31.766 0.076 6.63 2.77 13.5
2/1/2021 7:30:00 PM -0.13 31.766 0.076 6.63 3 13.51
2/1/2021 7:45:00 PM -0.13 31.766 0.076 6.62 3.33 13.5
2/1/2021 8:00:00 PM -0.13 31.766 0.078 6.62 4.73 13.51
2/1/2021 8:15:00 PM -0.13 31.766 0.079 6.6 6.81 13.51
2/1/2021 8:30:00 PM -0.13 31.766 0.08 6.59 14.03 13.51
2/1/2021 8:45:00 PM -0.13 31.766 0.079 6.6 10.65 13.5
2/1/2021 9:00:00 PM -0.13 31.766 0.077 6.59 7.38 13.5
2/1/2021 9:15:00 PM -0.13 31.766 0.078 6.6 20.04 13.5
2/1/2021 9:30:00 PM -0.13 31.766 0.08 6.6 16.61 13.51
2/1/2021 9:45:00 PM -0.13 31.766 0.081 6.6 4.67 13.51
2/1/2021 10:00:00 PM -0.13 31.766 0.082 6.6 2.71 13.51
2/1/2021 10:15:00 PM -0.13 31.766 0.082 6.64 1152.51 13.51
2/1/2021 10:30:00 PM -0.13 31.766 0.082 6.6 2.67 13.51
2/1/2021 10:45:00 PM -0.13 31.766 0.082 6.6 3.2 13.51
2/1/2021 11:00:00 PM -0.13 31.766 0.083 6.61 3.04 13.52
2/1/2021 11:15:00 PM -0.13 31.766 0.083 6.61 3.06 13.52
2/1/2021 11:30:00 PM -0.13 31.766 0.083 6.61 2.91 13.52
2/1/2021 11:45:00 PM -0.13 31.766 0.083 6.61 3.02 13.53
2/2/2021 12:00:00 AM -0.13 31.766 0.083 6.61 3.05 13.53
2/2/2021 12:15:00 AM -0.13 31.766 0.086 6.62 3.25 13.53
2/2/2021 12:30:00 AM -0.13 31.766 0.086 6.62 4.52 13.54
2/2/2021 12:45:00 AM -0.13 31.766 0.087 6.62 3.43 13.55
2/2/2021 1:00:00 AM -0.13 31.766 0.086 6.62 2.54 13.55
2/2/2021 1:15:00 AM -0.13 31.766 0.084 6.63 2.41 13.55
2/2/2021 1:30:00 AM -0.13 31.766 0.087 6.63 2.52 13.55
2/2/2021 1:45:00 AM -0.13 31.766 0.087 6.63 2.82 13.55
2/2/2021 2:00:00 AM -0.13 31.766 0.087 6.65 12.58 13.55
2/2/2021 2:15:00 AM -0.13 31.766 0.087 6.65 5.28 13.55
2/2/2021 2:30:00 AM -0.13 31.766 0.087 6.64 5.77 13.56
2/2/2021 2:45:00 AM -0.13 31.766 0.087 6.65 3.51 13.56
2/2/2021 3:00:00 AM -0.13 31.766 0.088 6.65 2.35 13.57
2/2/2021 3:15:00 AM -0.13 31.766 0.088 6.65 2.04 13.57
2/2/2021 3:30:00 AM -0.13 31.766 0.088 6.64 2.35 13.57
2/2/2021 3:45:00 AM -0.13 31.766 0.088 6.63 2.37 13.57
2/2/2021 4:00:00 AM -0.13 31.766 0.088 6.65 1.85 13.57
2/2/2021 4:15:00 AM -0.13 31.766 0.088 6.64 1.93 13.58
2/2/2021 4:30:00 AM -0.13 31.766 0.088 6.64 1.84 13.59
2/2/2021 4:45:00 AM -0.13 31.766 0.088 6.64 1.84 13.58
2/2/2021 5:00:00 AM -0.13 31.766 0.088 6.64 1.86 13.59
2/2/2021 5:15:00 AM -0.13 31.766 0.088 6.64 1.88 13.59
2/2/2021 5:30:00 AM -0.13 31.766 0.088 6.64 1.88 13.6
2/2/2021 5:45:00 AM -0.13 31.766 0.088 6.63 1.86 13.6
2/2/2021 6:00:00 AM -0.13 31.766 0.088 6.63 1.94 13.61
2/2/2021 6:15:00 AM -0.13 31.766 0.088 6.64 1.83 13.62
2/2/2021 6:30:00 AM -0.13 31.766 0.088 6.62 1.83 13.62
2/2/2021 6:45:00 AM -0.13 31.766 0.088 6.64 1.88 13.63
2/2/2021 7:00:00 AM -0.13 31.766 0.088 6.63 1.85 13.63
2/2/2021 7:15:00 AM -0.13 31.766 0.088 6.63 1.78 13.63
2/2/2021 7:30:00 AM -0.13 31.766 0.087 6.63 1.77 13.64
2/2/2021 7:45:00 AM -0.13 31.766 0.087 6.64 1.81 13.67
2/2/2021 8:00:00 AM -0.13 31.766 0.087 6.65 1.82 13.7
2/2/2021 8:15:00 AM -0.13 31.766 0.087 6.66 1.77 13.74
2/2/2021 8:30:00 AM -0.13 31.766 0.087 6.67 1.74 13.78
2/2/2021 8:45:00 AM -0.13 31.766 0.087 6.68 1.8 13.83
2/2/2021 9:00:00 AM -0.13 31.766 0.087 6.7 1.74 13.87
2/2/2021 9:15:00 AM -0.13 31.766 0.087 6.72 1.71 13.96
2/2/2021 9:30:00 AM -0.13 31.766 0.087 6.72 1.69 13.97
2/2/2021 9:45:00 AM -0.13 31.766 0.084 6.74 1.67 14.02
2/2/2021 10:00:00 AM -0.12 31.784 0.086 6.77 1.64 14.07
2/2/2021 10:15:00 AM -0.12 31.784 0.087 6.79 1.72 14.11
2/2/2021 10:30:00 AM -0.12 31.784 0.087 6.8 1.73 14.13
2/2/2021 10:45:00 AM -0.12 31.784 0.087 6.82 1.74 14.14
2/2/2021 11:00:00 AM -0.12 31.784 0.086 6.83 1.82 14.14
2/2/2021 11:15:00 AM -0.12 31.784 0.086 6.83 1.68 14.14
2/2/2021 11:30:00 AM -0.12 31.784 0.086 6.84 1.73 14.14
2/2/2021 11:45:00 AM -0.12 31.784 0.086 6.83 1.72 14.13
2/2/2021 12:00:00 PM -0.12 31.784 0.086 6.83 1.75 14.1
2/2/2021 12:15:00 PM -0.11 31.802 0.085 6.84 1.71 14.1
2/2/2021 12:30:00 PM -0.11 31.802 0.085 6.84 1.79 14.1
2/2/2021 12:45:00 PM -0.12 31.784 0.085 6.84 1.82 14.09
2/2/2021 1:00:00 PM -0.12 31.784 0.085 6.84 1.86 14.07
2/2/2021 1:15:00 PM -0.11 31.802 0.085 6.83 1.82 14.06
2/2/2021 1:30:00 PM -0.11 31.802 0.085 6.84 1.83 14.05
2/2/2021 1:45:00 PM -0.11 31.802 0.085 6.83 1.75 14.04
2/2/2021 2:00:00 PM -0.11 31.802 0.084 6.83 1.77 14.04
2/2/2021 2:15:00 PM -0.11 31.802 0.084 6.84 1.78 14.04
2/2/2021 2:30:00 PM -0.1 31.82 0.084 6.84 1.71 14.05
2/2/2021 2:45:00 PM -0.1 31.82 0.084 6.84 1.8 14.04
2/2/2021 3:00:00 PM -0.1 31.82 0.084 6.84 1.83 14.03
2/2/2021 3:15:00 PM -0.1 31.82 0.084 6.84 1.77 14.02
2/2/2021 3:30:00 PM -0.09 31.838 0.084 6.83 1.86 14.02
2/2/2021 3:45:00 PM -0.09 31.838 0.084 6.84 1.79 14.02
2/2/2021 4:00:00 PM -0.09 31.838 0.084 6.83 1.79 13.99
2/2/2021 4:15:00 PM -0.09 31.838 0.084 6.82 1.79 13.96
2/2/2021 4:30:00 PM -0.09 31.838 0.084 6.9 1.85 13.94
2/2/2021 4:45:00 PM -0.1 31.82 0.084 6.87 1.75 13.9
2/2/2021 5:00:00 PM -0.1 31.82 0.084 6.84 1.86 13.85
2/2/2021 5:15:00 PM -0.1 31.82 0.084 6.8 1.78 13.79
2/2/2021 5:30:00 PM -0.1 31.82 0.084 6.76 1.81 13.74
2/2/2021 5:45:00 PM -0.1 31.82 0.084 6.74 1.8 13.69
2/2/2021 6:00:00 PM -0.1 31.82 0.084 6.7 1.72 13.65
2/2/2021 6:15:00 PM -0.1 31.82 0.084 6.63 1.84 13.61
2/2/2021 6:30:00 PM -0.1 31.82 0.084 6.67 1.75 13.6
2/2/2021 6:45:00 PM -0.11 31.802 0.085 6.66 1.77 13.58
2/2/2021 7:00:00 PM -0.1 31.82 0.085 6.65 1.7 13.56
2/2/2021 7:15:00 PM -0.1 31.82 0.085 6.64 1.74 13.56
2/2/2021 7:30:00 PM -0.1 31.82 0.085 6.64 1.79 13.55
2/2/2021 7:45:00 PM -0.11 31.802 0.085 6.64 1.76 13.55
2/2/2021 8:00:00 PM -0.12 31.784 0.085 6.64 1.85 13.54
2/2/2021 8:15:00 PM -0.11 31.802 0.085 6.63 1.76 13.54
2/2/2021 8:30:00 PM -0.11 31.802 0.085 6.63 1.79 13.54
2/2/2021 8:45:00 PM -0.11 31.802 0.086 6.63 1.86 13.54
2/2/2021 9:00:00 PM -0.11 31.802 0.086 6.63 2.06 13.55
2/2/2021 9:15:00 PM -0.11 31.802 0.086 6.63 1.91 13.55
2/2/2021 9:30:00 PM -0.11 31.802 0.086 6.63 1.83 13.56
2/2/2021 9:45:00 PM -0.11 31.802 0.086 6.64 1.73 13.56
2/2/2021 10:00:00 PM -0.11 31.802 0.086 6.63 1.78 13.56
2/2/2021 10:15:00 PM -0.11 31.802 0.086 6.64 1.77 13.56
2/2/2021 10:30:00 PM -0.11 31.802 0.086 6.63 1.79 13.56
2/2/2021 10:45:00 PM -0.11 31.802 0.086 6.64 1.73 13.56
2/2/2021 11:00:00 PM -0.11 31.802 0.086 6.63 1.78 13.55
2/2/2021 11:15:00 PM -0.11 31.802 0.086 6.63 1.77 13.55
2/2/2021 11:30:00 PM -0.11 31.802 0.086 6.62 1.8 13.55
2/2/2021 11:45:00 PM -0.1 31.82 0.087 6.62 1.77 13.55
2/3/2021 12:00:00 AM -0.1 31.82 0.087 6.62 1.82 13.55
2/3/2021 12:15:00 AM -0.1 31.82 0.087 6.61 1.74 13.55
2/3/2021 12:30:00 AM -0.1 31.82 0.087 6.61 1.72 13.55
2/3/2021 12:45:00 AM -0.1 31.82 0.087 6.61 1.72 13.54
2/3/2021 1:00:00 AM -0.1 31.82 0.087 6.62 1.75 13.54
2/3/2021 1:15:00 AM -0.1 31.82 0.087 6.63 1.76 13.54
2/3/2021 1:30:00 AM -0.1 31.82 0.087 6.62 1.72 13.54
2/3/2021 1:45:00 AM -0.09 31.838 0.087 6.62 1.76 13.53
2/3/2021 2:00:00 AM -0.09 31.838 0.087 6.6 1.78 13.53
2/3/2021 2:15:00 AM -0.09 31.838 0.088 6.59 1.81 13.54
2/3/2021 2:30:00 AM -0.09 31.838 0.088 6.59 1.81 13.54
2/3/2021 2:45:00 AM -0.09 31.838 0.088 6.59 1.84 13.54
2/3/2021 3:00:00 AM -0.09 31.838 0.088 6.59 1.95 13.54
2/3/2021 3:15:00 AM -0.09 31.838 0.087 6.59 1.84 13.54
2/3/2021 3:30:00 AM -0.09 31.838 0.087 6.59 1.75 13.54
2/3/2021 3:45:00 AM -0.1 31.82 0.087 6.59 1.78 13.54
2/3/2021 4:00:00 AM -0.1 31.82 0.087 6.59 1.79 13.54
2/3/2021 4:15:00 AM -0.1 31.82 0.087 6.59 1.81 13.54
2/3/2021 4:30:00 AM -0.1 31.82 0.087 6.59 1.78 13.55
2/3/2021 4:45:00 AM -0.09 31.838 0.087 6.6 1.8 13.54
2/3/2021 5:00:00 AM -0.1 31.82 0.087 6.6 1.86 13.55
2/3/2021 5:15:00 AM -0.09 31.838 0.087 6.61 1.75 13.55
2/3/2021 5:30:00 AM -0.1 31.82 0.087 6.6 1.7 13.55
2/3/2021 5:45:00 AM -0.09 31.838 0.087 6.6 1.73 13.55
2/3/2021 6:00:00 AM -0.09 31.838 0.087 6.61 1.77 13.55
2/3/2021 6:15:00 AM -0.1 31.82 0.087 6.6 1.79 13.55
2/3/2021 6:30:00 AM -0.1 31.82 0.087 6.6 1.79 13.55
2/3/2021 6:45:00 AM -0.1 31.82 0.087 6.61 1.73 13.56
2/3/2021 7:00:00 AM -0.1 31.82 0.087 6.61 1.77 13.56
2/3/2021 7:15:00 AM -0.1 31.82 0.087 6.6 1.72 13.57
2/3/2021 7:30:00 AM -0.11 31.802 0.087 6.61 1.73 13.58
2/3/2021 7:45:00 AM -0.11 31.802 0.087 6.61 1.73 13.59
2/3/2021 8:00:00 AM -0.11 31.802 0.087 6.62 1.69 13.62
2/3/2021 8:15:00 AM -0.1 31.82 0.087 6.63 1.74 13.66
2/3/2021 8:30:00 AM -0.11 31.802 0.087 6.64 1.69 13.72
2/3/2021 8:45:00 AM -0.11 31.802 0.087 6.66 1.68 13.78
2/3/2021 9:00:00 AM -0.1 31.82 0.086 6.67 1.67 13.84
2/3/2021 9:15:00 AM -0.1 31.82 0.086 6.69 1.67 13.89
2/3/2021 9:30:00 AM -0.09 31.838 0.086 6.72 1.66 13.95
2/3/2021 9:45:00 AM -0.08 31.856 0.086 6.73 1.64 14
2/3/2021 10:00:00 AM -0.06 31.892 0.086 6.76 1.64 14.03
2/3/2021 10:15:00 AM -0.06 31.892 0.086 6.78 1.67 14.05
2/3/2021 10:30:00 AM -0.04 31.928 0.086 6.79 1.67 14.06
2/3/2021 10:45:00 AM -0.02 31.964 0.086 6.8 1.66 14.08
2/3/2021 11:00:00 AM -0.01 31.982 0.086 6.82 1.64 14.09
2/3/2021 11:15:00 AM 0.01 32.018 0.085 6.82 1.66 14.09
2/3/2021 11:30:00 AM 0.03 32.054 0.085 6.83 1.64 14.06
2/3/2021 11:45:00 AM 0.07 32.126 0.085 6.85 1.63 14.04
2/3/2021 12:00:00 PM 0.09 32.162 0.085 6.85 1.66 14.02
2/3/2021 12:15:00 PM 0.12 32.216 0.085 6.84 1.67 13.97
2/3/2021 12:30:00 PM 0.16 32.288 0.084 6.86 1.63 13.93
2/3/2021 12:45:00 PM 0.2 32.36 0.084 6.86 1.68 13.89
2/3/2021 1:00:00 PM 0.28 32.504 0.084 6.88 1.68 13.87
2/3/2021 1:15:00 PM 0.32 32.576 0.083 6.9 1.66 13.84
2/3/2021 1:30:00 PM 0.4 32.72 0.083 6.9 1.65 13.82
2/3/2021 1:45:00 PM 0.46 32.828 0.083 6.92 1.66 13.79
2/3/2021 2:00:00 PM 0.48 32.864 0.083 6.91 1.66 13.79
2/3/2021 2:15:00 PM 0.51 32.918 0.083 6.91 1.68 13.77
2/3/2021 2:30:00 PM 0.52 32.936 0.083 6.9 1.67 13.73
2/3/2021 2:45:00 PM 0.55 32.99 0.083 6.91 1.68 13.71
2/3/2021 3:00:00 PM 0.61 33.098 0.083 6.9 1.64 13.69
2/3/2021 3:15:00 PM 0.61 33.098 0.083 6.89 1.68 13.67
2/3/2021 3:30:00 PM 0.63 33.134 0.083 6.89 1.64 13.64
2/3/2021 3:45:00 PM 0.63 33.134 0.083 6.88 1.66 13.6
2/3/2021 4:00:00 PM 0.65 33.17 0.083 6.87 1.64 13.59
2/3/2021 4:15:00 PM 0.68 33.224 0.083 6.87 1.67 13.57
2/3/2021 4:30:00 PM 0.66 33.188 0.083 6.86 1.69 13.56
2/3/2021 4:45:00 PM 0.64 33.152 0.083 6.85 1.74 13.55
2/3/2021 5:00:00 PM 0.65 33.17 0.083 6.83 1.71 13.54
2/3/2021 5:15:00 PM 0.6 33.08 0.083 6.83 1.93 13.49
2/3/2021 5:30:00 PM 0.66 33.188 0.083 6.8 1.72 13.44
2/3/2021 5:45:00 PM 0.7 33.26 0.083 6.79 1.69 13.39
2/3/2021 6:00:00 PM 0.66 33.188 0.083 6.76 1.71 13.36
2/3/2021 6:15:00 PM 0.69 33.242 0.083 6.75 1.74 13.33
2/3/2021 6:30:00 PM 0.68 33.224 0.084 6.73 1.7 13.31
2/3/2021 6:45:00 PM 0.65 33.17 0.084 6.72 1.7 13.3
2/3/2021 7:00:00 PM 0.65 33.17 0.084 6.72 1.77 13.29
2/3/2021 7:15:00 PM 0.63 33.134 0.084 6.71 1.77 13.29
2/3/2021 7:30:00 PM 0.61 33.098 0.084 6.7 1.72 13.3
2/3/2021 7:45:00 PM 0.59 33.062 0.084 6.69 1.78 13.3
2/3/2021 8:00:00 PM 0.58 33.044 0.085 6.68 1.76 13.31
2/3/2021 8:15:00 PM 0.5 32.9 0.085 6.68 1.77 13.33
2/3/2021 8:30:00 PM 0.51 32.918 0.085 6.68 1.77 13.36
2/3/2021 8:45:00 PM 0.49 32.882 0.085 6.69 1.73 13.36
2/3/2021 9:00:00 PM 0.46 32.828 0.085 6.67 1.74 13.38
2/3/2021 9:15:00 PM 0.44 32.792 0.086 6.68 1.77 13.38
2/3/2021 9:30:00 PM 0.41 32.738 0.086 6.67 1.77 13.4
2/3/2021 9:45:00 PM 0.38 32.684 0.086 6.67 1.74 13.43
2/3/2021 10:00:00 PM 0.34 32.612 0.086 6.69 1.73 13.44
2/3/2021 10:15:00 PM 0.29 32.522 0.086 6.66 1.76 13.46
2/3/2021 10:30:00 PM 0.28 32.504 0.086 6.67 1.82 13.48
2/3/2021 10:45:00 PM 0.25 32.45 0.086 6.67 1.76 13.49
2/3/2021 11:00:00 PM 0.22 32.396 0.087 6.67 1.8 13.51
2/3/2021 11:15:00 PM 0.18 32.324 0.087 6.67 1.77 13.53
2/3/2021 11:30:00 PM 0.14 32.252 0.087 6.67 2.27 13.55
2/3/2021 11:45:00 PM 0.11 32.198 0.087 6.66 2.23 13.57
2/4/2021 12:00:00 AM 0.08 32.144 0.087 6.66 1.88 13.59
2/4/2021 12:15:00 AM 0.04 32.072 0.087 6.66 1.93 13.6
2/4/2021 12:30:00 AM 0.01 32.018 0.087 6.66 1.76 13.62
2/4/2021 12:45:00 AM -0.02 31.964 0.087 6.66 1.75 13.63
2/4/2021 1:00:00 AM -0.05 31.91 0.087 6.66 1.72 13.66
2/4/2021 1:15:00 AM -0.09 31.838 0.087 6.66 1.86 13.68
2/4/2021 1:30:00 AM -0.12 31.784 0.087 6.65 2.04 13.69
2/4/2021 1:45:00 AM -0.15 31.73 0.087 6.65 1.93 13.7
2/4/2021 2:00:00 AM -0.17 31.694 0.088 6.66 1.81 13.72
2/4/2021 2:15:00 AM -0.15 31.73 0.086 6.66 1.75 13.74
2/4/2021 2:30:00 AM -0.14 31.748 0.081 6.66 1.79 13.75
2/4/2021 2:45:00 AM -0.14 31.748 0.078 6.66 1.8 13.75
2/4/2021 3:00:00 AM -0.14 31.748 0.072 6.67 1.82 13.75
2/4/2021 3:15:00 AM -0.14 31.748 0.069 6.66 1.82 13.75
2/4/2021 3:30:00 AM -0.14 31.748 0.067 6.67 1.76 13.77
2/4/2021 3:45:00 AM -0.13 31.766 0.064 6.67 1.71 13.76
2/4/2021 4:00:00 AM -0.13 31.766 0.063 6.68 1.76 13.77
2/4/2021 4:15:00 AM -0.13 31.766 0.061 6.67 1.81 13.76
2/4/2021 4:30:00 AM -0.13 31.766 0.06 6.67 1.8 13.75
2/4/2021 4:45:00 AM -0.13 31.766 0.059 6.68 1.78 13.74
2/4/2021 5:00:00 AM -0.13 31.766 0.058 6.68 1.79 13.74
2/4/2021 5:15:00 AM -0.13 31.766 0.058 6.68 1.78 13.74
2/4/2021 5:30:00 AM -0.13 31.766 0.057 6.68 1.74 13.73
2/4/2021 5:45:00 AM -0.13 31.766 0.056 6.68 1.89 13.73
2/4/2021 6:00:00 AM -0.13 31.766 0.055 6.68 1.87 13.74
2/4/2021 6:15:00 AM -0.13 31.766 0.054 6.68 2 13.74
2/4/2021 6:30:00 AM -0.13 31.766 0.053 6.69 1.79 13.74
2/4/2021 6:45:00 AM -0.13 31.766 0.052 6.7 1.81 13.74
2/4/2021 7:00:00 AM -0.13 31.766 0.051 6.7 1.86 13.74
2/4/2021 7:15:00 AM -0.13 31.766 0.05 6.69 1.93 13.75
2/4/2021 7:30:00 AM -0.13 31.766 0.049 6.69 1.95 13.76
2/4/2021 7:45:00 AM -0.13 31.766 0.049 6.69 1.84 13.79
2/4/2021 8:00:00 AM -0.13 31.766 0.048 6.7 1.89 13.84
2/4/2021 8:15:00 AM -0.13 31.766 0.048 6.71 1.86 13.89
2/4/2021 8:30:00 AM -0.13 31.766 0.048 6.72 1.87 13.94
2/4/2021 8:45:00 AM -0.13 31.766 0.048 6.73 1.84 14
2/4/2021 9:00:00 AM -0.13 31.766 0.048 6.74 1.85 14.05
2/4/2021 9:15:00 AM -0.13 31.766 0.048 6.76 1.83 14.09
2/4/2021 9:30:00 AM -0.13 31.766 0.049 6.77 1.83 14.14
2/4/2021 9:45:00 AM -0.13 31.766 0.049 6.78 1.82 14.17
2/4/2021 10:00:00 AM -0.13 31.766 0.049 6.8 1.84 14.21
2/4/2021 10:15:00 AM -0.13 31.766 0.049 6.82 1.96 14.24
2/4/2021 10:30:00 AM -0.13 31.766 0.05 6.83 2.04 14.27
2/4/2021 10:45:00 AM -0.13 31.766 0.052 6.84 2.03 14.3
2/4/2021 11:00:00 AM -0.13 31.766 0.056 6.85 2.03 14.33
2/4/2021 11:15:00 AM -0.12 31.784 0.064 6.86 2.24 14.37
2/4/2021 11:30:00 AM -0.11 31.802 0.078 6.85 2.18 14.39
2/4/2021 11:45:00 AM -0.11 31.802 0.086 6.87 2.2 14.41
2/4/2021 12:00:00 PM -0.11 31.802 0.085 6.89 2.34 14.41
2/4/2021 12:15:00 PM -0.11 31.802 0.085 6.88 2.59 14.41
2/4/2021 12:30:00 PM -0.11 31.802 0.085 6.89 2.15 14.4
2/4/2021 12:45:00 PM -0.11 31.802 0.086 6.91 2.11 14.37
2/4/2021 1:00:00 PM -0.11 31.802 0.086 6.9 2.07 14.35
2/4/2021 1:15:00 PM -0.11 31.802 0.086 6.9 2.01 14.32
2/4/2021 1:30:00 PM -0.11 31.802 0.086 6.9 2.02 14.28
2/4/2021 1:45:00 PM -0.12 31.784 0.086 6.89 1.98 14.24
2/4/2021 2:00:00 PM -0.12 31.784 0.086 6.9 1.96 14.21
2/4/2021 2:15:00 PM -0.12 31.784 0.086 6.87 1.92 14.17
2/4/2021 2:30:00 PM -0.11 31.802 0.085 6.88 2 14.13
2/4/2021 2:45:00 PM -0.09 31.838 0.085 6.86 1.94 14.09
2/4/2021 3:00:00 PM -0.05 31.91 0.084 6.86 1.88 14.05
2/4/2021 3:15:00 PM 0 32 0.084 6.86 1.89 14.03
2/4/2021 3:30:00 PM 0.07 32.126 0.084 6.87 1.79 14
2/4/2021 3:45:00 PM 0.15 32.27 0.084 6.88 1.8 13.96
2/4/2021 4:00:00 PM 0.26 32.468 0.084 6.9 1.78 13.94
2/4/2021 4:15:00 PM 0.37 32.666 0.084 6.91 1.9 13.92
2/4/2021 4:30:00 PM 0.48 32.864 0.084 6.92 1.74 13.84
2/4/2021 4:45:00 PM 0.57 33.026 0.084 6.89 1.77 13.73
2/4/2021 5:00:00 PM 0.64 33.152 0.084 6.88 1.76 13.65
2/4/2021 5:15:00 PM 0.7 33.26 0.085 6.85 1.72 13.57
2/4/2021 5:30:00 PM 0.73 33.314 0.085 6.84 1.75 13.49
2/4/2021 5:45:00 PM 0.75 33.35 0.085 6.8 1.76 13.43
2/4/2021 6:00:00 PM 0.77 33.386 0.085 6.78 1.75 13.39
2/4/2021 6:15:00 PM 0.76 33.368 0.085 6.76 1.84 13.36
2/4/2021 6:30:00 PM 0.73 33.314 0.086 6.74 1.82 13.35
2/4/2021 6:45:00 PM 0.74 33.332 0.086 6.74 1.77 13.32
2/4/2021 7:00:00 PM 0.73 33.314 0.086 6.73 1.82 13.31
2/4/2021 7:15:00 PM 0.72 33.296 0.086 6.71 1.85 13.31
2/4/2021 7:30:00 PM 0.71 33.278 0.086 6.7 1.83 13.3
2/4/2021 7:45:00 PM 0.71 33.278 0.086 6.71 1.85 13.3
2/4/2021 8:00:00 PM 0.7 33.26 0.085 6.71 1.88 13.3
2/4/2021 8:15:00 PM 0.69 33.242 0.086 6.69 2.09 13.3
2/4/2021 8:30:00 PM 0.68 33.224 0.086 6.69 2.02 13.3
2/4/2021 8:45:00 PM 0.67 33.206 0.086 6.7 1.89 13.3
2/4/2021 9:00:00 PM 0.65 33.17 0.086 6.68 1.78 13.32
2/4/2021 9:15:00 PM 0.63 33.134 0.086 6.69 1.85 13.32
2/4/2021 9:30:00 PM 0.62 33.116 0.086 6.68 1.82 13.34
2/4/2021 9:45:00 PM 0.6 33.08 0.086 6.67 1.8 13.34
2/4/2021 10:00:00 PM 0.58 33.044 0.086 6.68 1.85 13.34
2/4/2021 10:15:00 PM 0.56 33.008 0.086 6.68 1.8 13.34
2/4/2021 10:30:00 PM 0.55 32.99 0.086 6.67 1.78 13.35
2/4/2021 10:45:00 PM 0.56 33.008 0.086 6.67 1.82 13.35
2/4/2021 11:00:00 PM 0.55 32.99 0.086 6.68 1.79 13.35
2/4/2021 11:15:00 PM 0.54 32.972 0.087 6.68 1.8 13.36
2/4/2021 11:30:00 PM 0.54 32.972 0.087 6.69 1.76 13.35
2/4/2021 11:45:00 PM 0.54 32.972 0.087 6.69 1.7 13.36
2/5/2021 12:00:00 AM 0.52 32.936 0.087 6.69 1.81 13.35
2/5/2021 12:15:00 AM 0.5 32.9 0.087 6.68 1.81 13.36
2/5/2021 12:30:00 AM 0.48 32.864 0.087 6.69 1.8 13.36
2/5/2021 12:45:00 AM 0.48 32.864 0.087 6.69 1.81 13.37
2/5/2021 1:00:00 AM 0.5 32.9 0.087 6.69 1.73 13.36
2/5/2021 1:15:00 AM 0.48 32.864 0.087 6.68 1.75 13.36
2/5/2021 1:30:00 AM 0.51 32.918 0.087 6.7 1.8 13.35
2/5/2021 1:45:00 AM 0.52 32.936 0.087 6.69 1.74 13.35
2/5/2021 2:00:00 AM 0.52 32.936 0.087 6.7 1.74 13.34
2/5/2021 2:15:00 AM 0.51 32.918 0.087 6.69 1.74 13.34
2/5/2021 2:30:00 AM 0.51 32.918 0.087 6.69 1.79 13.33
2/5/2021 2:45:00 AM 0.52 32.936 0.087 6.7 1.72 13.32
2/5/2021 3:00:00 AM 0.53 32.954 0.087 6.7 1.72 13.32
2/5/2021 3:15:00 AM 0.5 32.9 0.087 6.69 1.75 13.31
2/5/2021 3:30:00 AM 0.53 32.954 0.087 6.69 1.72 13.3
2/5/2021 3:45:00 AM 0.56 33.008 0.087 6.7 1.72 13.29
2/5/2021 4:00:00 AM 0.57 33.026 0.087 6.7 1.82 13.27
2/5/2021 4:15:00 AM 0.57 33.026 0.087 6.71 1.83 13.27
2/5/2021 4:30:00 AM 0.58 33.044 0.087 6.7 1.76 13.27
2/5/2021 4:45:00 AM 0.6 33.08 0.087 6.69 1.71 13.26
2/5/2021 5:00:00 AM 0.6 33.08 0.087 6.71 1.7 13.25
2/5/2021 5:15:00 AM 0.58 33.044 0.087 6.69 1.74 13.24
2/5/2021 5:30:00 AM 0.63 33.134 0.087 6.7 1.69 13.24
2/5/2021 5:45:00 AM 0.62 33.116 0.087 6.7 1.72 13.23
2/5/2021 6:00:00 AM 0.62 33.116 0.087 6.69 1.72 13.22
2/5/2021 6:15:00 AM 0.63 33.134 0.087 6.7 1.76 13.21
2/5/2021 6:30:00 AM 0.62 33.116 0.087 6.69 1.78 13.22
2/5/2021 6:45:00 AM 0.64 33.152 0.087 6.71 1.75 13.21
2/5/2021 7:00:00 AM 0.61 33.098 0.087 6.7 1.74 13.21
2/5/2021 7:15:00 AM 0.56 33.008 0.087 6.69 1.7 13.22
2/5/2021 7:30:00 AM 0.51 32.918 0.087 6.68 1.76 13.24
2/5/2021 7:45:00 AM 0.5 32.9 0.087 6.68 1.71 13.28
2/5/2021 8:00:00 AM 0.56 33.008 0.087 6.71 1.72 13.32
2/5/2021 8:15:00 AM 0.61 33.098 0.087 6.74 1.69 13.39
2/5/2021 8:30:00 AM 0.66 33.188 0.086 6.76 1.7 13.47
2/5/2021 8:45:00 AM 0.61 33.098 0.086 6.78 1.72 13.54
2/5/2021 9:00:00 AM 0.69 33.242 0.086 6.81 1.65 13.58
2/5/2021 9:15:00 AM 0.79 33.422 0.086 6.84 1.65 13.62
2/5/2021 9:30:00 AM 0.85 33.53 0.086 6.87 1.66 13.65
2/5/2021 9:45:00 AM 0.92 33.656 0.086 6.89 1.63